<?xml version="1.0" encoding="UTF-8" standalone="no" ?>
<gpx xmlns="http://www.topografix.com/GPX/1/1" xmlns:xsi="http://www.w3.org/2001/XMLSchema-instance" xsi:schemaLocation="http://www.topografix.com/GPX/1/1 http://www.topografix.com/GPX/1/1/gpx.xsd" version="1.1" creator="VisuGPX - https://www.visugpx.com">
  <metadata>
    <name>Domaine de l'Ayré</name>
    <desc><![CDATA[Un domaine sans danger  d'avalanches  pour de belles sorties en raquettes à neige.]]></desc>
  </metadata>
  <trk>
    <name><![CDATA[Ayré (domaine de l') 03 AVR 2018 09:14]]></name>
    <trkseg>
      <trkpt lat="42.9038" lon="0.10147">
        <ele>1454.13</ele>
        <time>2018-04-03T07:19:02Z</time>
      </trkpt>
      <trkpt lat="42.90375" lon="0.10151">
        <ele>1454.13</ele>
        <time>2018-04-03T07:19:13Z</time>
      </trkpt>
      <trkpt lat="42.90372" lon="0.10152">
        <ele>1456.53</ele>
        <time>2018-04-03T07:28:54Z</time>
      </trkpt>
      <trkpt lat="42.90365" lon="0.10163">
        <ele>1457.02</ele>
        <time>2018-04-03T07:29:08Z</time>
      </trkpt>
      <trkpt lat="42.90364" lon="0.10143">
        <ele>1456.53</ele>
        <time>2018-04-03T07:29:21Z</time>
      </trkpt>
      <trkpt lat="42.90366" lon="0.10137">
        <ele>1456.05</ele>
        <time>2018-04-03T07:29:39Z</time>
      </trkpt>
      <trkpt lat="42.9036" lon="0.10115">
        <ele>1456.05</ele>
        <time>2018-04-03T07:29:57Z</time>
      </trkpt>
      <trkpt lat="42.90359" lon="0.10105">
        <ele>1455.57</ele>
        <time>2018-04-03T07:30:05Z</time>
      </trkpt>
      <trkpt lat="42.90354" lon="0.10077">
        <ele>1453.65</ele>
        <time>2018-04-03T07:30:24Z</time>
      </trkpt>
      <trkpt lat="42.90356" lon="0.10054">
        <ele>1453.17</ele>
        <time>2018-04-03T07:30:39Z</time>
      </trkpt>
      <trkpt lat="42.90358" lon="0.10048">
        <ele>1453.17</ele>
        <time>2018-04-03T07:30:44Z</time>
      </trkpt>
      <trkpt lat="42.90361" lon="0.10024">
        <ele>1450.77</ele>
        <time>2018-04-03T07:31:01Z</time>
      </trkpt>
      <trkpt lat="42.9036" lon="0.10016">
        <ele>1450.29</ele>
        <time>2018-04-03T07:31:07Z</time>
      </trkpt>
      <trkpt lat="42.9036" lon="0.09993">
        <ele>1447.88</ele>
        <time>2018-04-03T07:31:24Z</time>
      </trkpt>
      <trkpt lat="42.90362" lon="0.09987">
        <ele>1447.88</ele>
        <time>2018-04-03T07:31:28Z</time>
      </trkpt>
      <trkpt lat="42.90359" lon="0.09977">
        <ele>1446.44</ele>
        <time>2018-04-03T07:31:36Z</time>
      </trkpt>
      <trkpt lat="42.90358" lon="0.09964">
        <ele>1445.48</ele>
        <time>2018-04-03T07:31:47Z</time>
      </trkpt>
      <trkpt lat="42.90358" lon="0.09958">
        <ele>1445</ele>
        <time>2018-04-03T07:31:51Z</time>
      </trkpt>
      <trkpt lat="42.90355" lon="0.09926">
        <ele>1443.08</ele>
        <time>2018-04-03T07:32:12Z</time>
      </trkpt>
      <trkpt lat="42.90355" lon="0.09901">
        <ele>1441.63</ele>
        <time>2018-04-03T07:32:30Z</time>
      </trkpt>
      <trkpt lat="42.90355" lon="0.09898">
        <ele>1441.63</ele>
        <time>2018-04-03T07:32:32Z</time>
      </trkpt>
      <trkpt lat="42.90356" lon="0.09889">
        <ele>1441.15</ele>
        <time>2018-04-03T07:32:38Z</time>
      </trkpt>
      <trkpt lat="42.90356" lon="0.09883">
        <ele>1440.19</ele>
        <time>2018-04-03T07:32:43Z</time>
      </trkpt>
      <trkpt lat="42.90357" lon="0.09857">
        <ele>1439.23</ele>
        <time>2018-04-03T07:32:59Z</time>
      </trkpt>
      <trkpt lat="42.90355" lon="0.09835">
        <ele>1438.27</ele>
        <time>2018-04-03T07:33:15Z</time>
      </trkpt>
      <trkpt lat="42.90355" lon="0.09834">
        <ele>1438.27</ele>
        <time>2018-04-03T07:33:16Z</time>
      </trkpt>
      <trkpt lat="42.90355" lon="0.09814">
        <ele>1437.79</ele>
        <time>2018-04-03T07:33:28Z</time>
      </trkpt>
      <trkpt lat="42.90355" lon="0.09793">
        <ele>1436.83</ele>
        <time>2018-04-03T07:33:42Z</time>
      </trkpt>
      <trkpt lat="42.90353" lon="0.0978">
        <ele>1436.35</ele>
        <time>2018-04-03T07:33:51Z</time>
      </trkpt>
      <trkpt lat="42.90355" lon="0.09776">
        <ele>1436.35</ele>
        <time>2018-04-03T07:33:54Z</time>
      </trkpt>
      <trkpt lat="42.90354" lon="0.09747">
        <ele>1434.91</ele>
        <time>2018-04-03T07:34:11Z</time>
      </trkpt>
      <trkpt lat="42.90355" lon="0.09718">
        <ele>1433.46</ele>
        <time>2018-04-03T07:34:29Z</time>
      </trkpt>
      <trkpt lat="42.90355" lon="0.09716">
        <ele>1433.46</ele>
        <time>2018-04-03T07:34:30Z</time>
      </trkpt>
      <trkpt lat="42.90355" lon="0.09715">
        <ele>1433.46</ele>
        <time>2018-04-03T07:34:31Z</time>
      </trkpt>
      <trkpt lat="42.90354" lon="0.09677">
        <ele>1431.06</ele>
        <time>2018-04-03T07:34:54Z</time>
      </trkpt>
      <trkpt lat="42.90354" lon="0.09652">
        <ele>1429.62</ele>
        <time>2018-04-03T07:35:10Z</time>
      </trkpt>
      <trkpt lat="42.90355" lon="0.0965">
        <ele>1429.14</ele>
        <time>2018-04-03T07:35:11Z</time>
      </trkpt>
      <trkpt lat="42.90356" lon="0.09625">
        <ele>1428.18</ele>
        <time>2018-04-03T07:35:26Z</time>
      </trkpt>
      <trkpt lat="42.90357" lon="0.09596">
        <ele>1427.7</ele>
        <time>2018-04-03T07:35:43Z</time>
      </trkpt>
      <trkpt lat="42.90358" lon="0.09562">
        <ele>1425.77</ele>
        <time>2018-04-03T07:36:03Z</time>
      </trkpt>
      <trkpt lat="42.9036" lon="0.09532">
        <ele>1424.33</ele>
        <time>2018-04-03T07:36:20Z</time>
      </trkpt>
      <trkpt lat="42.90359" lon="0.09498">
        <ele>1423.37</ele>
        <time>2018-04-03T07:36:39Z</time>
      </trkpt>
      <trkpt lat="42.90359" lon="0.09497">
        <ele>1423.37</ele>
        <time>2018-04-03T07:36:40Z</time>
      </trkpt>
      <trkpt lat="42.90357" lon="0.09487">
        <ele>1422.89</ele>
        <time>2018-04-03T07:36:46Z</time>
      </trkpt>
      <trkpt lat="42.90354" lon="0.09462">
        <ele>1421.45</ele>
        <time>2018-04-03T07:37:01Z</time>
      </trkpt>
      <trkpt lat="42.90352" lon="0.09429">
        <ele>1420</ele>
        <time>2018-04-03T07:37:19Z</time>
      </trkpt>
      <trkpt lat="42.90351" lon="0.09424">
        <ele>1420</ele>
        <time>2018-04-03T07:37:23Z</time>
      </trkpt>
      <trkpt lat="42.90344" lon="0.09397">
        <ele>1419.52</ele>
        <time>2018-04-03T07:37:39Z</time>
      </trkpt>
      <trkpt lat="42.90338" lon="0.09378">
        <ele>1421.45</ele>
        <time>2018-04-03T07:37:51Z</time>
      </trkpt>
      <trkpt lat="42.90335" lon="0.09363">
        <ele>1422.41</ele>
        <time>2018-04-03T07:38:01Z</time>
      </trkpt>
      <trkpt lat="42.90334" lon="0.0936">
        <ele>1422.41</ele>
        <time>2018-04-03T07:38:03Z</time>
      </trkpt>
      <trkpt lat="42.90332" lon="0.09353">
        <ele>1422.89</ele>
        <time>2018-04-03T07:38:07Z</time>
      </trkpt>
      <trkpt lat="42.90329" lon="0.09343">
        <ele>1423.37</ele>
        <time>2018-04-03T07:38:14Z</time>
      </trkpt>
      <trkpt lat="42.90321" lon="0.09319">
        <ele>1424.81</ele>
        <time>2018-04-03T07:38:30Z</time>
      </trkpt>
      <trkpt lat="42.90313" lon="0.09302">
        <ele>1427.21</ele>
        <time>2018-04-03T07:38:44Z</time>
      </trkpt>
      <trkpt lat="42.90308" lon="0.09294">
        <ele>1427.7</ele>
        <time>2018-04-03T07:38:51Z</time>
      </trkpt>
      <trkpt lat="42.90301" lon="0.09286">
        <ele>1427.7</ele>
        <time>2018-04-03T07:38:58Z</time>
      </trkpt>
      <trkpt lat="42.90291" lon="0.09271">
        <ele>1429.62</ele>
        <time>2018-04-03T07:39:12Z</time>
      </trkpt>
      <trkpt lat="42.90284" lon="0.09259">
        <ele>1430.1</ele>
        <time>2018-04-03T07:39:23Z</time>
      </trkpt>
      <trkpt lat="42.90275" lon="0.09244">
        <ele>1431.54</ele>
        <time>2018-04-03T07:39:35Z</time>
      </trkpt>
      <trkpt lat="42.90269" lon="0.0923">
        <ele>1434.91</ele>
        <time>2018-04-03T07:39:49Z</time>
      </trkpt>
      <trkpt lat="42.90269" lon="0.09228">
        <ele>1434.91</ele>
        <time>2018-04-03T07:39:50Z</time>
      </trkpt>
      <trkpt lat="42.90261" lon="0.09211">
        <ele>1436.35</ele>
        <time>2018-04-03T07:40:05Z</time>
      </trkpt>
      <trkpt lat="42.90258" lon="0.09209">
        <ele>1436.83</ele>
        <time>2018-04-03T07:40:08Z</time>
      </trkpt>
      <trkpt lat="42.9025" lon="0.09195">
        <ele>1437.79</ele>
        <time>2018-04-03T07:40:20Z</time>
      </trkpt>
      <trkpt lat="42.90239" lon="0.09176">
        <ele>1439.71</ele>
        <time>2018-04-03T07:40:36Z</time>
      </trkpt>
      <trkpt lat="42.90232" lon="0.09164">
        <ele>1440.67</ele>
        <time>2018-04-03T07:40:48Z</time>
      </trkpt>
      <trkpt lat="42.90227" lon="0.0915">
        <ele>1443.08</ele>
        <time>2018-04-03T07:41:00Z</time>
      </trkpt>
      <trkpt lat="42.90225" lon="0.09141">
        <ele>1443.56</ele>
        <time>2018-04-03T07:41:07Z</time>
      </trkpt>
      <trkpt lat="42.90217" lon="0.09124">
        <ele>1445</ele>
        <time>2018-04-03T07:41:22Z</time>
      </trkpt>
      <trkpt lat="42.9021" lon="0.09107">
        <ele>1446.92</ele>
        <time>2018-04-03T07:41:36Z</time>
      </trkpt>
      <trkpt lat="42.90204" lon="0.09087">
        <ele>1447.88</ele>
        <time>2018-04-03T07:41:51Z</time>
      </trkpt>
      <trkpt lat="42.902" lon="0.0908">
        <ele>1446.44</ele>
        <time>2018-04-03T07:41:58Z</time>
      </trkpt>
      <trkpt lat="42.90199" lon="0.09073">
        <ele>1449.81</ele>
        <time>2018-04-03T07:42:02Z</time>
      </trkpt>
      <trkpt lat="42.90199" lon="0.09072">
        <ele>1450.29</ele>
        <time>2018-04-03T07:42:03Z</time>
      </trkpt>
      <trkpt lat="42.90197" lon="0.09054">
        <ele>1449.81</ele>
        <time>2018-04-03T07:42:15Z</time>
      </trkpt>
      <trkpt lat="42.90195" lon="0.09045">
        <ele>1451.25</ele>
        <time>2018-04-03T07:42:21Z</time>
      </trkpt>
      <trkpt lat="42.90193" lon="0.09036">
        <ele>1449.32</ele>
        <time>2018-04-03T07:42:27Z</time>
      </trkpt>
      <trkpt lat="42.90189" lon="0.09025">
        <ele>1450.29</ele>
        <time>2018-04-03T07:42:34Z</time>
      </trkpt>
      <trkpt lat="42.90177" lon="0.09004">
        <ele>1451.25</ele>
        <time>2018-04-03T07:42:49Z</time>
      </trkpt>
      <trkpt lat="42.90172" lon="0.08993">
        <ele>1450.77</ele>
        <time>2018-04-03T07:42:57Z</time>
      </trkpt>
      <trkpt lat="42.9017" lon="0.08964">
        <ele>1450.77</ele>
        <time>2018-04-03T07:43:14Z</time>
      </trkpt>
      <trkpt lat="42.90169" lon="0.08956">
        <ele>1451.25</ele>
        <time>2018-04-03T07:43:19Z</time>
      </trkpt>
      <trkpt lat="42.90167" lon="0.0895">
        <ele>1451.25</ele>
        <time>2018-04-03T07:43:23Z</time>
      </trkpt>
      <trkpt lat="42.90167" lon="0.08943">
        <ele>1451.73</ele>
        <time>2018-04-03T07:43:27Z</time>
      </trkpt>
      <trkpt lat="42.90165" lon="0.08936">
        <ele>1451.73</ele>
        <time>2018-04-03T07:43:32Z</time>
      </trkpt>
      <trkpt lat="42.90164" lon="0.08931">
        <ele>1451.73</ele>
        <time>2018-04-03T07:43:35Z</time>
      </trkpt>
      <trkpt lat="42.90162" lon="0.08926">
        <ele>1451.73</ele>
        <time>2018-04-03T07:43:39Z</time>
      </trkpt>
      <trkpt lat="42.90161" lon="0.08917">
        <ele>1451.73</ele>
        <time>2018-04-03T07:43:45Z</time>
      </trkpt>
      <trkpt lat="42.90158" lon="0.0889">
        <ele>1452.21</ele>
        <time>2018-04-03T07:44:01Z</time>
      </trkpt>
      <trkpt lat="42.90157" lon="0.08884">
        <ele>1452.69</ele>
        <time>2018-04-03T07:44:05Z</time>
      </trkpt>
      <trkpt lat="42.90153" lon="0.08863">
        <ele>1453.17</ele>
        <time>2018-04-03T07:44:18Z</time>
      </trkpt>
      <trkpt lat="42.9015" lon="0.08838">
        <ele>1454.61</ele>
        <time>2018-04-03T07:44:36Z</time>
      </trkpt>
      <trkpt lat="42.90147" lon="0.08827">
        <ele>1453.17</ele>
        <time>2018-04-03T07:44:43Z</time>
      </trkpt>
      <trkpt lat="42.90137" lon="0.0881">
        <ele>1455.57</ele>
        <time>2018-04-03T07:44:58Z</time>
      </trkpt>
      <trkpt lat="42.90127" lon="0.08793">
        <ele>1457.02</ele>
        <time>2018-04-03T07:45:12Z</time>
      </trkpt>
      <trkpt lat="42.90116" lon="0.0877">
        <ele>1458.46</ele>
        <time>2018-04-03T07:45:29Z</time>
      </trkpt>
      <trkpt lat="42.90108" lon="0.0875">
        <ele>1458.94</ele>
        <time>2018-04-03T07:45:44Z</time>
      </trkpt>
      <trkpt lat="42.90097" lon="0.08732">
        <ele>1460.86</ele>
        <time>2018-04-03T07:45:59Z</time>
      </trkpt>
      <trkpt lat="42.90093" lon="0.08723">
        <ele>1460.86</ele>
        <time>2018-04-03T07:46:06Z</time>
      </trkpt>
      <trkpt lat="42.90081" lon="0.08703">
        <ele>1462.78</ele>
        <time>2018-04-03T07:46:24Z</time>
      </trkpt>
      <trkpt lat="42.90071" lon="0.08687">
        <ele>1464.23</ele>
        <time>2018-04-03T07:46:38Z</time>
      </trkpt>
      <trkpt lat="42.90066" lon="0.08669">
        <ele>1465.67</ele>
        <time>2018-04-03T07:46:51Z</time>
      </trkpt>
      <trkpt lat="42.90065" lon="0.08665">
        <ele>1466.15</ele>
        <time>2018-04-03T07:46:54Z</time>
      </trkpt>
      <trkpt lat="42.90056" lon="0.0865">
        <ele>1468.07</ele>
        <time>2018-04-03T07:47:08Z</time>
      </trkpt>
      <trkpt lat="42.90047" lon="0.08629">
        <ele>1470.47</ele>
        <time>2018-04-03T07:47:24Z</time>
      </trkpt>
      <trkpt lat="42.90043" lon="0.0862">
        <ele>1471.44</ele>
        <time>2018-04-03T07:47:31Z</time>
      </trkpt>
      <trkpt lat="42.90042" lon="0.08616">
        <ele>1471.44</ele>
        <time>2018-04-03T07:47:34Z</time>
      </trkpt>
      <trkpt lat="42.90034" lon="0.08598">
        <ele>1473.36</ele>
        <time>2018-04-03T07:47:48Z</time>
      </trkpt>
      <trkpt lat="42.90027" lon="0.08586">
        <ele>1474.32</ele>
        <time>2018-04-03T07:47:59Z</time>
      </trkpt>
      <trkpt lat="42.90017" lon="0.08568">
        <ele>1475.76</ele>
        <time>2018-04-03T07:48:14Z</time>
      </trkpt>
      <trkpt lat="42.90016" lon="0.08558">
        <ele>1476.24</ele>
        <time>2018-04-03T07:48:21Z</time>
      </trkpt>
      <trkpt lat="42.90014" lon="0.08544">
        <ele>1477.68</ele>
        <time>2018-04-03T07:48:31Z</time>
      </trkpt>
      <trkpt lat="42.90007" lon="0.08522">
        <ele>1479.61</ele>
        <time>2018-04-03T07:48:47Z</time>
      </trkpt>
      <trkpt lat="42.90003" lon="0.08511">
        <ele>1479.13</ele>
        <time>2018-04-03T07:48:56Z</time>
      </trkpt>
      <trkpt lat="42.89994" lon="0.08491">
        <ele>1481.53</ele>
        <time>2018-04-03T07:49:11Z</time>
      </trkpt>
      <trkpt lat="42.89986" lon="0.08473">
        <ele>1482.49</ele>
        <time>2018-04-03T07:49:25Z</time>
      </trkpt>
      <trkpt lat="42.89978" lon="0.08456">
        <ele>1483.93</ele>
        <time>2018-04-03T07:49:39Z</time>
      </trkpt>
      <trkpt lat="42.89971" lon="0.08436">
        <ele>1485.85</ele>
        <time>2018-04-03T07:49:53Z</time>
      </trkpt>
      <trkpt lat="42.89968" lon="0.08426">
        <ele>1485.85</ele>
        <time>2018-04-03T07:50:01Z</time>
      </trkpt>
      <trkpt lat="42.8996" lon="0.08408">
        <ele>1487.3</ele>
        <time>2018-04-03T07:50:15Z</time>
      </trkpt>
      <trkpt lat="42.89951" lon="0.08393">
        <ele>1488.26</ele>
        <time>2018-04-03T07:50:28Z</time>
      </trkpt>
      <trkpt lat="42.89943" lon="0.08372">
        <ele>1489.22</ele>
        <time>2018-04-03T07:50:44Z</time>
      </trkpt>
      <trkpt lat="42.89938" lon="0.08349">
        <ele>1491.14</ele>
        <time>2018-04-03T07:50:59Z</time>
      </trkpt>
      <trkpt lat="42.89933" lon="0.0833">
        <ele>1492.1</ele>
        <time>2018-04-03T07:51:13Z</time>
      </trkpt>
      <trkpt lat="42.89923" lon="0.08312">
        <ele>1493.55</ele>
        <time>2018-04-03T07:51:28Z</time>
      </trkpt>
      <trkpt lat="42.89913" lon="0.08298">
        <ele>1494.51</ele>
        <time>2018-04-03T07:51:41Z</time>
      </trkpt>
      <trkpt lat="42.899" lon="0.08284">
        <ele>1495.47</ele>
        <time>2018-04-03T07:51:57Z</time>
      </trkpt>
      <trkpt lat="42.89893" lon="0.08279">
        <ele>1496.43</ele>
        <time>2018-04-03T07:52:04Z</time>
      </trkpt>
      <trkpt lat="42.8989" lon="0.08277">
        <ele>1496.91</ele>
        <time>2018-04-03T07:52:07Z</time>
      </trkpt>
      <trkpt lat="42.89876" lon="0.08268">
        <ele>1498.83</ele>
        <time>2018-04-03T07:52:23Z</time>
      </trkpt>
      <trkpt lat="42.89863" lon="0.08263">
        <ele>1500.27</ele>
        <time>2018-04-03T07:52:35Z</time>
      </trkpt>
      <trkpt lat="42.89861" lon="0.08261">
        <ele>1500.76</ele>
        <time>2018-04-03T07:52:38Z</time>
      </trkpt>
      <trkpt lat="42.89849" lon="0.08259">
        <ele>1501.72</ele>
        <time>2018-04-03T07:52:51Z</time>
      </trkpt>
      <trkpt lat="42.89837" lon="0.08256">
        <ele>1503.16</ele>
        <time>2018-04-03T07:53:03Z</time>
      </trkpt>
      <trkpt lat="42.8982" lon="0.08249">
        <ele>1505.08</ele>
        <time>2018-04-03T07:53:19Z</time>
      </trkpt>
      <trkpt lat="42.89804" lon="0.08246">
        <ele>1506.52</ele>
        <time>2018-04-03T07:53:34Z</time>
      </trkpt>
      <trkpt lat="42.8979" lon="0.08241">
        <ele>1507.97</ele>
        <time>2018-04-03T07:53:49Z</time>
      </trkpt>
      <trkpt lat="42.89782" lon="0.08238">
        <ele>1508.93</ele>
        <time>2018-04-03T07:53:57Z</time>
      </trkpt>
      <trkpt lat="42.89762" lon="0.08233">
        <ele>1511.33</ele>
        <time>2018-04-03T07:54:13Z</time>
      </trkpt>
      <trkpt lat="42.89751" lon="0.08229">
        <ele>1513.25</ele>
        <time>2018-04-03T07:54:24Z</time>
      </trkpt>
      <trkpt lat="42.89736" lon="0.08222">
        <ele>1514.21</ele>
        <time>2018-04-03T07:54:38Z</time>
      </trkpt>
      <trkpt lat="42.8972" lon="0.08217">
        <ele>1517.1</ele>
        <time>2018-04-03T07:54:54Z</time>
      </trkpt>
      <trkpt lat="42.89706" lon="0.08211">
        <ele>1519.02</ele>
        <time>2018-04-03T07:55:08Z</time>
      </trkpt>
      <trkpt lat="42.89698" lon="0.08208">
        <ele>1520.46</ele>
        <time>2018-04-03T07:55:16Z</time>
      </trkpt>
      <trkpt lat="42.89683" lon="0.08199">
        <ele>1521.9</ele>
        <time>2018-04-03T07:55:30Z</time>
      </trkpt>
      <trkpt lat="42.89677" lon="0.08196">
        <ele>1522.87</ele>
        <time>2018-04-03T07:55:35Z</time>
      </trkpt>
      <trkpt lat="42.89669" lon="0.08201">
        <ele>1524.79</ele>
        <time>2018-04-03T07:55:47Z</time>
      </trkpt>
      <trkpt lat="42.89655" lon="0.08212">
        <ele>1526.23</ele>
        <time>2018-04-03T07:56:01Z</time>
      </trkpt>
      <trkpt lat="42.89639" lon="0.08226">
        <ele>1527.19</ele>
        <time>2018-04-03T07:56:16Z</time>
      </trkpt>
      <trkpt lat="42.89623" lon="0.0824">
        <ele>1527.67</ele>
        <time>2018-04-03T07:56:31Z</time>
      </trkpt>
      <trkpt lat="42.89602" lon="0.0825">
        <ele>1527.19</ele>
        <time>2018-04-03T07:56:50Z</time>
      </trkpt>
      <trkpt lat="42.89581" lon="0.08261">
        <ele>1526.23</ele>
        <time>2018-04-03T07:57:10Z</time>
      </trkpt>
      <trkpt lat="42.89577" lon="0.08262">
        <ele>1526.23</ele>
        <time>2018-04-03T07:57:25Z</time>
      </trkpt>
      <trkpt lat="42.8957" lon="0.0826">
        <ele>1526.23</ele>
        <time>2018-04-03T07:57:52Z</time>
      </trkpt>
      <trkpt lat="42.89567" lon="0.08268">
        <ele>1525.75</ele>
        <time>2018-04-03T07:58:10Z</time>
      </trkpt>
      <trkpt lat="42.89557" lon="0.08281">
        <ele>1524.79</ele>
        <time>2018-04-03T07:58:27Z</time>
      </trkpt>
      <trkpt lat="42.89539" lon="0.083">
        <ele>1524.31</ele>
        <time>2018-04-03T07:58:45Z</time>
      </trkpt>
      <trkpt lat="42.8953" lon="0.08311">
        <ele>1524.31</ele>
        <time>2018-04-03T07:58:53Z</time>
      </trkpt>
      <trkpt lat="42.8952" lon="0.08317">
        <ele>1523.83</ele>
        <time>2018-04-03T07:59:05Z</time>
      </trkpt>
      <trkpt lat="42.89503" lon="0.08324">
        <ele>1523.83</ele>
        <time>2018-04-03T07:59:22Z</time>
      </trkpt>
      <trkpt lat="42.89488" lon="0.0833">
        <ele>1522.87</ele>
        <time>2018-04-03T07:59:37Z</time>
      </trkpt>
      <trkpt lat="42.89484" lon="0.08333">
        <ele>1523.35</ele>
        <time>2018-04-03T07:59:42Z</time>
      </trkpt>
      <trkpt lat="42.8948" lon="0.08335">
        <ele>1522.87</ele>
        <time>2018-04-03T07:59:46Z</time>
      </trkpt>
      <trkpt lat="42.89469" lon="0.08322">
        <ele>1522.87</ele>
        <time>2018-04-03T07:59:58Z</time>
      </trkpt>
      <trkpt lat="42.89464" lon="0.08302">
        <ele>1522.39</ele>
        <time>2018-04-03T08:00:12Z</time>
      </trkpt>
      <trkpt lat="42.89458" lon="0.08288">
        <ele>1520.94</ele>
        <time>2018-04-03T08:00:24Z</time>
      </trkpt>
      <trkpt lat="42.89444" lon="0.0828">
        <ele>1519.02</ele>
        <time>2018-04-03T08:00:39Z</time>
      </trkpt>
      <trkpt lat="42.89425" lon="0.08271">
        <ele>1517.1</ele>
        <time>2018-04-03T08:00:56Z</time>
      </trkpt>
      <trkpt lat="42.89404" lon="0.08268">
        <ele>1513.73</ele>
        <time>2018-04-03T08:01:15Z</time>
      </trkpt>
      <trkpt lat="42.89395" lon="0.08258">
        <ele>1513.25</ele>
        <time>2018-04-03T08:01:31Z</time>
      </trkpt>
      <trkpt lat="42.89395" lon="0.08254">
        <ele>1513.25</ele>
        <time>2018-04-03T08:01:34Z</time>
      </trkpt>
      <trkpt lat="42.89393" lon="0.08244">
        <ele>1512.29</ele>
        <time>2018-04-03T08:01:41Z</time>
      </trkpt>
      <trkpt lat="42.89391" lon="0.08214">
        <ele>1511.81</ele>
        <time>2018-04-03T08:02:01Z</time>
      </trkpt>
      <trkpt lat="42.89403" lon="0.08183">
        <ele>1511.81</ele>
        <time>2018-04-03T08:02:22Z</time>
      </trkpt>
      <trkpt lat="42.89417" lon="0.08164">
        <ele>1511.81</ele>
        <time>2018-04-03T08:02:39Z</time>
      </trkpt>
      <trkpt lat="42.89424" lon="0.08141">
        <ele>1509.89</ele>
        <time>2018-04-03T08:03:17Z</time>
      </trkpt>
      <trkpt lat="42.89421" lon="0.0815">
        <ele>1511.33</ele>
        <time>2018-04-03T08:07:48Z</time>
      </trkpt>
      <trkpt lat="42.89422" lon="0.08151">
        <ele>1511.33</ele>
        <time>2018-04-03T08:08:28Z</time>
      </trkpt>
      <trkpt lat="42.89418" lon="0.08145">
        <ele>1511.33</ele>
        <time>2018-04-03T08:12:03Z</time>
      </trkpt>
      <trkpt lat="42.89423" lon="0.08152">
        <ele>1511.33</ele>
        <time>2018-04-03T08:14:33Z</time>
      </trkpt>
      <trkpt lat="42.89426" lon="0.08147">
        <ele>1511.33</ele>
        <time>2018-04-03T08:16:02Z</time>
      </trkpt>
      <trkpt lat="42.89426" lon="0.08147">
        <ele>1511.33</ele>
        <time>2018-04-03T08:16:26Z</time>
      </trkpt>
      <trkpt lat="42.89424" lon="0.08144">
        <ele>1511.81</ele>
        <time>2018-04-03T08:17:22Z</time>
      </trkpt>
      <trkpt lat="42.89425" lon="0.08136">
        <ele>1511.33</ele>
        <time>2018-04-03T08:17:56Z</time>
      </trkpt>
      <trkpt lat="42.89429" lon="0.08125">
        <ele>1510.85</ele>
        <time>2018-04-03T08:18:05Z</time>
      </trkpt>
      <trkpt lat="42.89431" lon="0.08112">
        <ele>1510.37</ele>
        <time>2018-04-03T08:18:15Z</time>
      </trkpt>
      <trkpt lat="42.89432" lon="0.0811">
        <ele>1509.89</ele>
        <time>2018-04-03T08:18:17Z</time>
      </trkpt>
      <trkpt lat="42.89435" lon="0.08088">
        <ele>1508.93</ele>
        <time>2018-04-03T08:18:33Z</time>
      </trkpt>
      <trkpt lat="42.89439" lon="0.08071">
        <ele>1508.93</ele>
        <time>2018-04-03T08:18:46Z</time>
      </trkpt>
      <trkpt lat="42.8944" lon="0.08055">
        <ele>1509.41</ele>
        <time>2018-04-03T08:18:59Z</time>
      </trkpt>
      <trkpt lat="42.89443" lon="0.08037">
        <ele>1509.89</ele>
        <time>2018-04-03T08:19:14Z</time>
      </trkpt>
      <trkpt lat="42.89443" lon="0.08021">
        <ele>1509.89</ele>
        <time>2018-04-03T08:19:26Z</time>
      </trkpt>
      <trkpt lat="42.89443" lon="0.08002">
        <ele>1508.93</ele>
        <time>2018-04-03T08:19:41Z</time>
      </trkpt>
      <trkpt lat="42.89443" lon="0.07988">
        <ele>1510.37</ele>
        <time>2018-04-03T08:19:52Z</time>
      </trkpt>
      <trkpt lat="42.89441" lon="0.07968">
        <ele>1507.97</ele>
        <time>2018-04-03T08:20:08Z</time>
      </trkpt>
      <trkpt lat="42.89441" lon="0.07966">
        <ele>1508.45</ele>
        <time>2018-04-03T08:20:09Z</time>
      </trkpt>
      <trkpt lat="42.8944" lon="0.07947">
        <ele>1508.45</ele>
        <time>2018-04-03T08:20:24Z</time>
      </trkpt>
      <trkpt lat="42.89438" lon="0.07929">
        <ele>1507.97</ele>
        <time>2018-04-03T08:20:40Z</time>
      </trkpt>
      <trkpt lat="42.89433" lon="0.07908">
        <ele>1507.48</ele>
        <time>2018-04-03T08:20:55Z</time>
      </trkpt>
      <trkpt lat="42.89426" lon="0.07895">
        <ele>1507.97</ele>
        <time>2018-04-03T08:21:08Z</time>
      </trkpt>
      <trkpt lat="42.89419" lon="0.07891">
        <ele>1509.89</ele>
        <time>2018-04-03T08:21:18Z</time>
      </trkpt>
      <trkpt lat="42.89417" lon="0.07893">
        <ele>1509.89</ele>
        <time>2018-04-03T08:21:35Z</time>
      </trkpt>
      <trkpt lat="42.8942" lon="0.07878">
        <ele>1508.93</ele>
        <time>2018-04-03T08:21:51Z</time>
      </trkpt>
      <trkpt lat="42.89414" lon="0.07864">
        <ele>1508.93</ele>
        <time>2018-04-03T08:22:05Z</time>
      </trkpt>
      <trkpt lat="42.89411" lon="0.07857">
        <ele>1509.41</ele>
        <time>2018-04-03T08:22:11Z</time>
      </trkpt>
      <trkpt lat="42.89407" lon="0.07842">
        <ele>1511.33</ele>
        <time>2018-04-03T08:22:26Z</time>
      </trkpt>
      <trkpt lat="42.89404" lon="0.07824">
        <ele>1512.29</ele>
        <time>2018-04-03T08:22:41Z</time>
      </trkpt>
      <trkpt lat="42.89402" lon="0.07819">
        <ele>1511.81</ele>
        <time>2018-04-03T08:22:45Z</time>
      </trkpt>
      <trkpt lat="42.89394" lon="0.07804">
        <ele>1513.25</ele>
        <time>2018-04-03T08:23:02Z</time>
      </trkpt>
      <trkpt lat="42.89385" lon="0.07787">
        <ele>1514.69</ele>
        <time>2018-04-03T08:23:18Z</time>
      </trkpt>
      <trkpt lat="42.89379" lon="0.0777">
        <ele>1515.18</ele>
        <time>2018-04-03T08:23:33Z</time>
      </trkpt>
      <trkpt lat="42.89374" lon="0.07756">
        <ele>1516.14</ele>
        <time>2018-04-03T08:23:45Z</time>
      </trkpt>
      <trkpt lat="42.8937" lon="0.07737">
        <ele>1517.1</ele>
        <time>2018-04-03T08:23:59Z</time>
      </trkpt>
      <trkpt lat="42.89365" lon="0.07719">
        <ele>1517.1</ele>
        <time>2018-04-03T08:24:13Z</time>
      </trkpt>
      <trkpt lat="42.89361" lon="0.07708">
        <ele>1517.58</ele>
        <time>2018-04-03T08:24:22Z</time>
      </trkpt>
      <trkpt lat="42.89356" lon="0.07692">
        <ele>1519.98</ele>
        <time>2018-04-03T08:24:37Z</time>
      </trkpt>
      <trkpt lat="42.89353" lon="0.07679">
        <ele>1522.39</ele>
        <time>2018-04-03T08:24:50Z</time>
      </trkpt>
      <trkpt lat="42.8935" lon="0.07667">
        <ele>1524.31</ele>
        <time>2018-04-03T08:25:03Z</time>
      </trkpt>
      <trkpt lat="42.89347" lon="0.07652">
        <ele>1526.23</ele>
        <time>2018-04-03T08:25:17Z</time>
      </trkpt>
      <trkpt lat="42.89344" lon="0.07637">
        <ele>1527.19</ele>
        <time>2018-04-03T08:25:30Z</time>
      </trkpt>
      <trkpt lat="42.89343" lon="0.07627">
        <ele>1527.67</ele>
        <time>2018-04-03T08:25:37Z</time>
      </trkpt>
      <trkpt lat="42.89341" lon="0.07617">
        <ele>1527.67</ele>
        <time>2018-04-03T08:25:43Z</time>
      </trkpt>
      <trkpt lat="42.89338" lon="0.07593">
        <ele>1528.15</ele>
        <time>2018-04-03T08:25:59Z</time>
      </trkpt>
      <trkpt lat="42.89337" lon="0.07581">
        <ele>1528.15</ele>
        <time>2018-04-03T08:26:08Z</time>
      </trkpt>
      <trkpt lat="42.89337" lon="0.07576">
        <ele>1527.67</ele>
        <time>2018-04-03T08:26:12Z</time>
      </trkpt>
      <trkpt lat="42.89336" lon="0.07561">
        <ele>1528.15</ele>
        <time>2018-04-03T08:26:26Z</time>
      </trkpt>
      <trkpt lat="42.89333" lon="0.07545">
        <ele>1529.59</ele>
        <time>2018-04-03T08:26:41Z</time>
      </trkpt>
      <trkpt lat="42.89327" lon="0.07533">
        <ele>1532</ele>
        <time>2018-04-03T08:26:55Z</time>
      </trkpt>
      <trkpt lat="42.89323" lon="0.07522">
        <ele>1534.88</ele>
        <time>2018-04-03T08:27:10Z</time>
      </trkpt>
      <trkpt lat="42.89316" lon="0.07514">
        <ele>1537.77</ele>
        <time>2018-04-03T08:27:24Z</time>
      </trkpt>
      <trkpt lat="42.89311" lon="0.07505">
        <ele>1540.65</ele>
        <time>2018-04-03T08:27:38Z</time>
      </trkpt>
      <trkpt lat="42.89305" lon="0.07502">
        <ele>1542.57</ele>
        <time>2018-04-03T08:27:51Z</time>
      </trkpt>
      <trkpt lat="42.89296" lon="0.07502">
        <ele>1545.94</ele>
        <time>2018-04-03T08:28:04Z</time>
      </trkpt>
      <trkpt lat="42.89294" lon="0.07502">
        <ele>1547.86</ele>
        <time>2018-04-03T08:28:19Z</time>
      </trkpt>
      <trkpt lat="42.89284" lon="0.07509">
        <ele>1549.78</ele>
        <time>2018-04-03T08:28:34Z</time>
      </trkpt>
      <trkpt lat="42.89277" lon="0.07512">
        <ele>1551.71</ele>
        <time>2018-04-03T08:28:49Z</time>
      </trkpt>
      <trkpt lat="42.89274" lon="0.07511">
        <ele>1551.71</ele>
        <time>2018-04-03T08:29:04Z</time>
      </trkpt>
      <trkpt lat="42.89275" lon="0.07517">
        <ele>1553.15</ele>
        <time>2018-04-03T08:29:17Z</time>
      </trkpt>
      <trkpt lat="42.89275" lon="0.07515">
        <ele>1552.19</ele>
        <time>2018-04-03T08:29:30Z</time>
      </trkpt>
      <trkpt lat="42.89276" lon="0.07506">
        <ele>1552.19</ele>
        <time>2018-04-03T08:30:00Z</time>
      </trkpt>
      <trkpt lat="42.89275" lon="0.07504">
        <ele>1553.15</ele>
        <time>2018-04-03T08:30:24Z</time>
      </trkpt>
      <trkpt lat="42.89278" lon="0.07506">
        <ele>1551.71</ele>
        <time>2018-04-03T08:30:55Z</time>
      </trkpt>
      <trkpt lat="42.89279" lon="0.0751">
        <ele>1553.15</ele>
        <time>2018-04-03T08:31:18Z</time>
      </trkpt>
      <trkpt lat="42.89278" lon="0.07515">
        <ele>1552.67</ele>
        <time>2018-04-03T08:31:22Z</time>
      </trkpt>
      <trkpt lat="42.89272" lon="0.07537">
        <ele>1554.11</ele>
        <time>2018-04-03T08:31:35Z</time>
      </trkpt>
      <trkpt lat="42.89268" lon="0.07542">
        <ele>1554.11</ele>
        <time>2018-04-03T08:31:40Z</time>
      </trkpt>
      <trkpt lat="42.89267" lon="0.07564">
        <ele>1555.55</ele>
        <time>2018-04-03T08:31:54Z</time>
      </trkpt>
      <trkpt lat="42.89264" lon="0.07581">
        <ele>1557.47</ele>
        <time>2018-04-03T08:32:08Z</time>
      </trkpt>
      <trkpt lat="42.89262" lon="0.07597">
        <ele>1559.88</ele>
        <time>2018-04-03T08:32:22Z</time>
      </trkpt>
      <trkpt lat="42.89257" lon="0.07612">
        <ele>1562.28</ele>
        <time>2018-04-03T08:32:35Z</time>
      </trkpt>
      <trkpt lat="42.89256" lon="0.07623">
        <ele>1565.16</ele>
        <time>2018-04-03T08:32:48Z</time>
      </trkpt>
      <trkpt lat="42.89259" lon="0.07639">
        <ele>1566.61</ele>
        <time>2018-04-03T08:33:01Z</time>
      </trkpt>
      <trkpt lat="42.89259" lon="0.0766">
        <ele>1568.05</ele>
        <time>2018-04-03T08:33:15Z</time>
      </trkpt>
      <trkpt lat="42.8926" lon="0.07679">
        <ele>1569.49</ele>
        <time>2018-04-03T08:33:30Z</time>
      </trkpt>
      <trkpt lat="42.89265" lon="0.07696">
        <ele>1570.45</ele>
        <time>2018-04-03T08:33:44Z</time>
      </trkpt>
      <trkpt lat="42.89267" lon="0.07711">
        <ele>1571.41</ele>
        <time>2018-04-03T08:33:57Z</time>
      </trkpt>
      <trkpt lat="42.89267" lon="0.07716">
        <ele>1571.89</ele>
        <time>2018-04-03T08:34:01Z</time>
      </trkpt>
      <trkpt lat="42.89268" lon="0.07719">
        <ele>1571.89</ele>
        <time>2018-04-03T08:34:03Z</time>
      </trkpt>
      <trkpt lat="42.89268" lon="0.07735">
        <ele>1572.37</ele>
        <time>2018-04-03T08:34:17Z</time>
      </trkpt>
      <trkpt lat="42.89265" lon="0.07751">
        <ele>1571.89</ele>
        <time>2018-04-03T08:34:30Z</time>
      </trkpt>
      <trkpt lat="42.89262" lon="0.07763">
        <ele>1573.82</ele>
        <time>2018-04-03T08:34:41Z</time>
      </trkpt>
      <trkpt lat="42.89259" lon="0.07774">
        <ele>1574.78</ele>
        <time>2018-04-03T08:34:54Z</time>
      </trkpt>
      <trkpt lat="42.89251" lon="0.07781">
        <ele>1577.18</ele>
        <time>2018-04-03T08:35:07Z</time>
      </trkpt>
      <trkpt lat="42.89243" lon="0.07789">
        <ele>1579.1</ele>
        <time>2018-04-03T08:35:21Z</time>
      </trkpt>
      <trkpt lat="42.89237" lon="0.07778">
        <ele>1581.03</ele>
        <time>2018-04-03T08:35:34Z</time>
      </trkpt>
      <trkpt lat="42.89229" lon="0.07765">
        <ele>1581.99</ele>
        <time>2018-04-03T08:35:48Z</time>
      </trkpt>
      <trkpt lat="42.89228" lon="0.07764">
        <ele>1584.39</ele>
        <time>2018-04-03T08:36:04Z</time>
      </trkpt>
      <trkpt lat="42.89225" lon="0.07777">
        <ele>1586.31</ele>
        <time>2018-04-03T08:36:17Z</time>
      </trkpt>
      <trkpt lat="42.89217" lon="0.07789">
        <ele>1587.27</ele>
        <time>2018-04-03T08:36:31Z</time>
      </trkpt>
      <trkpt lat="42.89214" lon="0.07802">
        <ele>1590.16</ele>
        <time>2018-04-03T08:36:47Z</time>
      </trkpt>
      <trkpt lat="42.89213" lon="0.07816">
        <ele>1591.12</ele>
        <time>2018-04-03T08:37:01Z</time>
      </trkpt>
      <trkpt lat="42.89211" lon="0.07824">
        <ele>1592.08</ele>
        <time>2018-04-03T08:37:14Z</time>
      </trkpt>
      <trkpt lat="42.89211" lon="0.07821">
        <ele>1592.08</ele>
        <time>2018-04-03T08:37:37Z</time>
      </trkpt>
      <trkpt lat="42.89211" lon="0.07823">
        <ele>1592.08</ele>
        <time>2018-04-03T08:37:55Z</time>
      </trkpt>
      <trkpt lat="42.89206" lon="0.07826">
        <ele>1593.04</ele>
        <time>2018-04-03T08:38:07Z</time>
      </trkpt>
      <trkpt lat="42.89201" lon="0.07822">
        <ele>1594.96</ele>
        <time>2018-04-03T08:38:21Z</time>
      </trkpt>
      <trkpt lat="42.89197" lon="0.07823">
        <ele>1596.89</ele>
        <time>2018-04-03T08:38:32Z</time>
      </trkpt>
      <trkpt lat="42.89189" lon="0.07822">
        <ele>1598.81</ele>
        <time>2018-04-03T08:38:46Z</time>
      </trkpt>
      <trkpt lat="42.89182" lon="0.07826">
        <ele>1601.69</ele>
        <time>2018-04-03T08:39:00Z</time>
      </trkpt>
      <trkpt lat="42.89177" lon="0.07825">
        <ele>1604.1</ele>
        <time>2018-04-03T08:39:14Z</time>
      </trkpt>
      <trkpt lat="42.89175" lon="0.07821">
        <ele>1606.5</ele>
        <time>2018-04-03T08:39:30Z</time>
      </trkpt>
      <trkpt lat="42.89174" lon="0.07818">
        <ele>1608.42</ele>
        <time>2018-04-03T08:39:43Z</time>
      </trkpt>
      <trkpt lat="42.89171" lon="0.07821">
        <ele>1609.86</ele>
        <time>2018-04-03T08:39:56Z</time>
      </trkpt>
      <trkpt lat="42.89169" lon="0.07826">
        <ele>1610.83</ele>
        <time>2018-04-03T08:40:09Z</time>
      </trkpt>
      <trkpt lat="42.89164" lon="0.07823">
        <ele>1612.75</ele>
        <time>2018-04-03T08:40:21Z</time>
      </trkpt>
      <trkpt lat="42.8916" lon="0.07823">
        <ele>1614.67</ele>
        <time>2018-04-03T08:40:33Z</time>
      </trkpt>
      <trkpt lat="42.89156" lon="0.07822">
        <ele>1616.59</ele>
        <time>2018-04-03T08:40:45Z</time>
      </trkpt>
      <trkpt lat="42.89153" lon="0.07821">
        <ele>1619</ele>
        <time>2018-04-03T08:40:58Z</time>
      </trkpt>
      <trkpt lat="42.89148" lon="0.07823">
        <ele>1621.4</ele>
        <time>2018-04-03T08:41:10Z</time>
      </trkpt>
      <trkpt lat="42.89143" lon="0.07821">
        <ele>1623.32</ele>
        <time>2018-04-03T08:41:24Z</time>
      </trkpt>
      <trkpt lat="42.89138" lon="0.0782">
        <ele>1624.77</ele>
        <time>2018-04-03T08:41:35Z</time>
      </trkpt>
      <trkpt lat="42.89138" lon="0.07815">
        <ele>1627.17</ele>
        <time>2018-04-03T08:41:46Z</time>
      </trkpt>
      <trkpt lat="42.89135" lon="0.07814">
        <ele>1628.61</ele>
        <time>2018-04-03T08:41:58Z</time>
      </trkpt>
      <trkpt lat="42.89129" lon="0.07817">
        <ele>1631.98</ele>
        <time>2018-04-03T08:42:11Z</time>
      </trkpt>
      <trkpt lat="42.89122" lon="0.07818">
        <ele>1632.46</ele>
        <time>2018-04-03T08:42:28Z</time>
      </trkpt>
      <trkpt lat="42.89117" lon="0.07819">
        <ele>1634.38</ele>
        <time>2018-04-03T08:42:41Z</time>
      </trkpt>
      <trkpt lat="42.89114" lon="0.0782">
        <ele>1636.3</ele>
        <time>2018-04-03T08:42:54Z</time>
      </trkpt>
      <trkpt lat="42.8911" lon="0.0782">
        <ele>1638.7</ele>
        <time>2018-04-03T08:43:09Z</time>
      </trkpt>
      <trkpt lat="42.89112" lon="0.07819">
        <ele>1639.67</ele>
        <time>2018-04-03T08:43:30Z</time>
      </trkpt>
      <trkpt lat="42.89112" lon="0.07816">
        <ele>1636.78</ele>
        <time>2018-04-03T08:43:37Z</time>
      </trkpt>
      <trkpt lat="42.89111" lon="0.07816">
        <ele>1641.59</ele>
        <time>2018-04-03T08:43:38Z</time>
      </trkpt>
      <trkpt lat="42.89111" lon="0.07816">
        <ele>1638.22</ele>
        <time>2018-04-03T08:43:39Z</time>
      </trkpt>
      <trkpt lat="42.89108" lon="0.07817">
        <ele>1641.11</ele>
        <time>2018-04-03T08:44:00Z</time>
      </trkpt>
      <trkpt lat="42.89102" lon="0.07818">
        <ele>1643.99</ele>
        <time>2018-04-03T08:44:13Z</time>
      </trkpt>
      <trkpt lat="42.89097" lon="0.07815">
        <ele>1647.36</ele>
        <time>2018-04-03T08:44:27Z</time>
      </trkpt>
      <trkpt lat="42.8909" lon="0.07817">
        <ele>1650.24</ele>
        <time>2018-04-03T08:44:41Z</time>
      </trkpt>
      <trkpt lat="42.89086" lon="0.07819">
        <ele>1652.64</ele>
        <time>2018-04-03T08:44:56Z</time>
      </trkpt>
      <trkpt lat="42.89084" lon="0.07817">
        <ele>1655.05</ele>
        <time>2018-04-03T08:45:08Z</time>
      </trkpt>
      <trkpt lat="42.8908" lon="0.07815">
        <ele>1657.45</ele>
        <time>2018-04-03T08:45:23Z</time>
      </trkpt>
      <trkpt lat="42.89076" lon="0.07816">
        <ele>1659.85</ele>
        <time>2018-04-03T08:45:38Z</time>
      </trkpt>
      <trkpt lat="42.89075" lon="0.07814">
        <ele>1661.78</ele>
        <time>2018-04-03T08:45:52Z</time>
      </trkpt>
      <trkpt lat="42.89071" lon="0.07812">
        <ele>1664.66</ele>
        <time>2018-04-03T08:46:09Z</time>
      </trkpt>
      <trkpt lat="42.89066" lon="0.0781">
        <ele>1667.06</ele>
        <time>2018-04-03T08:46:23Z</time>
      </trkpt>
      <trkpt lat="42.89062" lon="0.07813">
        <ele>1669.47</ele>
        <time>2018-04-03T08:46:38Z</time>
      </trkpt>
      <trkpt lat="42.89055" lon="0.07814">
        <ele>1672.35</ele>
        <time>2018-04-03T08:46:54Z</time>
      </trkpt>
      <trkpt lat="42.89051" lon="0.07814">
        <ele>1674.75</ele>
        <time>2018-04-03T08:47:09Z</time>
      </trkpt>
      <trkpt lat="42.89047" lon="0.0781">
        <ele>1678.12</ele>
        <time>2018-04-03T08:47:27Z</time>
      </trkpt>
      <trkpt lat="42.89046" lon="0.07806">
        <ele>1681</ele>
        <time>2018-04-03T08:47:43Z</time>
      </trkpt>
      <trkpt lat="42.8904" lon="0.07806">
        <ele>1683.89</ele>
        <time>2018-04-03T08:48:01Z</time>
      </trkpt>
      <trkpt lat="42.89034" lon="0.07813">
        <ele>1686.77</ele>
        <time>2018-04-03T08:48:18Z</time>
      </trkpt>
      <trkpt lat="42.89029" lon="0.07813">
        <ele>1689.17</ele>
        <time>2018-04-03T08:48:34Z</time>
      </trkpt>
      <trkpt lat="42.89025" lon="0.0781">
        <ele>1692.54</ele>
        <time>2018-04-03T08:48:51Z</time>
      </trkpt>
      <trkpt lat="42.89022" lon="0.07805">
        <ele>1695.42</ele>
        <time>2018-04-03T08:49:06Z</time>
      </trkpt>
      <trkpt lat="42.89023" lon="0.07795">
        <ele>1696.86</ele>
        <time>2018-04-03T08:49:24Z</time>
      </trkpt>
      <trkpt lat="42.89021" lon="0.0779">
        <ele>1697.34</ele>
        <time>2018-04-03T08:49:41Z</time>
      </trkpt>
      <trkpt lat="42.89019" lon="0.07791">
        <ele>1698.31</ele>
        <time>2018-04-03T08:49:58Z</time>
      </trkpt>
      <trkpt lat="42.89019" lon="0.07806">
        <ele>1698.31</ele>
        <time>2018-04-03T08:50:18Z</time>
      </trkpt>
      <trkpt lat="42.89015" lon="0.07805">
        <ele>1698.31</ele>
        <time>2018-04-03T08:50:39Z</time>
      </trkpt>
      <trkpt lat="42.89011" lon="0.07809">
        <ele>1697.34</ele>
        <time>2018-04-03T08:51:07Z</time>
      </trkpt>
      <trkpt lat="42.89013" lon="0.07808">
        <ele>1698.31</ele>
        <time>2018-04-03T08:51:17Z</time>
      </trkpt>
      <trkpt lat="42.89007" lon="0.078">
        <ele>1700.71</ele>
        <time>2018-04-03T08:51:33Z</time>
      </trkpt>
      <trkpt lat="42.89001" lon="0.07793">
        <ele>1704.07</ele>
        <time>2018-04-03T08:51:48Z</time>
      </trkpt>
      <trkpt lat="42.88994" lon="0.0779">
        <ele>1706.96</ele>
        <time>2018-04-03T08:52:02Z</time>
      </trkpt>
      <trkpt lat="42.88988" lon="0.07786">
        <ele>1709.36</ele>
        <time>2018-04-03T08:52:14Z</time>
      </trkpt>
      <trkpt lat="42.88982" lon="0.07781">
        <ele>1712.25</ele>
        <time>2018-04-03T08:52:30Z</time>
      </trkpt>
      <trkpt lat="42.88977" lon="0.07777">
        <ele>1714.65</ele>
        <time>2018-04-03T08:52:44Z</time>
      </trkpt>
      <trkpt lat="42.88973" lon="0.07768">
        <ele>1718.01</ele>
        <time>2018-04-03T08:52:59Z</time>
      </trkpt>
      <trkpt lat="42.88972" lon="0.07766">
        <ele>1718.49</ele>
        <time>2018-04-03T08:53:16Z</time>
      </trkpt>
      <trkpt lat="42.88975" lon="0.07766">
        <ele>1718.49</ele>
        <time>2018-04-03T08:53:44Z</time>
      </trkpt>
      <trkpt lat="42.88974" lon="0.07767">
        <ele>1718.01</ele>
        <time>2018-04-03T08:54:20Z</time>
      </trkpt>
      <trkpt lat="42.88973" lon="0.07766">
        <ele>1718.97</ele>
        <time>2018-04-03T08:54:48Z</time>
      </trkpt>
      <trkpt lat="42.88969" lon="0.07769">
        <ele>1718.49</ele>
        <time>2018-04-03T08:55:11Z</time>
      </trkpt>
      <trkpt lat="42.8897" lon="0.07766">
        <ele>1718.49</ele>
        <time>2018-04-03T08:55:30Z</time>
      </trkpt>
      <trkpt lat="42.8897" lon="0.07762">
        <ele>1717.05</ele>
        <time>2018-04-03T08:55:47Z</time>
      </trkpt>
      <trkpt lat="42.8897" lon="0.07763">
        <ele>1717.53</ele>
        <time>2018-04-03T08:55:59Z</time>
      </trkpt>
      <trkpt lat="42.88969" lon="0.07766">
        <ele>1718.01</ele>
        <time>2018-04-03T08:56:17Z</time>
      </trkpt>
      <trkpt lat="42.88969" lon="0.07758">
        <ele>1718.49</ele>
        <time>2018-04-03T08:56:31Z</time>
      </trkpt>
      <trkpt lat="42.88969" lon="0.07758">
        <ele>1718.49</ele>
        <time>2018-04-03T08:56:45Z</time>
      </trkpt>
      <trkpt lat="42.88967" lon="0.07749">
        <ele>1718.01</ele>
        <time>2018-04-03T08:56:56Z</time>
      </trkpt>
      <trkpt lat="42.88966" lon="0.07748">
        <ele>1717.53</ele>
        <time>2018-04-03T08:56:57Z</time>
      </trkpt>
      <trkpt lat="42.88965" lon="0.07731">
        <ele>1718.49</ele>
        <time>2018-04-03T08:57:11Z</time>
      </trkpt>
      <trkpt lat="42.88964" lon="0.07721">
        <ele>1719.46</ele>
        <time>2018-04-03T08:57:19Z</time>
      </trkpt>
      <trkpt lat="42.88962" lon="0.07701">
        <ele>1720.42</ele>
        <time>2018-04-03T08:57:35Z</time>
      </trkpt>
      <trkpt lat="42.8896" lon="0.07701">
        <ele>1720.42</ele>
        <time>2018-04-03T08:57:47Z</time>
      </trkpt>
      <trkpt lat="42.88957" lon="0.07686">
        <ele>1721.38</ele>
        <time>2018-04-03T08:58:00Z</time>
      </trkpt>
      <trkpt lat="42.88952" lon="0.07675">
        <ele>1723.78</ele>
        <time>2018-04-03T08:58:12Z</time>
      </trkpt>
      <trkpt lat="42.88946" lon="0.07663">
        <ele>1724.74</ele>
        <time>2018-04-03T08:58:28Z</time>
      </trkpt>
      <trkpt lat="42.88938" lon="0.07653">
        <ele>1727.15</ele>
        <time>2018-04-03T08:58:44Z</time>
      </trkpt>
      <trkpt lat="42.88932" lon="0.07645">
        <ele>1729.55</ele>
        <time>2018-04-03T08:58:58Z</time>
      </trkpt>
      <trkpt lat="42.88931" lon="0.07642">
        <ele>1730.51</ele>
        <time>2018-04-03T08:59:12Z</time>
      </trkpt>
      <trkpt lat="42.88926" lon="0.07639">
        <ele>1731.47</ele>
        <time>2018-04-03T08:59:26Z</time>
      </trkpt>
      <trkpt lat="42.88921" lon="0.0763">
        <ele>1734.36</ele>
        <time>2018-04-03T08:59:42Z</time>
      </trkpt>
      <trkpt lat="42.88916" lon="0.07624">
        <ele>1737.72</ele>
        <time>2018-04-03T08:59:57Z</time>
      </trkpt>
      <trkpt lat="42.88912" lon="0.07623">
        <ele>1738.68</ele>
        <time>2018-04-03T09:00:10Z</time>
      </trkpt>
      <trkpt lat="42.88914" lon="0.07618">
        <ele>1738.68</ele>
        <time>2018-04-03T09:00:31Z</time>
      </trkpt>
      <trkpt lat="42.88906" lon="0.07613">
        <ele>1741.08</ele>
        <time>2018-04-03T09:00:45Z</time>
      </trkpt>
      <trkpt lat="42.88904" lon="0.07602">
        <ele>1743.97</ele>
        <time>2018-04-03T09:01:00Z</time>
      </trkpt>
      <trkpt lat="42.88899" lon="0.07598">
        <ele>1746.37</ele>
        <time>2018-04-03T09:01:15Z</time>
      </trkpt>
      <trkpt lat="42.88892" lon="0.07594">
        <ele>1749.26</ele>
        <time>2018-04-03T09:01:31Z</time>
      </trkpt>
      <trkpt lat="42.88884" lon="0.07595">
        <ele>1751.66</ele>
        <time>2018-04-03T09:01:46Z</time>
      </trkpt>
      <trkpt lat="42.88876" lon="0.07596">
        <ele>1753.58</ele>
        <time>2018-04-03T09:02:01Z</time>
      </trkpt>
      <trkpt lat="42.88868" lon="0.07597">
        <ele>1755.5</ele>
        <time>2018-04-03T09:02:18Z</time>
      </trkpt>
      <trkpt lat="42.88866" lon="0.07581">
        <ele>1756.47</ele>
        <time>2018-04-03T09:02:34Z</time>
      </trkpt>
      <trkpt lat="42.88862" lon="0.07581">
        <ele>1758.39</ele>
        <time>2018-04-03T09:02:46Z</time>
      </trkpt>
      <trkpt lat="42.88856" lon="0.07579">
        <ele>1759.83</ele>
        <time>2018-04-03T09:03:02Z</time>
      </trkpt>
      <trkpt lat="42.88848" lon="0.07575">
        <ele>1762.23</ele>
        <time>2018-04-03T09:03:18Z</time>
      </trkpt>
      <trkpt lat="42.88846" lon="0.07564">
        <ele>1765.12</ele>
        <time>2018-04-03T09:03:32Z</time>
      </trkpt>
      <trkpt lat="42.88841" lon="0.07561">
        <ele>1767.04</ele>
        <time>2018-04-03T09:03:48Z</time>
      </trkpt>
      <trkpt lat="42.88838" lon="0.07555">
        <ele>1769.44</ele>
        <time>2018-04-03T09:04:05Z</time>
      </trkpt>
      <trkpt lat="42.88836" lon="0.07552">
        <ele>1770.89</ele>
        <time>2018-04-03T09:04:18Z</time>
      </trkpt>
      <trkpt lat="42.88829" lon="0.0756">
        <ele>1772.81</ele>
        <time>2018-04-03T09:04:35Z</time>
      </trkpt>
      <trkpt lat="42.88823" lon="0.07567">
        <ele>1775.69</ele>
        <time>2018-04-03T09:04:54Z</time>
      </trkpt>
      <trkpt lat="42.8882" lon="0.07561">
        <ele>1777.61</ele>
        <time>2018-04-03T09:05:07Z</time>
      </trkpt>
      <trkpt lat="42.88817" lon="0.07556">
        <ele>1780.98</ele>
        <time>2018-04-03T09:05:18Z</time>
      </trkpt>
      <trkpt lat="42.88813" lon="0.07567">
        <ele>1783.86</ele>
        <time>2018-04-03T09:05:36Z</time>
      </trkpt>
      <trkpt lat="42.88808" lon="0.07567">
        <ele>1786.27</ele>
        <time>2018-04-03T09:05:50Z</time>
      </trkpt>
      <trkpt lat="42.88805" lon="0.07569">
        <ele>1787.23</ele>
        <time>2018-04-03T09:06:04Z</time>
      </trkpt>
      <trkpt lat="42.88804" lon="0.07562">
        <ele>1789.63</ele>
        <time>2018-04-03T09:06:19Z</time>
      </trkpt>
      <trkpt lat="42.888" lon="0.07566">
        <ele>1791.55</ele>
        <time>2018-04-03T09:06:35Z</time>
      </trkpt>
      <trkpt lat="42.88794" lon="0.07567">
        <ele>1793</ele>
        <time>2018-04-03T09:06:51Z</time>
      </trkpt>
      <trkpt lat="42.88792" lon="0.07568">
        <ele>1794.44</ele>
        <time>2018-04-03T09:07:09Z</time>
      </trkpt>
      <trkpt lat="42.88792" lon="0.0756">
        <ele>1794.92</ele>
        <time>2018-04-03T09:07:23Z</time>
      </trkpt>
      <trkpt lat="42.88795" lon="0.0756">
        <ele>1796.36</ele>
        <time>2018-04-03T09:07:42Z</time>
      </trkpt>
      <trkpt lat="42.88789" lon="0.07563">
        <ele>1798.28</ele>
        <time>2018-04-03T09:07:54Z</time>
      </trkpt>
      <trkpt lat="42.88787" lon="0.07558">
        <ele>1799.73</ele>
        <time>2018-04-03T09:08:09Z</time>
      </trkpt>
      <trkpt lat="42.88787" lon="0.07554">
        <ele>1799.24</ele>
        <time>2018-04-03T09:08:32Z</time>
      </trkpt>
      <trkpt lat="42.88785" lon="0.07547">
        <ele>1801.17</ele>
        <time>2018-04-03T09:08:47Z</time>
      </trkpt>
      <trkpt lat="42.88785" lon="0.0754">
        <ele>1802.13</ele>
        <time>2018-04-03T09:08:59Z</time>
      </trkpt>
      <trkpt lat="42.88781" lon="0.07533">
        <ele>1803.57</ele>
        <time>2018-04-03T09:09:13Z</time>
      </trkpt>
      <trkpt lat="42.88779" lon="0.07523">
        <ele>1805.97</ele>
        <time>2018-04-03T09:09:30Z</time>
      </trkpt>
      <trkpt lat="42.88775" lon="0.07516">
        <ele>1808.38</ele>
        <time>2018-04-03T09:09:46Z</time>
      </trkpt>
      <trkpt lat="42.88772" lon="0.07511">
        <ele>1810.78</ele>
        <time>2018-04-03T09:10:03Z</time>
      </trkpt>
      <trkpt lat="42.88767" lon="0.07504">
        <ele>1812.22</ele>
        <time>2018-04-03T09:10:17Z</time>
      </trkpt>
      <trkpt lat="42.8877" lon="0.07493">
        <ele>1813.18</ele>
        <time>2018-04-03T09:10:32Z</time>
      </trkpt>
      <trkpt lat="42.88762" lon="0.07486">
        <ele>1816.55</ele>
        <time>2018-04-03T09:10:46Z</time>
      </trkpt>
      <trkpt lat="42.88759" lon="0.07484">
        <ele>1818.47</ele>
        <time>2018-04-03T09:11:01Z</time>
      </trkpt>
      <trkpt lat="42.88758" lon="0.07484">
        <ele>1819.91</ele>
        <time>2018-04-03T09:11:18Z</time>
      </trkpt>
      <trkpt lat="42.88751" lon="0.07482">
        <ele>1821.84</ele>
        <time>2018-04-03T09:11:33Z</time>
      </trkpt>
      <trkpt lat="42.88747" lon="0.07478">
        <ele>1824.72</ele>
        <time>2018-04-03T09:11:46Z</time>
      </trkpt>
      <trkpt lat="42.88742" lon="0.07475">
        <ele>1826.16</ele>
        <time>2018-04-03T09:12:02Z</time>
      </trkpt>
      <trkpt lat="42.88739" lon="0.07466">
        <ele>1827.6</ele>
        <time>2018-04-03T09:12:18Z</time>
      </trkpt>
      <trkpt lat="42.88736" lon="0.07461">
        <ele>1830.01</ele>
        <time>2018-04-03T09:12:32Z</time>
      </trkpt>
      <trkpt lat="42.8873" lon="0.07462">
        <ele>1832.89</ele>
        <time>2018-04-03T09:12:52Z</time>
      </trkpt>
      <trkpt lat="42.88723" lon="0.07469">
        <ele>1835.29</ele>
        <time>2018-04-03T09:13:07Z</time>
      </trkpt>
      <trkpt lat="42.88719" lon="0.07458">
        <ele>1838.18</ele>
        <time>2018-04-03T09:13:27Z</time>
      </trkpt>
      <trkpt lat="42.88717" lon="0.07456">
        <ele>1840.1</ele>
        <time>2018-04-03T09:13:43Z</time>
      </trkpt>
      <trkpt lat="42.88717" lon="0.07457">
        <ele>1840.58</ele>
        <time>2018-04-03T09:14:03Z</time>
      </trkpt>
      <trkpt lat="42.88709" lon="0.07462">
        <ele>1842.98</ele>
        <time>2018-04-03T09:14:18Z</time>
      </trkpt>
      <trkpt lat="42.88705" lon="0.07462">
        <ele>1845.87</ele>
        <time>2018-04-03T09:14:28Z</time>
      </trkpt>
      <trkpt lat="42.887" lon="0.07463">
        <ele>1848.27</ele>
        <time>2018-04-03T09:14:44Z</time>
      </trkpt>
      <trkpt lat="42.88695" lon="0.0747">
        <ele>1850.68</ele>
        <time>2018-04-03T09:14:59Z</time>
      </trkpt>
      <trkpt lat="42.88691" lon="0.07478">
        <ele>1853.08</ele>
        <time>2018-04-03T09:15:13Z</time>
      </trkpt>
      <trkpt lat="42.88686" lon="0.07486">
        <ele>1855.48</ele>
        <time>2018-04-03T09:15:28Z</time>
      </trkpt>
      <trkpt lat="42.88682" lon="0.07489">
        <ele>1856.92</ele>
        <time>2018-04-03T09:15:44Z</time>
      </trkpt>
      <trkpt lat="42.88678" lon="0.07494">
        <ele>1858.85</ele>
        <time>2018-04-03T09:15:56Z</time>
      </trkpt>
      <trkpt lat="42.88673" lon="0.07498">
        <ele>1860.29</ele>
        <time>2018-04-03T09:16:11Z</time>
      </trkpt>
      <trkpt lat="42.88668" lon="0.07505">
        <ele>1861.73</ele>
        <time>2018-04-03T09:16:26Z</time>
      </trkpt>
      <trkpt lat="42.88661" lon="0.07509">
        <ele>1862.69</ele>
        <time>2018-04-03T09:16:39Z</time>
      </trkpt>
      <trkpt lat="42.88653" lon="0.07513">
        <ele>1863.65</ele>
        <time>2018-04-03T09:16:53Z</time>
      </trkpt>
      <trkpt lat="42.88651" lon="0.07512">
        <ele>1864.13</ele>
        <time>2018-04-03T09:17:06Z</time>
      </trkpt>
      <trkpt lat="42.88652" lon="0.07512">
        <ele>1864.61</ele>
        <time>2018-04-03T09:17:24Z</time>
      </trkpt>
      <trkpt lat="42.88651" lon="0.07509">
        <ele>1864.61</ele>
        <time>2018-04-03T09:17:35Z</time>
      </trkpt>
      <trkpt lat="42.88652" lon="0.07512">
        <ele>1864.13</ele>
        <time>2018-04-03T09:17:48Z</time>
      </trkpt>
      <trkpt lat="42.88649" lon="0.07513">
        <ele>1863.65</ele>
        <time>2018-04-03T09:18:14Z</time>
      </trkpt>
      <trkpt lat="42.88648" lon="0.07514">
        <ele>1861.73</ele>
        <time>2018-04-03T09:18:57Z</time>
      </trkpt>
      <trkpt lat="42.88649" lon="0.07514">
        <ele>1862.69</ele>
        <time>2018-04-03T09:19:39Z</time>
      </trkpt>
      <trkpt lat="42.88648" lon="0.07515">
        <ele>1863.17</ele>
        <time>2018-04-03T09:20:12Z</time>
      </trkpt>
      <trkpt lat="42.88651" lon="0.07519">
        <ele>1863.65</ele>
        <time>2018-04-03T09:20:50Z</time>
      </trkpt>
      <trkpt lat="42.88654" lon="0.07516">
        <ele>1862.69</ele>
        <time>2018-04-03T09:21:33Z</time>
      </trkpt>
      <trkpt lat="42.88654" lon="0.07517">
        <ele>1862.69</ele>
        <time>2018-04-03T09:21:34Z</time>
      </trkpt>
      <trkpt lat="42.88652" lon="0.07511">
        <ele>1864.13</ele>
        <time>2018-04-03T09:21:46Z</time>
      </trkpt>
      <trkpt lat="42.88649" lon="0.07511">
        <ele>1864.13</ele>
        <time>2018-04-03T09:22:02Z</time>
      </trkpt>
      <trkpt lat="42.88649" lon="0.07511">
        <ele>1862.69</ele>
        <time>2018-04-03T09:22:14Z</time>
      </trkpt>
      <trkpt lat="42.88649" lon="0.07512">
        <ele>1864.13</ele>
        <time>2018-04-03T09:22:19Z</time>
      </trkpt>
      <trkpt lat="42.8865" lon="0.0751">
        <ele>1864.13</ele>
        <time>2018-04-03T09:22:39Z</time>
      </trkpt>
      <trkpt lat="42.8865" lon="0.07508">
        <ele>1865.09</ele>
        <time>2018-04-03T09:23:02Z</time>
      </trkpt>
      <trkpt lat="42.8865" lon="0.07509">
        <ele>1864.13</ele>
        <time>2018-04-03T09:23:29Z</time>
      </trkpt>
      <trkpt lat="42.88648" lon="0.07508">
        <ele>1864.13</ele>
        <time>2018-04-03T09:23:56Z</time>
      </trkpt>
      <trkpt lat="42.8865" lon="0.0751">
        <ele>1865.58</ele>
        <time>2018-04-03T09:24:04Z</time>
      </trkpt>
      <trkpt lat="42.88649" lon="0.07511">
        <ele>1867.98</ele>
        <time>2018-04-03T09:24:13Z</time>
      </trkpt>
      <trkpt lat="42.88649" lon="0.07511">
        <ele>1865.58</ele>
        <time>2018-04-03T09:24:18Z</time>
      </trkpt>
      <trkpt lat="42.88654" lon="0.07512">
        <ele>1865.09</ele>
        <time>2018-04-03T09:24:39Z</time>
      </trkpt>
      <trkpt lat="42.88654" lon="0.07511">
        <ele>1866.06</ele>
        <time>2018-04-03T09:24:56Z</time>
      </trkpt>
      <trkpt lat="42.88653" lon="0.07509">
        <ele>1865.09</ele>
        <time>2018-04-03T09:25:13Z</time>
      </trkpt>
      <trkpt lat="42.8865" lon="0.07512">
        <ele>1865.58</ele>
        <time>2018-04-03T09:25:32Z</time>
      </trkpt>
      <trkpt lat="42.88647" lon="0.07513">
        <ele>1865.58</ele>
        <time>2018-04-03T09:25:51Z</time>
      </trkpt>
      <trkpt lat="42.88649" lon="0.07509">
        <ele>1865.58</ele>
        <time>2018-04-03T09:26:11Z</time>
      </trkpt>
      <trkpt lat="42.88649" lon="0.07506">
        <ele>1866.06</ele>
        <time>2018-04-03T09:26:30Z</time>
      </trkpt>
      <trkpt lat="42.88647" lon="0.07501">
        <ele>1867.02</ele>
        <time>2018-04-03T09:26:42Z</time>
      </trkpt>
      <trkpt lat="42.88648" lon="0.07498">
        <ele>1867.5</ele>
        <time>2018-04-03T09:26:46Z</time>
      </trkpt>
      <trkpt lat="42.88652" lon="0.07491">
        <ele>1869.42</ele>
        <time>2018-04-03T09:26:59Z</time>
      </trkpt>
      <trkpt lat="42.88651" lon="0.07486">
        <ele>1870.86</ele>
        <time>2018-04-03T09:27:09Z</time>
      </trkpt>
      <trkpt lat="42.88644" lon="0.07478">
        <ele>1872.3</ele>
        <time>2018-04-03T09:27:23Z</time>
      </trkpt>
      <trkpt lat="42.88642" lon="0.07473">
        <ele>1873.27</ele>
        <time>2018-04-03T09:27:34Z</time>
      </trkpt>
      <trkpt lat="42.88639" lon="0.07464">
        <ele>1874.71</ele>
        <time>2018-04-03T09:27:47Z</time>
      </trkpt>
      <trkpt lat="42.88636" lon="0.07457">
        <ele>1877.11</ele>
        <time>2018-04-03T09:28:00Z</time>
      </trkpt>
      <trkpt lat="42.88633" lon="0.07452">
        <ele>1879.51</ele>
        <time>2018-04-03T09:28:14Z</time>
      </trkpt>
      <trkpt lat="42.88629" lon="0.07445">
        <ele>1880</ele>
        <time>2018-04-03T09:28:28Z</time>
      </trkpt>
      <trkpt lat="42.88626" lon="0.07435">
        <ele>1881.92</ele>
        <time>2018-04-03T09:28:40Z</time>
      </trkpt>
      <trkpt lat="42.8862" lon="0.07427">
        <ele>1883.36</ele>
        <time>2018-04-03T09:28:53Z</time>
      </trkpt>
      <trkpt lat="42.88621" lon="0.07428">
        <ele>1883.84</ele>
        <time>2018-04-03T09:29:05Z</time>
      </trkpt>
      <trkpt lat="42.88624" lon="0.0743">
        <ele>1883.84</ele>
        <time>2018-04-03T09:29:25Z</time>
      </trkpt>
      <trkpt lat="42.88623" lon="0.07429">
        <ele>1884.32</ele>
        <time>2018-04-03T09:29:43Z</time>
      </trkpt>
      <trkpt lat="42.88612" lon="0.07417">
        <ele>1886.72</ele>
        <time>2018-04-03T09:29:58Z</time>
      </trkpt>
      <trkpt lat="42.88604" lon="0.0741">
        <ele>1889.13</ele>
        <time>2018-04-03T09:30:12Z</time>
      </trkpt>
      <trkpt lat="42.88593" lon="0.07404">
        <ele>1890.57</ele>
        <time>2018-04-03T09:30:28Z</time>
      </trkpt>
      <trkpt lat="42.88587" lon="0.07398">
        <ele>1892.01</ele>
        <time>2018-04-03T09:30:42Z</time>
      </trkpt>
      <trkpt lat="42.88578" lon="0.07391">
        <ele>1894.42</ele>
        <time>2018-04-03T09:30:57Z</time>
      </trkpt>
      <trkpt lat="42.8857" lon="0.07382">
        <ele>1895.86</ele>
        <time>2018-04-03T09:31:13Z</time>
      </trkpt>
      <trkpt lat="42.88563" lon="0.07375">
        <ele>1897.78</ele>
        <time>2018-04-03T09:31:29Z</time>
      </trkpt>
      <trkpt lat="42.8856" lon="0.07369">
        <ele>1899.7</ele>
        <time>2018-04-03T09:31:42Z</time>
      </trkpt>
      <trkpt lat="42.88553" lon="0.07363">
        <ele>1901.63</ele>
        <time>2018-04-03T09:31:56Z</time>
      </trkpt>
      <trkpt lat="42.88545" lon="0.07354">
        <ele>1903.07</ele>
        <time>2018-04-03T09:32:11Z</time>
      </trkpt>
      <trkpt lat="42.88534" lon="0.07351">
        <ele>1904.51</ele>
        <time>2018-04-03T09:32:27Z</time>
      </trkpt>
      <trkpt lat="42.88528" lon="0.07345">
        <ele>1905.95</ele>
        <time>2018-04-03T09:32:41Z</time>
      </trkpt>
      <trkpt lat="42.88521" lon="0.07338">
        <ele>1908.35</ele>
        <time>2018-04-03T09:32:56Z</time>
      </trkpt>
      <trkpt lat="42.88513" lon="0.07334">
        <ele>1909.32</ele>
        <time>2018-04-03T09:33:08Z</time>
      </trkpt>
      <trkpt lat="42.88503" lon="0.07329">
        <ele>1911.72</ele>
        <time>2018-04-03T09:33:26Z</time>
      </trkpt>
      <trkpt lat="42.88494" lon="0.07326">
        <ele>1914.12</ele>
        <time>2018-04-03T09:33:42Z</time>
      </trkpt>
      <trkpt lat="42.88486" lon="0.07324">
        <ele>1916.04</ele>
        <time>2018-04-03T09:33:56Z</time>
      </trkpt>
      <trkpt lat="42.88477" lon="0.07322">
        <ele>1917.97</ele>
        <time>2018-04-03T09:34:12Z</time>
      </trkpt>
      <trkpt lat="42.8847" lon="0.07322">
        <ele>1919.41</ele>
        <time>2018-04-03T09:34:25Z</time>
      </trkpt>
      <trkpt lat="42.8846" lon="0.07321">
        <ele>1921.33</ele>
        <time>2018-04-03T09:34:41Z</time>
      </trkpt>
      <trkpt lat="42.88453" lon="0.07323">
        <ele>1922.77</ele>
        <time>2018-04-03T09:34:54Z</time>
      </trkpt>
      <trkpt lat="42.88445" lon="0.07321">
        <ele>1924.22</ele>
        <time>2018-04-03T09:35:08Z</time>
      </trkpt>
      <trkpt lat="42.88437" lon="0.07322">
        <ele>1927.58</ele>
        <time>2018-04-03T09:35:22Z</time>
      </trkpt>
      <trkpt lat="42.88429" lon="0.07321">
        <ele>1929.02</ele>
        <time>2018-04-03T09:35:37Z</time>
      </trkpt>
      <trkpt lat="42.88422" lon="0.07321">
        <ele>1931.43</ele>
        <time>2018-04-03T09:35:53Z</time>
      </trkpt>
      <trkpt lat="42.88417" lon="0.07321">
        <ele>1934.31</ele>
        <time>2018-04-03T09:36:07Z</time>
      </trkpt>
      <trkpt lat="42.88411" lon="0.07321">
        <ele>1936.71</ele>
        <time>2018-04-03T09:36:21Z</time>
      </trkpt>
      <trkpt lat="42.88407" lon="0.07321">
        <ele>1938.64</ele>
        <time>2018-04-03T09:36:33Z</time>
      </trkpt>
      <trkpt lat="42.884" lon="0.07317">
        <ele>1940.08</ele>
        <time>2018-04-03T09:36:50Z</time>
      </trkpt>
      <trkpt lat="42.88392" lon="0.07313">
        <ele>1941.04</ele>
        <time>2018-04-03T09:37:06Z</time>
      </trkpt>
      <trkpt lat="42.88385" lon="0.07313">
        <ele>1944.4</ele>
        <time>2018-04-03T09:37:21Z</time>
      </trkpt>
      <trkpt lat="42.88378" lon="0.07314">
        <ele>1945.85</ele>
        <time>2018-04-03T09:37:38Z</time>
      </trkpt>
      <trkpt lat="42.88376" lon="0.07314">
        <ele>1946.81</ele>
        <time>2018-04-03T09:37:56Z</time>
      </trkpt>
      <trkpt lat="42.88371" lon="0.07313">
        <ele>1947.29</ele>
        <time>2018-04-03T09:38:09Z</time>
      </trkpt>
      <trkpt lat="42.88367" lon="0.07305">
        <ele>1947.29</ele>
        <time>2018-04-03T09:38:35Z</time>
      </trkpt>
      <trkpt lat="42.88365" lon="0.0731">
        <ele>1948.25</ele>
        <time>2018-04-03T09:38:52Z</time>
      </trkpt>
      <trkpt lat="42.88362" lon="0.07309">
        <ele>1947.77</ele>
        <time>2018-04-03T09:39:12Z</time>
      </trkpt>
      <trkpt lat="42.88363" lon="0.07304">
        <ele>1946.81</ele>
        <time>2018-04-03T09:39:26Z</time>
      </trkpt>
      <trkpt lat="42.88366" lon="0.07302">
        <ele>1946.33</ele>
        <time>2018-04-03T09:39:44Z</time>
      </trkpt>
      <trkpt lat="42.88368" lon="0.07305">
        <ele>1946.81</ele>
        <time>2018-04-03T09:39:56Z</time>
      </trkpt>
      <trkpt lat="42.88369" lon="0.0731">
        <ele>1946.81</ele>
        <time>2018-04-03T09:40:14Z</time>
      </trkpt>
      <trkpt lat="42.88359" lon="0.07302">
        <ele>1948.73</ele>
        <time>2018-04-03T09:40:26Z</time>
      </trkpt>
      <trkpt lat="42.88349" lon="0.073">
        <ele>1950.65</ele>
        <time>2018-04-03T09:40:41Z</time>
      </trkpt>
      <trkpt lat="42.8834" lon="0.07294">
        <ele>1951.13</ele>
        <time>2018-04-03T09:40:55Z</time>
      </trkpt>
      <trkpt lat="42.8834" lon="0.07298">
        <ele>1951.61</ele>
        <time>2018-04-03T09:41:10Z</time>
      </trkpt>
      <trkpt lat="42.88338" lon="0.07297">
        <ele>1951.61</ele>
        <time>2018-04-03T09:41:15Z</time>
      </trkpt>
      <trkpt lat="42.88331" lon="0.07295">
        <ele>1953.54</ele>
        <time>2018-04-03T09:41:28Z</time>
      </trkpt>
      <trkpt lat="42.88325" lon="0.07296">
        <ele>1955.94</ele>
        <time>2018-04-03T09:41:41Z</time>
      </trkpt>
      <trkpt lat="42.88323" lon="0.07298">
        <ele>1957.38</ele>
        <time>2018-04-03T09:41:54Z</time>
      </trkpt>
      <trkpt lat="42.88319" lon="0.07299">
        <ele>1958.34</ele>
        <time>2018-04-03T09:42:11Z</time>
      </trkpt>
      <trkpt lat="42.88318" lon="0.07302">
        <ele>1959.3</ele>
        <time>2018-04-03T09:42:24Z</time>
      </trkpt>
      <trkpt lat="42.88318" lon="0.07305">
        <ele>1960.27</ele>
        <time>2018-04-03T09:42:33Z</time>
      </trkpt>
      <trkpt lat="42.88316" lon="0.07309">
        <ele>1963.15</ele>
        <time>2018-04-03T09:42:45Z</time>
      </trkpt>
      <trkpt lat="42.88312" lon="0.07313">
        <ele>1966.51</ele>
        <time>2018-04-03T09:42:57Z</time>
      </trkpt>
      <trkpt lat="42.88308" lon="0.07315">
        <ele>1965.55</ele>
        <time>2018-04-03T09:43:08Z</time>
      </trkpt>
      <trkpt lat="42.88308" lon="0.07317">
        <ele>1967.48</ele>
        <time>2018-04-03T09:43:20Z</time>
      </trkpt>
      <trkpt lat="42.88305" lon="0.07322">
        <ele>1970.84</ele>
        <time>2018-04-03T09:43:32Z</time>
      </trkpt>
      <trkpt lat="42.88305" lon="0.07323">
        <ele>1974.2</ele>
        <time>2018-04-03T09:43:35Z</time>
      </trkpt>
      <trkpt lat="42.88305" lon="0.07323">
        <ele>1970.84</ele>
        <time>2018-04-03T09:43:37Z</time>
      </trkpt>
      <trkpt lat="42.88303" lon="0.07327">
        <ele>1970.84</ele>
        <time>2018-04-03T09:43:46Z</time>
      </trkpt>
      <trkpt lat="42.88303" lon="0.07331">
        <ele>1974.2</ele>
        <time>2018-04-03T09:43:58Z</time>
      </trkpt>
      <trkpt lat="42.88299" lon="0.07336">
        <ele>1976.61</ele>
        <time>2018-04-03T09:44:11Z</time>
      </trkpt>
      <trkpt lat="42.883" lon="0.07344">
        <ele>1979.49</ele>
        <time>2018-04-03T09:44:26Z</time>
      </trkpt>
      <trkpt lat="42.88302" lon="0.0735">
        <ele>1980.45</ele>
        <time>2018-04-03T09:44:39Z</time>
      </trkpt>
      <trkpt lat="42.88303" lon="0.07354">
        <ele>1980.93</ele>
        <time>2018-04-03T09:44:44Z</time>
      </trkpt>
      <trkpt lat="42.88306" lon="0.07362">
        <ele>1982.38</ele>
        <time>2018-04-03T09:44:58Z</time>
      </trkpt>
      <trkpt lat="42.88309" lon="0.07369">
        <ele>1983.34</ele>
        <time>2018-04-03T09:45:10Z</time>
      </trkpt>
      <trkpt lat="42.88314" lon="0.07376">
        <ele>1986.22</ele>
        <time>2018-04-03T09:45:24Z</time>
      </trkpt>
      <trkpt lat="42.88319" lon="0.07382">
        <ele>1986.7</ele>
        <time>2018-04-03T09:45:36Z</time>
      </trkpt>
      <trkpt lat="42.88321" lon="0.07385">
        <ele>1987.18</ele>
        <time>2018-04-03T09:45:43Z</time>
      </trkpt>
      <trkpt lat="42.88327" lon="0.07389">
        <ele>1988.62</ele>
        <time>2018-04-03T09:45:55Z</time>
      </trkpt>
      <trkpt lat="42.88333" lon="0.07396">
        <ele>1990.55</ele>
        <time>2018-04-03T09:46:08Z</time>
      </trkpt>
      <trkpt lat="42.88338" lon="0.07402">
        <ele>1991.51</ele>
        <time>2018-04-03T09:46:20Z</time>
      </trkpt>
      <trkpt lat="42.88344" lon="0.07408">
        <ele>1992.47</ele>
        <time>2018-04-03T09:46:32Z</time>
      </trkpt>
      <trkpt lat="42.88348" lon="0.07412">
        <ele>1993.43</ele>
        <time>2018-04-03T09:46:41Z</time>
      </trkpt>
      <trkpt lat="42.88356" lon="0.0742">
        <ele>1994.39</ele>
        <time>2018-04-03T09:46:55Z</time>
      </trkpt>
      <trkpt lat="42.88363" lon="0.07425">
        <ele>1995.83</ele>
        <time>2018-04-03T09:47:07Z</time>
      </trkpt>
      <trkpt lat="42.88368" lon="0.07433">
        <ele>1997.28</ele>
        <time>2018-04-03T09:47:21Z</time>
      </trkpt>
      <trkpt lat="42.8837" lon="0.07441">
        <ele>1998.72</ele>
        <time>2018-04-03T09:47:34Z</time>
      </trkpt>
      <trkpt lat="42.88371" lon="0.07441">
        <ele>1999.2</ele>
        <time>2018-04-03T09:47:37Z</time>
      </trkpt>
      <trkpt lat="42.88375" lon="0.07447">
        <ele>2000.64</ele>
        <time>2018-04-03T09:47:49Z</time>
      </trkpt>
      <trkpt lat="42.88381" lon="0.07454">
        <ele>2002.08</ele>
        <time>2018-04-03T09:48:04Z</time>
      </trkpt>
      <trkpt lat="42.88387" lon="0.07464">
        <ele>2003.52</ele>
        <time>2018-04-03T09:48:17Z</time>
      </trkpt>
      <trkpt lat="42.88388" lon="0.07472">
        <ele>2004.97</ele>
        <time>2018-04-03T09:48:30Z</time>
      </trkpt>
      <trkpt lat="42.88383" lon="0.07476">
        <ele>2005.93</ele>
        <time>2018-04-03T09:48:43Z</time>
      </trkpt>
      <trkpt lat="42.88388" lon="0.0748">
        <ele>2004.97</ele>
        <time>2018-04-03T09:55:35Z</time>
      </trkpt>
      <trkpt lat="42.88391" lon="0.07468">
        <ele>2002.56</ele>
        <time>2018-04-03T09:55:47Z</time>
      </trkpt>
      <trkpt lat="42.88396" lon="0.07466">
        <ele>2001.12</ele>
        <time>2018-04-03T09:56:01Z</time>
      </trkpt>
      <trkpt lat="42.88405" lon="0.07468">
        <ele>2000.64</ele>
        <time>2018-04-03T09:56:13Z</time>
      </trkpt>
      <trkpt lat="42.88413" lon="0.07475">
        <ele>2000.16</ele>
        <time>2018-04-03T09:56:29Z</time>
      </trkpt>
      <trkpt lat="42.88417" lon="0.07472">
        <ele>1999.68</ele>
        <time>2018-04-03T09:56:53Z</time>
      </trkpt>
      <trkpt lat="42.8841" lon="0.0747">
        <ele>2000.64</ele>
        <time>2018-04-03T09:57:07Z</time>
      </trkpt>
      <trkpt lat="42.88393" lon="0.07466">
        <ele>2000.64</ele>
        <time>2018-04-03T09:57:21Z</time>
      </trkpt>
      <trkpt lat="42.88388" lon="0.0747">
        <ele>2002.56</ele>
        <time>2018-04-03T09:57:35Z</time>
      </trkpt>
      <trkpt lat="42.88389" lon="0.07479">
        <ele>2004.49</ele>
        <time>2018-04-03T09:57:49Z</time>
      </trkpt>
      <trkpt lat="42.88401" lon="0.07485">
        <ele>2002.56</ele>
        <time>2018-04-03T09:58:04Z</time>
      </trkpt>
      <trkpt lat="42.88408" lon="0.07488">
        <ele>2002.08</ele>
        <time>2018-04-03T09:58:19Z</time>
      </trkpt>
      <trkpt lat="42.88413" lon="0.07487">
        <ele>2001.6</ele>
        <time>2018-04-03T09:58:35Z</time>
      </trkpt>
      <trkpt lat="42.88408" lon="0.07488">
        <ele>2001.6</ele>
        <time>2018-04-03T09:58:48Z</time>
      </trkpt>
      <trkpt lat="42.88402" lon="0.07484">
        <ele>2002.08</ele>
        <time>2018-04-03T09:59:01Z</time>
      </trkpt>
      <trkpt lat="42.88399" lon="0.07481">
        <ele>2003.04</ele>
        <time>2018-04-03T09:59:15Z</time>
      </trkpt>
      <trkpt lat="42.88395" lon="0.07481">
        <ele>2003.52</ele>
        <time>2018-04-03T09:59:33Z</time>
      </trkpt>
      <trkpt lat="42.88394" lon="0.0748">
        <ele>2004.01</ele>
        <time>2018-04-03T09:59:49Z</time>
      </trkpt>
      <trkpt lat="42.88394" lon="0.0748">
        <ele>2002.08</ele>
        <time>2018-04-03T10:00:37Z</time>
      </trkpt>
      <trkpt lat="42.88391" lon="0.07479">
        <ele>2002.08</ele>
        <time>2018-04-03T10:01:19Z</time>
      </trkpt>
      <trkpt lat="42.88387" lon="0.07479">
        <ele>2005.93</ele>
        <time>2018-04-03T10:37:25Z</time>
      </trkpt>
      <trkpt lat="42.88385" lon="0.07477">
        <ele>2006.89</ele>
        <time>2018-04-03T10:37:45Z</time>
      </trkpt>
      <trkpt lat="42.88376" lon="0.07473">
        <ele>2007.37</ele>
        <time>2018-04-03T10:38:10Z</time>
      </trkpt>
      <trkpt lat="42.88371" lon="0.07468">
        <ele>2008.33</ele>
        <time>2018-04-03T10:38:23Z</time>
      </trkpt>
      <trkpt lat="42.88363" lon="0.07462">
        <ele>2009.29</ele>
        <time>2018-04-03T10:38:36Z</time>
      </trkpt>
      <trkpt lat="42.88361" lon="0.07456">
        <ele>2008.33</ele>
        <time>2018-04-03T10:38:48Z</time>
      </trkpt>
      <trkpt lat="42.88355" lon="0.07452">
        <ele>2006.89</ele>
        <time>2018-04-03T10:39:03Z</time>
      </trkpt>
      <trkpt lat="42.88349" lon="0.0745">
        <ele>2006.41</ele>
        <time>2018-04-03T10:39:14Z</time>
      </trkpt>
      <trkpt lat="42.88342" lon="0.07445">
        <ele>2007.85</ele>
        <time>2018-04-03T10:39:26Z</time>
      </trkpt>
      <trkpt lat="42.88335" lon="0.07444">
        <ele>2007.85</ele>
        <time>2018-04-03T10:39:38Z</time>
      </trkpt>
      <trkpt lat="42.8833" lon="0.07438">
        <ele>2009.29</ele>
        <time>2018-04-03T10:39:50Z</time>
      </trkpt>
      <trkpt lat="42.88324" lon="0.07437">
        <ele>2010.25</ele>
        <time>2018-04-03T10:40:04Z</time>
      </trkpt>
      <trkpt lat="42.88317" lon="0.07432">
        <ele>2011.22</ele>
        <time>2018-04-03T10:40:17Z</time>
      </trkpt>
      <trkpt lat="42.88311" lon="0.07428">
        <ele>2011.7</ele>
        <time>2018-04-03T10:40:31Z</time>
      </trkpt>
      <trkpt lat="42.88305" lon="0.07427">
        <ele>2013.14</ele>
        <time>2018-04-03T10:40:43Z</time>
      </trkpt>
      <trkpt lat="42.88299" lon="0.07422">
        <ele>2014.58</ele>
        <time>2018-04-03T10:40:58Z</time>
      </trkpt>
      <trkpt lat="42.88296" lon="0.07422">
        <ele>2015.06</ele>
        <time>2018-04-03T10:41:13Z</time>
      </trkpt>
      <trkpt lat="42.88291" lon="0.07419">
        <ele>2016.02</ele>
        <time>2018-04-03T10:41:32Z</time>
      </trkpt>
      <trkpt lat="42.88282" lon="0.07416">
        <ele>2016.5</ele>
        <time>2018-04-03T10:41:46Z</time>
      </trkpt>
      <trkpt lat="42.88276" lon="0.07414">
        <ele>2017.46</ele>
        <time>2018-04-03T10:42:00Z</time>
      </trkpt>
      <trkpt lat="42.88273" lon="0.07406">
        <ele>2019.87</ele>
        <time>2018-04-03T10:42:14Z</time>
      </trkpt>
      <trkpt lat="42.88261" lon="0.07404">
        <ele>2022.75</ele>
        <time>2018-04-03T10:42:29Z</time>
      </trkpt>
      <trkpt lat="42.88253" lon="0.07398">
        <ele>2023.23</ele>
        <time>2018-04-03T10:42:47Z</time>
      </trkpt>
      <trkpt lat="42.88245" lon="0.07391">
        <ele>2024.67</ele>
        <time>2018-04-03T10:43:04Z</time>
      </trkpt>
      <trkpt lat="42.88243" lon="0.07386">
        <ele>2026.12</ele>
        <time>2018-04-03T10:43:16Z</time>
      </trkpt>
      <trkpt lat="42.88236" lon="0.07383">
        <ele>2027.56</ele>
        <time>2018-04-03T10:43:33Z</time>
      </trkpt>
      <trkpt lat="42.88232" lon="0.07376">
        <ele>2029</ele>
        <time>2018-04-03T10:43:47Z</time>
      </trkpt>
      <trkpt lat="42.88227" lon="0.07369">
        <ele>2029.96</ele>
        <time>2018-04-03T10:44:00Z</time>
      </trkpt>
      <trkpt lat="42.8822" lon="0.07362">
        <ele>2031.4</ele>
        <time>2018-04-03T10:44:16Z</time>
      </trkpt>
      <trkpt lat="42.88216" lon="0.07354">
        <ele>2032.84</ele>
        <time>2018-04-03T10:44:31Z</time>
      </trkpt>
      <trkpt lat="42.88211" lon="0.0735">
        <ele>2034.77</ele>
        <time>2018-04-03T10:44:47Z</time>
      </trkpt>
      <trkpt lat="42.88209" lon="0.07347">
        <ele>2035.25</ele>
        <time>2018-04-03T10:45:05Z</time>
      </trkpt>
      <trkpt lat="42.88202" lon="0.07348">
        <ele>2037.65</ele>
        <time>2018-04-03T10:45:20Z</time>
      </trkpt>
      <trkpt lat="42.882" lon="0.07355">
        <ele>2039.57</ele>
        <time>2018-04-03T10:45:38Z</time>
      </trkpt>
      <trkpt lat="42.88196" lon="0.07361">
        <ele>2040.54</ele>
        <time>2018-04-03T10:46:03Z</time>
      </trkpt>
      <trkpt lat="42.88195" lon="0.0736">
        <ele>2043.42</ele>
        <time>2018-04-03T10:47:47Z</time>
      </trkpt>
      <trkpt lat="42.88192" lon="0.07357">
        <ele>2044.38</ele>
        <time>2018-04-03T10:47:59Z</time>
      </trkpt>
      <trkpt lat="42.88191" lon="0.07355">
        <ele>2045.34</ele>
        <time>2018-04-03T10:48:11Z</time>
      </trkpt>
      <trkpt lat="42.88198" lon="0.07362">
        <ele>2043.9</ele>
        <time>2018-04-03T10:48:30Z</time>
      </trkpt>
      <trkpt lat="42.88196" lon="0.07359">
        <ele>2041.98</ele>
        <time>2018-04-03T10:50:33Z</time>
      </trkpt>
      <trkpt lat="42.88196" lon="0.0736">
        <ele>2041.98</ele>
        <time>2018-04-03T10:50:51Z</time>
      </trkpt>
      <trkpt lat="42.88194" lon="0.0736">
        <ele>2041.98</ele>
        <time>2018-04-03T10:51:07Z</time>
      </trkpt>
      <trkpt lat="42.88201" lon="0.07356">
        <ele>2041.5</ele>
        <time>2018-04-03T10:51:19Z</time>
      </trkpt>
      <trkpt lat="42.88206" lon="0.07358">
        <ele>2041.5</ele>
        <time>2018-04-03T10:51:37Z</time>
      </trkpt>
      <trkpt lat="42.88208" lon="0.0736">
        <ele>2041.02</ele>
        <time>2018-04-03T10:51:58Z</time>
      </trkpt>
      <trkpt lat="42.88207" lon="0.07359">
        <ele>2041.5</ele>
        <time>2018-04-03T10:52:17Z</time>
      </trkpt>
      <trkpt lat="42.8821" lon="0.07361">
        <ele>2041.98</ele>
        <time>2018-04-03T10:52:44Z</time>
      </trkpt>
      <trkpt lat="42.88207" lon="0.0735">
        <ele>2041.02</ele>
        <time>2018-04-03T10:52:57Z</time>
      </trkpt>
      <trkpt lat="42.88208" lon="0.07342">
        <ele>2040.05</ele>
        <time>2018-04-03T10:53:11Z</time>
      </trkpt>
      <trkpt lat="42.88214" lon="0.07347">
        <ele>2037.17</ele>
        <time>2018-04-03T10:53:24Z</time>
      </trkpt>
      <trkpt lat="42.88222" lon="0.0736">
        <ele>2035.25</ele>
        <time>2018-04-03T10:53:38Z</time>
      </trkpt>
      <trkpt lat="42.88228" lon="0.07369">
        <ele>2032.36</ele>
        <time>2018-04-03T10:53:52Z</time>
      </trkpt>
      <trkpt lat="42.88237" lon="0.07378">
        <ele>2030.44</ele>
        <time>2018-04-03T10:54:05Z</time>
      </trkpt>
      <trkpt lat="42.88242" lon="0.07386">
        <ele>2029.48</ele>
        <time>2018-04-03T10:54:17Z</time>
      </trkpt>
      <trkpt lat="42.8825" lon="0.07394">
        <ele>2027.08</ele>
        <time>2018-04-03T10:54:33Z</time>
      </trkpt>
      <trkpt lat="42.88254" lon="0.07398">
        <ele>2024.19</ele>
        <time>2018-04-03T10:54:45Z</time>
      </trkpt>
      <trkpt lat="42.88262" lon="0.07405">
        <ele>2022.75</ele>
        <time>2018-04-03T10:54:58Z</time>
      </trkpt>
      <trkpt lat="42.88273" lon="0.0741">
        <ele>2020.83</ele>
        <time>2018-04-03T10:55:12Z</time>
      </trkpt>
      <trkpt lat="42.8828" lon="0.07415">
        <ele>2019.39</ele>
        <time>2018-04-03T10:55:26Z</time>
      </trkpt>
      <trkpt lat="42.88283" lon="0.07416">
        <ele>2018.91</ele>
        <time>2018-04-03T10:55:45Z</time>
      </trkpt>
      <trkpt lat="42.88293" lon="0.07421">
        <ele>2017.94</ele>
        <time>2018-04-03T10:55:59Z</time>
      </trkpt>
      <trkpt lat="42.88294" lon="0.07421">
        <ele>2018.43</ele>
        <time>2018-04-03T10:56:00Z</time>
      </trkpt>
      <trkpt lat="42.88297" lon="0.07424">
        <ele>2016.5</ele>
        <time>2018-04-03T10:56:16Z</time>
      </trkpt>
      <trkpt lat="42.88297" lon="0.07423">
        <ele>2016.98</ele>
        <time>2018-04-03T10:56:34Z</time>
      </trkpt>
      <trkpt lat="42.88303" lon="0.07425">
        <ele>2016.02</ele>
        <time>2018-04-03T10:56:48Z</time>
      </trkpt>
      <trkpt lat="42.88308" lon="0.07429">
        <ele>2015.06</ele>
        <time>2018-04-03T10:57:01Z</time>
      </trkpt>
      <trkpt lat="42.8831" lon="0.0743">
        <ele>2014.58</ele>
        <time>2018-04-03T10:57:14Z</time>
      </trkpt>
      <trkpt lat="42.88312" lon="0.07431">
        <ele>2014.1</ele>
        <time>2018-04-03T10:57:16Z</time>
      </trkpt>
      <trkpt lat="42.88318" lon="0.07433">
        <ele>2013.14</ele>
        <time>2018-04-03T10:57:29Z</time>
      </trkpt>
      <trkpt lat="42.88321" lon="0.07434">
        <ele>2013.14</ele>
        <time>2018-04-03T10:57:45Z</time>
      </trkpt>
      <trkpt lat="42.88324" lon="0.07435">
        <ele>2012.66</ele>
        <time>2018-04-03T10:57:48Z</time>
      </trkpt>
      <trkpt lat="42.88321" lon="0.07434">
        <ele>2012.66</ele>
        <time>2018-04-03T10:58:01Z</time>
      </trkpt>
      <trkpt lat="42.88323" lon="0.07436">
        <ele>2012.18</ele>
        <time>2018-04-03T10:58:44Z</time>
      </trkpt>
      <trkpt lat="42.88322" lon="0.07436">
        <ele>2012.18</ele>
        <time>2018-04-03T10:59:01Z</time>
      </trkpt>
      <trkpt lat="42.88332" lon="0.0744">
        <ele>2010.73</ele>
        <time>2018-04-03T10:59:15Z</time>
      </trkpt>
      <trkpt lat="42.88331" lon="0.07441">
        <ele>2010.73</ele>
        <time>2018-04-03T10:59:28Z</time>
      </trkpt>
      <trkpt lat="42.88332" lon="0.07442">
        <ele>2010.25</ele>
        <time>2018-04-03T10:59:42Z</time>
      </trkpt>
      <trkpt lat="42.88331" lon="0.07441">
        <ele>2010.73</ele>
        <time>2018-04-03T11:00:05Z</time>
      </trkpt>
      <trkpt lat="42.88329" lon="0.07441">
        <ele>2010.25</ele>
        <time>2018-04-03T11:00:29Z</time>
      </trkpt>
      <trkpt lat="42.88331" lon="0.0744">
        <ele>2009.77</ele>
        <time>2018-04-03T11:00:56Z</time>
      </trkpt>
      <trkpt lat="42.88332" lon="0.07441">
        <ele>2010.73</ele>
        <time>2018-04-03T11:01:12Z</time>
      </trkpt>
      <trkpt lat="42.88333" lon="0.07441">
        <ele>2011.22</ele>
        <time>2018-04-03T11:01:32Z</time>
      </trkpt>
      <trkpt lat="42.88331" lon="0.07442">
        <ele>2010.25</ele>
        <time>2018-04-03T11:01:45Z</time>
      </trkpt>
      <trkpt lat="42.88331" lon="0.0744">
        <ele>2010.25</ele>
        <time>2018-04-03T11:02:11Z</time>
      </trkpt>
      <trkpt lat="42.88331" lon="0.07437">
        <ele>2010.25</ele>
        <time>2018-04-03T11:02:29Z</time>
      </trkpt>
      <trkpt lat="42.88334" lon="0.07441">
        <ele>2009.77</ele>
        <time>2018-04-03T11:02:44Z</time>
      </trkpt>
      <trkpt lat="42.88342" lon="0.07446">
        <ele>2008.81</ele>
        <time>2018-04-03T11:02:56Z</time>
      </trkpt>
      <trkpt lat="42.88353" lon="0.07451">
        <ele>2007.37</ele>
        <time>2018-04-03T11:03:10Z</time>
      </trkpt>
      <trkpt lat="42.8836" lon="0.07454">
        <ele>2006.89</ele>
        <time>2018-04-03T11:03:25Z</time>
      </trkpt>
      <trkpt lat="42.88365" lon="0.07461">
        <ele>2007.85</ele>
        <time>2018-04-03T11:03:38Z</time>
      </trkpt>
      <trkpt lat="42.88368" lon="0.07468">
        <ele>2008.81</ele>
        <time>2018-04-03T11:03:51Z</time>
      </trkpt>
      <trkpt lat="42.88371" lon="0.07469">
        <ele>2007.85</ele>
        <time>2018-04-03T11:03:57Z</time>
      </trkpt>
      <trkpt lat="42.88374" lon="0.0747">
        <ele>2007.85</ele>
        <time>2018-04-03T11:04:00Z</time>
      </trkpt>
      <trkpt lat="42.88377" lon="0.07473">
        <ele>2006.89</ele>
        <time>2018-04-03T11:04:08Z</time>
      </trkpt>
      <trkpt lat="42.88386" lon="0.07472">
        <ele>2006.41</ele>
        <time>2018-04-03T11:04:22Z</time>
      </trkpt>
      <trkpt lat="42.88386" lon="0.07465">
        <ele>2004.49</ele>
        <time>2018-04-03T11:04:35Z</time>
      </trkpt>
      <trkpt lat="42.88383" lon="0.07459">
        <ele>2002.56</ele>
        <time>2018-04-03T11:04:46Z</time>
      </trkpt>
      <trkpt lat="42.88376" lon="0.07448">
        <ele>2001.12</ele>
        <time>2018-04-03T11:04:59Z</time>
      </trkpt>
      <trkpt lat="42.88368" lon="0.07441">
        <ele>1999.68</ele>
        <time>2018-04-03T11:05:11Z</time>
      </trkpt>
      <trkpt lat="42.88358" lon="0.07428">
        <ele>1997.28</ele>
        <time>2018-04-03T11:05:26Z</time>
      </trkpt>
      <trkpt lat="42.88347" lon="0.07416">
        <ele>1994.87</ele>
        <time>2018-04-03T11:05:40Z</time>
      </trkpt>
      <trkpt lat="42.88337" lon="0.07405">
        <ele>1992.95</ele>
        <time>2018-04-03T11:05:54Z</time>
      </trkpt>
      <trkpt lat="42.88326" lon="0.07392">
        <ele>1990.55</ele>
        <time>2018-04-03T11:06:09Z</time>
      </trkpt>
      <trkpt lat="42.88316" lon="0.07383">
        <ele>1988.14</ele>
        <time>2018-04-03T11:06:22Z</time>
      </trkpt>
      <trkpt lat="42.88305" lon="0.07373">
        <ele>1985.26</ele>
        <time>2018-04-03T11:06:35Z</time>
      </trkpt>
      <trkpt lat="42.88301" lon="0.0736">
        <ele>1982.86</ele>
        <time>2018-04-03T11:06:47Z</time>
      </trkpt>
      <trkpt lat="42.88301" lon="0.07359">
        <ele>1982.38</ele>
        <time>2018-04-03T11:06:48Z</time>
      </trkpt>
      <trkpt lat="42.88298" lon="0.07348">
        <ele>1980.45</ele>
        <time>2018-04-03T11:06:59Z</time>
      </trkpt>
      <trkpt lat="42.88298" lon="0.07334">
        <ele>1977.09</ele>
        <time>2018-04-03T11:07:12Z</time>
      </trkpt>
      <trkpt lat="42.88297" lon="0.07326">
        <ele>1975.65</ele>
        <time>2018-04-03T11:07:25Z</time>
      </trkpt>
      <trkpt lat="42.88297" lon="0.07323">
        <ele>1975.17</ele>
        <time>2018-04-03T11:07:28Z</time>
      </trkpt>
      <trkpt lat="42.88296" lon="0.07311">
        <ele>1972.76</ele>
        <time>2018-04-03T11:07:40Z</time>
      </trkpt>
      <trkpt lat="42.88298" lon="0.07302">
        <ele>1969.88</ele>
        <time>2018-04-03T11:07:53Z</time>
      </trkpt>
      <trkpt lat="42.88302" lon="0.07292">
        <ele>1966.51</ele>
        <time>2018-04-03T11:08:05Z</time>
      </trkpt>
      <trkpt lat="42.88307" lon="0.07285">
        <ele>1963.63</ele>
        <time>2018-04-03T11:08:14Z</time>
      </trkpt>
      <trkpt lat="42.88309" lon="0.07286">
        <ele>1963.15</ele>
        <time>2018-04-03T11:08:16Z</time>
      </trkpt>
      <trkpt lat="42.88318" lon="0.07286">
        <ele>1959.78</ele>
        <time>2018-04-03T11:08:24Z</time>
      </trkpt>
      <trkpt lat="42.88328" lon="0.07286">
        <ele>1956.42</ele>
        <time>2018-04-03T11:08:32Z</time>
      </trkpt>
      <trkpt lat="42.88336" lon="0.07289">
        <ele>1953.06</ele>
        <time>2018-04-03T11:08:39Z</time>
      </trkpt>
      <trkpt lat="42.88353" lon="0.07295">
        <ele>1952.09</ele>
        <time>2018-04-03T11:08:55Z</time>
      </trkpt>
      <trkpt lat="42.88365" lon="0.07299">
        <ele>1950.65</ele>
        <time>2018-04-03T11:09:08Z</time>
      </trkpt>
      <trkpt lat="42.88373" lon="0.07303">
        <ele>1950.17</ele>
        <time>2018-04-03T11:09:21Z</time>
      </trkpt>
      <trkpt lat="42.88378" lon="0.07307">
        <ele>1949.69</ele>
        <time>2018-04-03T11:09:35Z</time>
      </trkpt>
      <trkpt lat="42.8838" lon="0.07306">
        <ele>1948.73</ele>
        <time>2018-04-03T11:09:49Z</time>
      </trkpt>
      <trkpt lat="42.88386" lon="0.07312">
        <ele>1947.29</ele>
        <time>2018-04-03T11:10:08Z</time>
      </trkpt>
      <trkpt lat="42.8839" lon="0.0731">
        <ele>1947.29</ele>
        <time>2018-04-03T11:10:20Z</time>
      </trkpt>
      <trkpt lat="42.88392" lon="0.07312">
        <ele>1947.29</ele>
        <time>2018-04-03T11:10:33Z</time>
      </trkpt>
      <trkpt lat="42.88391" lon="0.07313">
        <ele>1946.33</ele>
        <time>2018-04-03T11:10:45Z</time>
      </trkpt>
      <trkpt lat="42.88385" lon="0.07309">
        <ele>1946.33</ele>
        <time>2018-04-03T11:11:19Z</time>
      </trkpt>
      <trkpt lat="42.88383" lon="0.0731">
        <ele>1946.81</ele>
        <time>2018-04-03T11:11:55Z</time>
      </trkpt>
      <trkpt lat="42.88386" lon="0.0731">
        <ele>1946.81</ele>
        <time>2018-04-03T11:12:15Z</time>
      </trkpt>
      <trkpt lat="42.8839" lon="0.07313">
        <ele>1947.77</ele>
        <time>2018-04-03T11:12:27Z</time>
      </trkpt>
      <trkpt lat="42.88393" lon="0.07314">
        <ele>1947.29</ele>
        <time>2018-04-03T11:12:44Z</time>
      </trkpt>
      <trkpt lat="42.88393" lon="0.07313">
        <ele>1947.77</ele>
        <time>2018-04-03T11:13:02Z</time>
      </trkpt>
      <trkpt lat="42.88391" lon="0.07314">
        <ele>1947.77</ele>
        <time>2018-04-03T11:13:14Z</time>
      </trkpt>
      <trkpt lat="42.8839" lon="0.07317">
        <ele>1947.77</ele>
        <time>2018-04-03T11:13:40Z</time>
      </trkpt>
      <trkpt lat="42.88391" lon="0.07316">
        <ele>1947.29</ele>
        <time>2018-04-03T11:14:06Z</time>
      </trkpt>
      <trkpt lat="42.88396" lon="0.07312">
        <ele>1946.81</ele>
        <time>2018-04-03T11:14:24Z</time>
      </trkpt>
      <trkpt lat="42.88404" lon="0.0731">
        <ele>1943.44</ele>
        <time>2018-04-03T11:14:37Z</time>
      </trkpt>
      <trkpt lat="42.88413" lon="0.07314">
        <ele>1940.56</ele>
        <time>2018-04-03T11:14:52Z</time>
      </trkpt>
      <trkpt lat="42.88419" lon="0.07312">
        <ele>1937.19</ele>
        <time>2018-04-03T11:15:03Z</time>
      </trkpt>
      <trkpt lat="42.88427" lon="0.0731">
        <ele>1933.83</ele>
        <time>2018-04-03T11:15:14Z</time>
      </trkpt>
      <trkpt lat="42.88438" lon="0.07309">
        <ele>1930.95</ele>
        <time>2018-04-03T11:15:27Z</time>
      </trkpt>
      <trkpt lat="42.88443" lon="0.07307">
        <ele>1929.02</ele>
        <time>2018-04-03T11:15:39Z</time>
      </trkpt>
      <trkpt lat="42.88447" lon="0.07306">
        <ele>1928.54</ele>
        <time>2018-04-03T11:15:54Z</time>
      </trkpt>
      <trkpt lat="42.88458" lon="0.07306">
        <ele>1926.14</ele>
        <time>2018-04-03T11:16:08Z</time>
      </trkpt>
      <trkpt lat="42.8847" lon="0.07307">
        <ele>1924.22</ele>
        <time>2018-04-03T11:16:21Z</time>
      </trkpt>
      <trkpt lat="42.88484" lon="0.07308">
        <ele>1921.33</ele>
        <time>2018-04-03T11:16:35Z</time>
      </trkpt>
      <trkpt lat="42.88485" lon="0.07308">
        <ele>1920.85</ele>
        <time>2018-04-03T11:16:36Z</time>
      </trkpt>
      <trkpt lat="42.88489" lon="0.0731">
        <ele>1919.89</ele>
        <time>2018-04-03T11:16:40Z</time>
      </trkpt>
      <trkpt lat="42.88501" lon="0.07315">
        <ele>1917.49</ele>
        <time>2018-04-03T11:16:52Z</time>
      </trkpt>
      <trkpt lat="42.88513" lon="0.0732">
        <ele>1914.12</ele>
        <time>2018-04-03T11:17:04Z</time>
      </trkpt>
      <trkpt lat="42.88526" lon="0.07334">
        <ele>1911.24</ele>
        <time>2018-04-03T11:17:17Z</time>
      </trkpt>
      <trkpt lat="42.88538" lon="0.07351">
        <ele>1908.83</ele>
        <time>2018-04-03T11:17:27Z</time>
      </trkpt>
      <trkpt lat="42.8854" lon="0.07353">
        <ele>1908.35</ele>
        <time>2018-04-03T11:17:29Z</time>
      </trkpt>
      <trkpt lat="42.88549" lon="0.07359">
        <ele>1905.47</ele>
        <time>2018-04-03T11:17:42Z</time>
      </trkpt>
      <trkpt lat="42.88561" lon="0.0737">
        <ele>1902.59</ele>
        <time>2018-04-03T11:17:57Z</time>
      </trkpt>
      <trkpt lat="42.88573" lon="0.0738">
        <ele>1899.22</ele>
        <time>2018-04-03T11:18:11Z</time>
      </trkpt>
      <trkpt lat="42.88585" lon="0.07391">
        <ele>1896.82</ele>
        <time>2018-04-03T11:18:26Z</time>
      </trkpt>
      <trkpt lat="42.88589" lon="0.07394">
        <ele>1896.34</ele>
        <time>2018-04-03T11:18:38Z</time>
      </trkpt>
      <trkpt lat="42.8859" lon="0.07395">
        <ele>1896.34</ele>
        <time>2018-04-03T11:18:54Z</time>
      </trkpt>
      <trkpt lat="42.88585" lon="0.07395">
        <ele>1895.86</ele>
        <time>2018-04-03T11:19:25Z</time>
      </trkpt>
      <trkpt lat="42.88593" lon="0.07399">
        <ele>1894.9</ele>
        <time>2018-04-03T11:19:54Z</time>
      </trkpt>
      <trkpt lat="42.88602" lon="0.07408">
        <ele>1892.49</ele>
        <time>2018-04-03T11:20:06Z</time>
      </trkpt>
      <trkpt lat="42.88607" lon="0.07412">
        <ele>1891.05</ele>
        <time>2018-04-03T11:20:12Z</time>
      </trkpt>
      <trkpt lat="42.88617" lon="0.07426">
        <ele>1887.69</ele>
        <time>2018-04-03T11:20:25Z</time>
      </trkpt>
      <trkpt lat="42.88629" lon="0.07441">
        <ele>1884.32</ele>
        <time>2018-04-03T11:20:40Z</time>
      </trkpt>
      <trkpt lat="42.88632" lon="0.07455">
        <ele>1882.88</ele>
        <time>2018-04-03T11:20:53Z</time>
      </trkpt>
      <trkpt lat="42.88638" lon="0.07458">
        <ele>1880.96</ele>
        <time>2018-04-03T11:21:00Z</time>
      </trkpt>
      <trkpt lat="42.88645" lon="0.07476">
        <ele>1876.63</ele>
        <time>2018-04-03T11:21:14Z</time>
      </trkpt>
      <trkpt lat="42.88648" lon="0.07482">
        <ele>1875.19</ele>
        <time>2018-04-03T11:21:21Z</time>
      </trkpt>
      <trkpt lat="42.88651" lon="0.07494">
        <ele>1871.82</ele>
        <time>2018-04-03T11:21:33Z</time>
      </trkpt>
      <trkpt lat="42.88652" lon="0.07502">
        <ele>1869.42</ele>
        <time>2018-04-03T11:21:40Z</time>
      </trkpt>
      <trkpt lat="42.88654" lon="0.07505">
        <ele>1867.98</ele>
        <time>2018-04-03T11:21:43Z</time>
      </trkpt>
      <trkpt lat="42.88661" lon="0.07512">
        <ele>1867.02</ele>
        <time>2018-04-03T11:21:57Z</time>
      </trkpt>
      <trkpt lat="42.8866" lon="0.07508">
        <ele>1866.06</ele>
        <time>2018-04-03T11:22:08Z</time>
      </trkpt>
      <trkpt lat="42.88659" lon="0.07509">
        <ele>1867.02</ele>
        <time>2018-04-03T11:22:40Z</time>
      </trkpt>
      <trkpt lat="42.88659" lon="0.07511">
        <ele>1866.54</ele>
        <time>2018-04-03T11:23:08Z</time>
      </trkpt>
      <trkpt lat="42.88659" lon="0.07513">
        <ele>1866.54</ele>
        <time>2018-04-03T11:23:39Z</time>
      </trkpt>
      <trkpt lat="42.88658" lon="0.07508">
        <ele>1867.5</ele>
        <time>2018-04-03T11:24:20Z</time>
      </trkpt>
      <trkpt lat="42.8866" lon="0.07511">
        <ele>1867.98</ele>
        <time>2018-04-03T11:24:58Z</time>
      </trkpt>
      <trkpt lat="42.8866" lon="0.0751">
        <ele>1867.98</ele>
        <time>2018-04-03T11:25:35Z</time>
      </trkpt>
      <trkpt lat="42.88659" lon="0.0751">
        <ele>1868.46</ele>
        <time>2018-04-03T11:26:08Z</time>
      </trkpt>
      <trkpt lat="42.88659" lon="0.0751">
        <ele>1868.46</ele>
        <time>2018-04-03T11:26:11Z</time>
      </trkpt>
      <trkpt lat="42.8866" lon="0.07506">
        <ele>1869.9</ele>
        <time>2018-04-03T11:26:19Z</time>
      </trkpt>
      <trkpt lat="42.88662" lon="0.07503">
        <ele>1869.42</ele>
        <time>2018-04-03T11:26:31Z</time>
      </trkpt>
      <trkpt lat="42.88665" lon="0.07503">
        <ele>1869.42</ele>
        <time>2018-04-03T11:26:49Z</time>
      </trkpt>
      <trkpt lat="42.88674" lon="0.07494">
        <ele>1867.02</ele>
        <time>2018-04-03T11:27:03Z</time>
      </trkpt>
      <trkpt lat="42.88679" lon="0.07484">
        <ele>1865.58</ele>
        <time>2018-04-03T11:27:16Z</time>
      </trkpt>
      <trkpt lat="42.88683" lon="0.07468">
        <ele>1864.13</ele>
        <time>2018-04-03T11:27:30Z</time>
      </trkpt>
      <trkpt lat="42.88686" lon="0.07468">
        <ele>1863.17</ele>
        <time>2018-04-03T11:27:44Z</time>
      </trkpt>
      <trkpt lat="42.88692" lon="0.07468">
        <ele>1859.81</ele>
        <time>2018-04-03T11:27:54Z</time>
      </trkpt>
      <trkpt lat="42.88693" lon="0.07467">
        <ele>1859.33</ele>
        <time>2018-04-03T11:27:56Z</time>
      </trkpt>
      <trkpt lat="42.88696" lon="0.07459">
        <ele>1857.4</ele>
        <time>2018-04-03T11:28:07Z</time>
      </trkpt>
      <trkpt lat="42.88701" lon="0.07454">
        <ele>1855.96</ele>
        <time>2018-04-03T11:28:18Z</time>
      </trkpt>
      <trkpt lat="42.887" lon="0.07455">
        <ele>1856.92</ele>
        <time>2018-04-03T11:28:31Z</time>
      </trkpt>
      <trkpt lat="42.887" lon="0.07448">
        <ele>1855.96</ele>
        <time>2018-04-03T11:28:39Z</time>
      </trkpt>
      <trkpt lat="42.88701" lon="0.07439">
        <ele>1854.52</ele>
        <time>2018-04-03T11:28:51Z</time>
      </trkpt>
      <trkpt lat="42.88701" lon="0.07434">
        <ele>1854.04</ele>
        <time>2018-04-03T11:29:01Z</time>
      </trkpt>
      <trkpt lat="42.88699" lon="0.07435">
        <ele>1853.08</ele>
        <time>2018-04-03T11:29:16Z</time>
      </trkpt>
      <trkpt lat="42.88692" lon="0.07434">
        <ele>1854.52</ele>
        <time>2018-04-03T11:29:29Z</time>
      </trkpt>
      <trkpt lat="42.88683" lon="0.07434">
        <ele>1857.4</ele>
        <time>2018-04-03T11:29:42Z</time>
      </trkpt>
      <trkpt lat="42.88678" lon="0.07433">
        <ele>1859.33</ele>
        <time>2018-04-03T11:29:54Z</time>
      </trkpt>
      <trkpt lat="42.8868" lon="0.07411">
        <ele>1856.44</ele>
        <time>2018-04-03T11:30:08Z</time>
      </trkpt>
      <trkpt lat="42.8868" lon="0.07401">
        <ele>1854.52</ele>
        <time>2018-04-03T11:30:25Z</time>
      </trkpt>
      <trkpt lat="42.88679" lon="0.07395">
        <ele>1854.52</ele>
        <time>2018-04-03T11:30:37Z</time>
      </trkpt>
      <trkpt lat="42.88676" lon="0.07389">
        <ele>1852.6</ele>
        <time>2018-04-03T11:30:49Z</time>
      </trkpt>
      <trkpt lat="42.88677" lon="0.07387">
        <ele>1852.6</ele>
        <time>2018-04-03T11:31:09Z</time>
      </trkpt>
      <trkpt lat="42.88672" lon="0.07375">
        <ele>1851.16</ele>
        <time>2018-04-03T11:31:23Z</time>
      </trkpt>
      <trkpt lat="42.88668" lon="0.07358">
        <ele>1849.23</ele>
        <time>2018-04-03T11:31:37Z</time>
      </trkpt>
      <trkpt lat="42.88661" lon="0.07342">
        <ele>1848.27</ele>
        <time>2018-04-03T11:31:50Z</time>
      </trkpt>
      <trkpt lat="42.88655" lon="0.07327">
        <ele>1847.31</ele>
        <time>2018-04-03T11:32:04Z</time>
      </trkpt>
      <trkpt lat="42.88649" lon="0.0731">
        <ele>1845.39</ele>
        <time>2018-04-03T11:32:18Z</time>
      </trkpt>
      <trkpt lat="42.88644" lon="0.07295">
        <ele>1843.95</ele>
        <time>2018-04-03T11:32:31Z</time>
      </trkpt>
      <trkpt lat="42.88639" lon="0.07278">
        <ele>1842.98</ele>
        <time>2018-04-03T11:32:44Z</time>
      </trkpt>
      <trkpt lat="42.88638" lon="0.07274">
        <ele>1842.98</ele>
        <time>2018-04-03T11:32:47Z</time>
      </trkpt>
      <trkpt lat="42.88632" lon="0.07254">
        <ele>1841.54</ele>
        <time>2018-04-03T11:33:00Z</time>
      </trkpt>
      <trkpt lat="42.88629" lon="0.07235">
        <ele>1839.14</ele>
        <time>2018-04-03T11:33:14Z</time>
      </trkpt>
      <trkpt lat="42.88624" lon="0.07215">
        <ele>1837.22</ele>
        <time>2018-04-03T11:33:28Z</time>
      </trkpt>
      <trkpt lat="42.88622" lon="0.07199">
        <ele>1835.29</ele>
        <time>2018-04-03T11:33:39Z</time>
      </trkpt>
      <trkpt lat="42.88619" lon="0.07186">
        <ele>1833.37</ele>
        <time>2018-04-03T11:33:50Z</time>
      </trkpt>
      <trkpt lat="42.88616" lon="0.07174">
        <ele>1831.93</ele>
        <time>2018-04-03T11:33:59Z</time>
      </trkpt>
      <trkpt lat="42.88612" lon="0.07162">
        <ele>1830.49</ele>
        <time>2018-04-03T11:34:08Z</time>
      </trkpt>
      <trkpt lat="42.88609" lon="0.07154">
        <ele>1829.53</ele>
        <time>2018-04-03T11:34:14Z</time>
      </trkpt>
      <trkpt lat="42.88599" lon="0.07135">
        <ele>1828.08</ele>
        <time>2018-04-03T11:34:28Z</time>
      </trkpt>
      <trkpt lat="42.88597" lon="0.0713">
        <ele>1826.64</ele>
        <time>2018-04-03T11:34:33Z</time>
      </trkpt>
      <trkpt lat="42.88586" lon="0.07112">
        <ele>1825.2</ele>
        <time>2018-04-03T11:34:48Z</time>
      </trkpt>
      <trkpt lat="42.88576" lon="0.07098">
        <ele>1823.28</ele>
        <time>2018-04-03T11:35:02Z</time>
      </trkpt>
      <trkpt lat="42.88567" lon="0.07081">
        <ele>1819.91</ele>
        <time>2018-04-03T11:35:17Z</time>
      </trkpt>
      <trkpt lat="42.88549" lon="0.07064">
        <ele>1819.43</ele>
        <time>2018-04-03T11:35:36Z</time>
      </trkpt>
      <trkpt lat="42.88532" lon="0.07052">
        <ele>1817.03</ele>
        <time>2018-04-03T11:35:56Z</time>
      </trkpt>
      <trkpt lat="42.88518" lon="0.07038">
        <ele>1813.66</ele>
        <time>2018-04-03T11:36:12Z</time>
      </trkpt>
      <trkpt lat="42.88502" lon="0.07031">
        <ele>1812.22</ele>
        <time>2018-04-03T11:36:32Z</time>
      </trkpt>
      <trkpt lat="42.88482" lon="0.07025">
        <ele>1808.86</ele>
        <time>2018-04-03T11:36:52Z</time>
      </trkpt>
      <trkpt lat="42.8846" lon="0.0701">
        <ele>1805.97</ele>
        <time>2018-04-03T11:37:10Z</time>
      </trkpt>
      <trkpt lat="42.88445" lon="0.06996">
        <ele>1804.05</ele>
        <time>2018-04-03T11:37:26Z</time>
      </trkpt>
      <trkpt lat="42.88435" lon="0.06983">
        <ele>1801.17</ele>
        <time>2018-04-03T11:37:40Z</time>
      </trkpt>
      <trkpt lat="42.88434" lon="0.06981">
        <ele>1801.17</ele>
        <time>2018-04-03T11:37:42Z</time>
      </trkpt>
      <trkpt lat="42.88424" lon="0.06967">
        <ele>1799.73</ele>
        <time>2018-04-03T11:37:53Z</time>
      </trkpt>
      <trkpt lat="42.88418" lon="0.06958">
        <ele>1799.73</ele>
        <time>2018-04-03T11:38:00Z</time>
      </trkpt>
      <trkpt lat="42.88414" lon="0.06953">
        <ele>1799.73</ele>
        <time>2018-04-03T11:38:06Z</time>
      </trkpt>
      <trkpt lat="42.8841" lon="0.06944">
        <ele>1798.28</ele>
        <time>2018-04-03T11:38:14Z</time>
      </trkpt>
      <trkpt lat="42.88424" lon="0.06944">
        <ele>1796.84</ele>
        <time>2018-04-03T11:38:30Z</time>
      </trkpt>
      <trkpt lat="42.88427" lon="0.06953">
        <ele>1795.88</ele>
        <time>2018-04-03T11:38:37Z</time>
      </trkpt>
      <trkpt lat="42.88437" lon="0.06963">
        <ele>1794.92</ele>
        <time>2018-04-03T11:38:51Z</time>
      </trkpt>
      <trkpt lat="42.88445" lon="0.06968">
        <ele>1793.96</ele>
        <time>2018-04-03T11:39:03Z</time>
      </trkpt>
      <trkpt lat="42.8846" lon="0.06965">
        <ele>1793</ele>
        <time>2018-04-03T11:39:16Z</time>
      </trkpt>
      <trkpt lat="42.88472" lon="0.06966">
        <ele>1792.03</ele>
        <time>2018-04-03T11:39:28Z</time>
      </trkpt>
      <trkpt lat="42.8849" lon="0.06969">
        <ele>1790.59</ele>
        <time>2018-04-03T11:39:43Z</time>
      </trkpt>
      <trkpt lat="42.88498" lon="0.0697">
        <ele>1790.11</ele>
        <time>2018-04-03T11:39:51Z</time>
      </trkpt>
      <trkpt lat="42.88502" lon="0.06972">
        <ele>1789.63</ele>
        <time>2018-04-03T11:39:55Z</time>
      </trkpt>
      <trkpt lat="42.88513" lon="0.06974">
        <ele>1788.67</ele>
        <time>2018-04-03T11:40:05Z</time>
      </trkpt>
      <trkpt lat="42.88529" lon="0.06976">
        <ele>1787.23</ele>
        <time>2018-04-03T11:40:19Z</time>
      </trkpt>
      <trkpt lat="42.88539" lon="0.06975">
        <ele>1787.23</ele>
        <time>2018-04-03T11:40:30Z</time>
      </trkpt>
      <trkpt lat="42.88551" lon="0.06976">
        <ele>1786.75</ele>
        <time>2018-04-03T11:40:42Z</time>
      </trkpt>
      <trkpt lat="42.8856" lon="0.06977">
        <ele>1786.75</ele>
        <time>2018-04-03T11:40:51Z</time>
      </trkpt>
      <trkpt lat="42.88562" lon="0.06979">
        <ele>1786.27</ele>
        <time>2018-04-03T11:40:53Z</time>
      </trkpt>
      <trkpt lat="42.88572" lon="0.06984">
        <ele>1785.79</ele>
        <time>2018-04-03T11:41:03Z</time>
      </trkpt>
      <trkpt lat="42.88589" lon="0.06986">
        <ele>1783.86</ele>
        <time>2018-04-03T11:41:18Z</time>
      </trkpt>
      <trkpt lat="42.88599" lon="0.06993">
        <ele>1783.38</ele>
        <time>2018-04-03T11:41:31Z</time>
      </trkpt>
      <trkpt lat="42.88607" lon="0.06995">
        <ele>1783.38</ele>
        <time>2018-04-03T11:41:45Z</time>
      </trkpt>
      <trkpt lat="42.88605" lon="0.06993">
        <ele>1783.38</ele>
        <time>2018-04-03T11:42:05Z</time>
      </trkpt>
      <trkpt lat="42.88607" lon="0.06991">
        <ele>1782.9</ele>
        <time>2018-04-03T11:42:21Z</time>
      </trkpt>
      <trkpt lat="42.88617" lon="0.06993">
        <ele>1783.86</ele>
        <time>2018-04-03T11:42:33Z</time>
      </trkpt>
      <trkpt lat="42.88627" lon="0.07">
        <ele>1783.86</ele>
        <time>2018-04-03T11:42:46Z</time>
      </trkpt>
      <trkpt lat="42.88649" lon="0.07017">
        <ele>1783.38</ele>
        <time>2018-04-03T11:43:08Z</time>
      </trkpt>
      <trkpt lat="42.88661" lon="0.0702">
        <ele>1782.9</ele>
        <time>2018-04-03T11:43:19Z</time>
      </trkpt>
      <trkpt lat="42.88671" lon="0.07034">
        <ele>1781.46</ele>
        <time>2018-04-03T11:43:34Z</time>
      </trkpt>
      <trkpt lat="42.88675" lon="0.07037">
        <ele>1780.98</ele>
        <time>2018-04-03T11:43:39Z</time>
      </trkpt>
      <trkpt lat="42.88684" lon="0.07045">
        <ele>1780.02</ele>
        <time>2018-04-03T11:43:54Z</time>
      </trkpt>
      <trkpt lat="42.88689" lon="0.07049">
        <ele>1779.54</ele>
        <time>2018-04-03T11:44:10Z</time>
      </trkpt>
      <trkpt lat="42.88692" lon="0.07053">
        <ele>1778.58</ele>
        <time>2018-04-03T11:44:23Z</time>
      </trkpt>
      <trkpt lat="42.88701" lon="0.07059">
        <ele>1778.1</ele>
        <time>2018-04-03T11:44:37Z</time>
      </trkpt>
      <trkpt lat="42.88716" lon="0.07078">
        <ele>1776.17</ele>
        <time>2018-04-03T11:44:52Z</time>
      </trkpt>
      <trkpt lat="42.88718" lon="0.07081">
        <ele>1775.69</ele>
        <time>2018-04-03T11:44:57Z</time>
      </trkpt>
      <trkpt lat="42.88722" lon="0.07085">
        <ele>1775.21</ele>
        <time>2018-04-03T11:45:01Z</time>
      </trkpt>
      <trkpt lat="42.8873" lon="0.07096">
        <ele>1774.25</ele>
        <time>2018-04-03T11:45:12Z</time>
      </trkpt>
      <trkpt lat="42.88735" lon="0.07103">
        <ele>1773.29</ele>
        <time>2018-04-03T11:45:19Z</time>
      </trkpt>
      <trkpt lat="42.88741" lon="0.07113">
        <ele>1772.33</ele>
        <time>2018-04-03T11:45:29Z</time>
      </trkpt>
      <trkpt lat="42.88749" lon="0.07128">
        <ele>1770.41</ele>
        <time>2018-04-03T11:45:44Z</time>
      </trkpt>
      <trkpt lat="42.88757" lon="0.07141">
        <ele>1769.44</ele>
        <time>2018-04-03T11:45:58Z</time>
      </trkpt>
      <trkpt lat="42.88769" lon="0.07155">
        <ele>1768.96</ele>
        <time>2018-04-03T11:46:13Z</time>
      </trkpt>
      <trkpt lat="42.88781" lon="0.07164">
        <ele>1768.96</ele>
        <time>2018-04-03T11:46:25Z</time>
      </trkpt>
      <trkpt lat="42.88781" lon="0.07165">
        <ele>1768.96</ele>
        <time>2018-04-03T11:46:26Z</time>
      </trkpt>
      <trkpt lat="42.88792" lon="0.07176">
        <ele>1768.48</ele>
        <time>2018-04-03T11:46:40Z</time>
      </trkpt>
      <trkpt lat="42.88804" lon="0.0718">
        <ele>1768.48</ele>
        <time>2018-04-03T11:46:55Z</time>
      </trkpt>
      <trkpt lat="42.88801" lon="0.07169">
        <ele>1767.04</ele>
        <time>2018-04-03T11:47:10Z</time>
      </trkpt>
      <trkpt lat="42.88795" lon="0.07159">
        <ele>1766.56</ele>
        <time>2018-04-03T11:47:19Z</time>
      </trkpt>
      <trkpt lat="42.88796" lon="0.07156">
        <ele>1765.12</ele>
        <time>2018-04-03T11:47:21Z</time>
      </trkpt>
      <trkpt lat="42.8881" lon="0.07154">
        <ele>1761.75</ele>
        <time>2018-04-03T11:47:35Z</time>
      </trkpt>
      <trkpt lat="42.88821" lon="0.07161">
        <ele>1760.79</ele>
        <time>2018-04-03T11:47:46Z</time>
      </trkpt>
      <trkpt lat="42.88834" lon="0.07182">
        <ele>1758.87</ele>
        <time>2018-04-03T11:48:02Z</time>
      </trkpt>
      <trkpt lat="42.88844" lon="0.07192">
        <ele>1757.43</ele>
        <time>2018-04-03T11:48:14Z</time>
      </trkpt>
      <trkpt lat="42.88848" lon="0.07196">
        <ele>1757.43</ele>
        <time>2018-04-03T11:48:18Z</time>
      </trkpt>
      <trkpt lat="42.88851" lon="0.072">
        <ele>1756.95</ele>
        <time>2018-04-03T11:48:21Z</time>
      </trkpt>
      <trkpt lat="42.88856" lon="0.07203">
        <ele>1755.99</ele>
        <time>2018-04-03T11:48:26Z</time>
      </trkpt>
      <trkpt lat="42.88868" lon="0.0722">
        <ele>1755.02</ele>
        <time>2018-04-03T11:48:41Z</time>
      </trkpt>
      <trkpt lat="42.88872" lon="0.07226">
        <ele>1754.06</ele>
        <time>2018-04-03T11:48:46Z</time>
      </trkpt>
      <trkpt lat="42.88878" lon="0.07235">
        <ele>1753.58</ele>
        <time>2018-04-03T11:48:59Z</time>
      </trkpt>
      <trkpt lat="42.88883" lon="0.07243">
        <ele>1753.1</ele>
        <time>2018-04-03T11:49:06Z</time>
      </trkpt>
      <trkpt lat="42.88887" lon="0.07252">
        <ele>1752.14</ele>
        <time>2018-04-03T11:49:14Z</time>
      </trkpt>
      <trkpt lat="42.88894" lon="0.07263">
        <ele>1751.18</ele>
        <time>2018-04-03T11:49:24Z</time>
      </trkpt>
      <trkpt lat="42.88899" lon="0.07272">
        <ele>1751.18</ele>
        <time>2018-04-03T11:49:38Z</time>
      </trkpt>
      <trkpt lat="42.88909" lon="0.07286">
        <ele>1750.22</ele>
        <time>2018-04-03T11:49:52Z</time>
      </trkpt>
      <trkpt lat="42.8892" lon="0.07303">
        <ele>1748.78</ele>
        <time>2018-04-03T11:50:07Z</time>
      </trkpt>
      <trkpt lat="42.88924" lon="0.07309">
        <ele>1748.29</ele>
        <time>2018-04-03T11:50:13Z</time>
      </trkpt>
      <trkpt lat="42.88926" lon="0.07311">
        <ele>1748.29</ele>
        <time>2018-04-03T11:50:15Z</time>
      </trkpt>
      <trkpt lat="42.88935" lon="0.0733">
        <ele>1746.85</ele>
        <time>2018-04-03T11:50:30Z</time>
      </trkpt>
      <trkpt lat="42.88939" lon="0.0735">
        <ele>1745.89</ele>
        <time>2018-04-03T11:50:44Z</time>
      </trkpt>
      <trkpt lat="42.88939" lon="0.07351">
        <ele>1745.89</ele>
        <time>2018-04-03T11:50:45Z</time>
      </trkpt>
      <trkpt lat="42.88939" lon="0.07369">
        <ele>1744.45</ele>
        <time>2018-04-03T11:51:00Z</time>
      </trkpt>
      <trkpt lat="42.88944" lon="0.07379">
        <ele>1743.97</ele>
        <time>2018-04-03T11:51:15Z</time>
      </trkpt>
      <trkpt lat="42.88948" lon="0.07389">
        <ele>1743.01</ele>
        <time>2018-04-03T11:51:23Z</time>
      </trkpt>
      <trkpt lat="42.88951" lon="0.07404">
        <ele>1742.05</ele>
        <time>2018-04-03T11:51:34Z</time>
      </trkpt>
      <trkpt lat="42.8895" lon="0.07443">
        <ele>1739.16</ele>
        <time>2018-04-03T11:51:57Z</time>
      </trkpt>
      <trkpt lat="42.88948" lon="0.07476">
        <ele>1735.8</ele>
        <time>2018-04-03T11:52:16Z</time>
      </trkpt>
      <trkpt lat="42.88946" lon="0.07497">
        <ele>1734.84</ele>
        <time>2018-04-03T11:52:31Z</time>
      </trkpt>
      <trkpt lat="42.88946" lon="0.07499">
        <ele>1735.32</ele>
        <time>2018-04-03T11:52:33Z</time>
      </trkpt>
      <trkpt lat="42.88946" lon="0.07502">
        <ele>1734.84</ele>
        <time>2018-04-03T11:52:35Z</time>
      </trkpt>
      <trkpt lat="42.88945" lon="0.07535">
        <ele>1732.91</ele>
        <time>2018-04-03T11:52:54Z</time>
      </trkpt>
      <trkpt lat="42.88944" lon="0.07544">
        <ele>1731.95</ele>
        <time>2018-04-03T11:53:05Z</time>
      </trkpt>
      <trkpt lat="42.88942" lon="0.07554">
        <ele>1731.95</ele>
        <time>2018-04-03T11:53:10Z</time>
      </trkpt>
      <trkpt lat="42.88943" lon="0.07577">
        <ele>1730.51</ele>
        <time>2018-04-03T11:53:23Z</time>
      </trkpt>
      <trkpt lat="42.88945" lon="0.076">
        <ele>1729.07</ele>
        <time>2018-04-03T11:53:37Z</time>
      </trkpt>
      <trkpt lat="42.88944" lon="0.07615">
        <ele>1728.11</ele>
        <time>2018-04-03T11:53:45Z</time>
      </trkpt>
      <trkpt lat="42.88945" lon="0.07622">
        <ele>1728.11</ele>
        <time>2018-04-03T11:53:50Z</time>
      </trkpt>
      <trkpt lat="42.88948" lon="0.07639">
        <ele>1727.15</ele>
        <time>2018-04-03T11:54:01Z</time>
      </trkpt>
      <trkpt lat="42.88948" lon="0.07646">
        <ele>1727.15</ele>
        <time>2018-04-03T11:54:05Z</time>
      </trkpt>
      <trkpt lat="42.88953" lon="0.07659">
        <ele>1726.18</ele>
        <time>2018-04-03T11:54:14Z</time>
      </trkpt>
      <trkpt lat="42.88955" lon="0.07672">
        <ele>1725.7</ele>
        <time>2018-04-03T11:54:26Z</time>
      </trkpt>
      <trkpt lat="42.88956" lon="0.07676">
        <ele>1725.22</ele>
        <time>2018-04-03T11:54:41Z</time>
      </trkpt>
      <trkpt lat="42.88959" lon="0.0768">
        <ele>1724.74</ele>
        <time>2018-04-03T11:54:54Z</time>
      </trkpt>
      <trkpt lat="42.88958" lon="0.07681">
        <ele>1724.74</ele>
        <time>2018-04-03T11:55:09Z</time>
      </trkpt>
      <trkpt lat="42.88956" lon="0.07683">
        <ele>1725.22</ele>
        <time>2018-04-03T11:55:31Z</time>
      </trkpt>
      <trkpt lat="42.88957" lon="0.07682">
        <ele>1724.74</ele>
        <time>2018-04-03T11:55:48Z</time>
      </trkpt>
      <trkpt lat="42.88966" lon="0.07708">
        <ele>1722.82</ele>
        <time>2018-04-03T11:56:05Z</time>
      </trkpt>
      <trkpt lat="42.88968" lon="0.07721">
        <ele>1721.86</ele>
        <time>2018-04-03T11:56:16Z</time>
      </trkpt>
      <trkpt lat="42.88968" lon="0.07725">
        <ele>1721.38</ele>
        <time>2018-04-03T11:56:18Z</time>
      </trkpt>
      <trkpt lat="42.88968" lon="0.07731">
        <ele>1720.9</ele>
        <time>2018-04-03T11:56:23Z</time>
      </trkpt>
      <trkpt lat="42.8897" lon="0.07754">
        <ele>1719.46</ele>
        <time>2018-04-03T11:56:37Z</time>
      </trkpt>
      <trkpt lat="42.8897" lon="0.07756">
        <ele>1719.46</ele>
        <time>2018-04-03T11:56:39Z</time>
      </trkpt>
      <trkpt lat="42.88972" lon="0.07764">
        <ele>1719.46</ele>
        <time>2018-04-03T11:56:46Z</time>
      </trkpt>
      <trkpt lat="42.88973" lon="0.07777">
        <ele>1718.97</ele>
        <time>2018-04-03T11:56:55Z</time>
      </trkpt>
      <trkpt lat="42.88978" lon="0.07794">
        <ele>1718.01</ele>
        <time>2018-04-03T11:57:08Z</time>
      </trkpt>
      <trkpt lat="42.88984" lon="0.07805">
        <ele>1715.13</ele>
        <time>2018-04-03T11:57:19Z</time>
      </trkpt>
      <trkpt lat="42.88987" lon="0.07811">
        <ele>1714.17</ele>
        <time>2018-04-03T11:57:29Z</time>
      </trkpt>
      <trkpt lat="42.88987" lon="0.07812">
        <ele>1713.69</ele>
        <time>2018-04-03T11:57:41Z</time>
      </trkpt>
      <trkpt lat="42.88991" lon="0.07815">
        <ele>1712.73</ele>
        <time>2018-04-03T11:58:01Z</time>
      </trkpt>
      <trkpt lat="42.88995" lon="0.07821">
        <ele>1710.8</ele>
        <time>2018-04-03T11:58:13Z</time>
      </trkpt>
      <trkpt lat="42.88998" lon="0.07825">
        <ele>1710.32</ele>
        <time>2018-04-03T11:58:32Z</time>
      </trkpt>
      <trkpt lat="42.89002" lon="0.07835">
        <ele>1707.92</ele>
        <time>2018-04-03T11:58:45Z</time>
      </trkpt>
      <trkpt lat="42.89003" lon="0.07838">
        <ele>1707.44</ele>
        <time>2018-04-03T11:59:01Z</time>
      </trkpt>
      <trkpt lat="42.89" lon="0.07843">
        <ele>1706.48</ele>
        <time>2018-04-03T11:59:12Z</time>
      </trkpt>
      <trkpt lat="42.89001" lon="0.0785">
        <ele>1705.52</ele>
        <time>2018-04-03T11:59:35Z</time>
      </trkpt>
      <trkpt lat="42.89" lon="0.0785">
        <ele>1705.52</ele>
        <time>2018-04-03T11:59:51Z</time>
      </trkpt>
      <trkpt lat="42.89002" lon="0.07854">
        <ele>1704.55</ele>
        <time>2018-04-03T11:59:56Z</time>
      </trkpt>
      <trkpt lat="42.89004" lon="0.07868">
        <ele>1701.67</ele>
        <time>2018-04-03T12:00:05Z</time>
      </trkpt>
      <trkpt lat="42.89004" lon="0.07883">
        <ele>1697.83</ele>
        <time>2018-04-03T12:00:17Z</time>
      </trkpt>
      <trkpt lat="42.89003" lon="0.07886">
        <ele>1696.86</ele>
        <time>2018-04-03T12:00:20Z</time>
      </trkpt>
      <trkpt lat="42.89" lon="0.07905">
        <ele>1693.98</ele>
        <time>2018-04-03T12:00:35Z</time>
      </trkpt>
      <trkpt lat="42.88995" lon="0.07919">
        <ele>1690.62</ele>
        <time>2018-04-03T12:00:47Z</time>
      </trkpt>
      <trkpt lat="42.88992" lon="0.07927">
        <ele>1689.65</ele>
        <time>2018-04-03T12:01:00Z</time>
      </trkpt>
      <trkpt lat="42.88991" lon="0.07929">
        <ele>1690.62</ele>
        <time>2018-04-03T12:01:02Z</time>
      </trkpt>
      <trkpt lat="42.88983" lon="0.07944">
        <ele>1688.21</ele>
        <time>2018-04-03T12:01:15Z</time>
      </trkpt>
      <trkpt lat="42.88973" lon="0.07956">
        <ele>1685.33</ele>
        <time>2018-04-03T12:01:29Z</time>
      </trkpt>
      <trkpt lat="42.88968" lon="0.07958">
        <ele>1685.33</ele>
        <time>2018-04-03T12:01:37Z</time>
      </trkpt>
      <trkpt lat="42.88958" lon="0.07969">
        <ele>1683.41</ele>
        <time>2018-04-03T12:01:50Z</time>
      </trkpt>
      <trkpt lat="42.88952" lon="0.07978">
        <ele>1682.93</ele>
        <time>2018-04-03T12:02:04Z</time>
      </trkpt>
      <trkpt lat="42.88943" lon="0.07988">
        <ele>1681.48</ele>
        <time>2018-04-03T12:02:13Z</time>
      </trkpt>
      <trkpt lat="42.8894" lon="0.07989">
        <ele>1681.48</ele>
        <time>2018-04-03T12:02:16Z</time>
      </trkpt>
      <trkpt lat="42.88935" lon="0.07994">
        <ele>1677.64</ele>
        <time>2018-04-03T12:02:22Z</time>
      </trkpt>
      <trkpt lat="42.8893" lon="0.08001">
        <ele>1679.56</ele>
        <time>2018-04-03T12:02:27Z</time>
      </trkpt>
      <trkpt lat="42.8893" lon="0.08008">
        <ele>1678.12</ele>
        <time>2018-04-03T12:02:39Z</time>
      </trkpt>
      <trkpt lat="42.88932" lon="0.0801">
        <ele>1677.16</ele>
        <time>2018-04-03T12:02:47Z</time>
      </trkpt>
      <trkpt lat="42.88933" lon="0.08022">
        <ele>1674.27</ele>
        <time>2018-04-03T12:02:59Z</time>
      </trkpt>
      <trkpt lat="42.88933" lon="0.0802">
        <ele>1674.27</ele>
        <time>2018-04-03T12:03:12Z</time>
      </trkpt>
      <trkpt lat="42.88939" lon="0.08026">
        <ele>1671.39</ele>
        <time>2018-04-03T12:03:20Z</time>
      </trkpt>
      <trkpt lat="42.88947" lon="0.08036">
        <ele>1668.51</ele>
        <time>2018-04-03T12:03:33Z</time>
      </trkpt>
      <trkpt lat="42.88952" lon="0.0804">
        <ele>1667.06</ele>
        <time>2018-04-03T12:03:38Z</time>
      </trkpt>
      <trkpt lat="42.88958" lon="0.08042">
        <ele>1664.66</ele>
        <time>2018-04-03T12:03:52Z</time>
      </trkpt>
      <trkpt lat="42.88969" lon="0.08044">
        <ele>1661.3</ele>
        <time>2018-04-03T12:04:06Z</time>
      </trkpt>
      <trkpt lat="42.88974" lon="0.08049">
        <ele>1659.85</ele>
        <time>2018-04-03T12:04:19Z</time>
      </trkpt>
      <trkpt lat="42.88967" lon="0.08048">
        <ele>1659.37</ele>
        <time>2018-04-03T12:04:33Z</time>
      </trkpt>
      <trkpt lat="42.88969" lon="0.08048">
        <ele>1656.49</ele>
        <time>2018-04-03T12:04:51Z</time>
      </trkpt>
      <trkpt lat="42.88969" lon="0.08048">
        <ele>1662.74</ele>
        <time>2018-04-03T12:04:52Z</time>
      </trkpt>
      <trkpt lat="42.88969" lon="0.08048">
        <ele>1659.37</ele>
        <time>2018-04-03T12:04:54Z</time>
      </trkpt>
      <trkpt lat="42.88973" lon="0.08046">
        <ele>1659.37</ele>
        <time>2018-04-03T12:05:09Z</time>
      </trkpt>
      <trkpt lat="42.88973" lon="0.08045">
        <ele>1658.41</ele>
        <time>2018-04-03T12:05:28Z</time>
      </trkpt>
      <trkpt lat="42.88978" lon="0.08036">
        <ele>1658.89</ele>
        <time>2018-04-03T12:05:44Z</time>
      </trkpt>
      <trkpt lat="42.88984" lon="0.08026">
        <ele>1660.33</ele>
        <time>2018-04-03T12:05:57Z</time>
      </trkpt>
      <trkpt lat="42.88993" lon="0.08016">
        <ele>1661.78</ele>
        <time>2018-04-03T12:06:10Z</time>
      </trkpt>
      <trkpt lat="42.88995" lon="0.08014">
        <ele>1662.74</ele>
        <time>2018-04-03T12:06:23Z</time>
      </trkpt>
      <trkpt lat="42.88996" lon="0.08017">
        <ele>1662.26</ele>
        <time>2018-04-03T12:06:42Z</time>
      </trkpt>
      <trkpt lat="42.89002" lon="0.08009">
        <ele>1662.74</ele>
        <time>2018-04-03T12:06:53Z</time>
      </trkpt>
      <trkpt lat="42.89009" lon="0.08005">
        <ele>1660.81</ele>
        <time>2018-04-03T12:07:05Z</time>
      </trkpt>
      <trkpt lat="42.8901" lon="0.08004">
        <ele>1660.81</ele>
        <time>2018-04-03T12:07:06Z</time>
      </trkpt>
      <trkpt lat="42.89011" lon="0.08004">
        <ele>1659.85</ele>
        <time>2018-04-03T12:07:09Z</time>
      </trkpt>
      <trkpt lat="42.89023" lon="0.08001">
        <ele>1657.45</ele>
        <time>2018-04-03T12:07:19Z</time>
      </trkpt>
      <trkpt lat="42.89033" lon="0.07999">
        <ele>1656.01</ele>
        <time>2018-04-03T12:07:27Z</time>
      </trkpt>
      <trkpt lat="42.89052" lon="0.07993">
        <ele>1653.6</ele>
        <time>2018-04-03T12:07:44Z</time>
      </trkpt>
      <trkpt lat="42.89058" lon="0.07989">
        <ele>1653.6</ele>
        <time>2018-04-03T12:07:59Z</time>
      </trkpt>
      <trkpt lat="42.8906" lon="0.07987">
        <ele>1653.12</ele>
        <time>2018-04-03T12:08:15Z</time>
      </trkpt>
      <trkpt lat="42.8907" lon="0.0799">
        <ele>1650.24</ele>
        <time>2018-04-03T12:08:29Z</time>
      </trkpt>
      <trkpt lat="42.89071" lon="0.0799">
        <ele>1649.76</ele>
        <time>2018-04-03T12:08:30Z</time>
      </trkpt>
      <trkpt lat="42.89077" lon="0.07988">
        <ele>1647.84</ele>
        <time>2018-04-03T12:08:42Z</time>
      </trkpt>
      <trkpt lat="42.89084" lon="0.07987">
        <ele>1644.95</ele>
        <time>2018-04-03T12:08:55Z</time>
      </trkpt>
      <trkpt lat="42.89093" lon="0.07985">
        <ele>1641.59</ele>
        <time>2018-04-03T12:09:08Z</time>
      </trkpt>
      <trkpt lat="42.89101" lon="0.07982">
        <ele>1638.22</ele>
        <time>2018-04-03T12:09:19Z</time>
      </trkpt>
      <trkpt lat="42.89108" lon="0.07979">
        <ele>1635.82</ele>
        <time>2018-04-03T12:09:31Z</time>
      </trkpt>
      <trkpt lat="42.89113" lon="0.07972">
        <ele>1633.42</ele>
        <time>2018-04-03T12:09:44Z</time>
      </trkpt>
      <trkpt lat="42.89114" lon="0.07968">
        <ele>1632.94</ele>
        <time>2018-04-03T12:09:55Z</time>
      </trkpt>
      <trkpt lat="42.89118" lon="0.07963">
        <ele>1632.46</ele>
        <time>2018-04-03T12:10:06Z</time>
      </trkpt>
      <trkpt lat="42.89124" lon="0.07949">
        <ele>1630.53</ele>
        <time>2018-04-03T12:10:20Z</time>
      </trkpt>
      <trkpt lat="42.89133" lon="0.07941">
        <ele>1627.17</ele>
        <time>2018-04-03T12:10:32Z</time>
      </trkpt>
      <trkpt lat="42.89142" lon="0.07933">
        <ele>1626.21</ele>
        <time>2018-04-03T12:10:45Z</time>
      </trkpt>
      <trkpt lat="42.8915" lon="0.07924">
        <ele>1624.28</ele>
        <time>2018-04-03T12:10:58Z</time>
      </trkpt>
      <trkpt lat="42.89158" lon="0.07914">
        <ele>1622.84</ele>
        <time>2018-04-03T12:11:11Z</time>
      </trkpt>
      <trkpt lat="42.89162" lon="0.07909">
        <ele>1621.4</ele>
        <time>2018-04-03T12:11:17Z</time>
      </trkpt>
      <trkpt lat="42.89167" lon="0.07899">
        <ele>1618.52</ele>
        <time>2018-04-03T12:11:26Z</time>
      </trkpt>
      <trkpt lat="42.89177" lon="0.0789">
        <ele>1615.63</ele>
        <time>2018-04-03T12:11:36Z</time>
      </trkpt>
      <trkpt lat="42.89185" lon="0.07878">
        <ele>1611.31</ele>
        <time>2018-04-03T12:11:48Z</time>
      </trkpt>
      <trkpt lat="42.89191" lon="0.0786">
        <ele>1609.38</ele>
        <time>2018-04-03T12:12:02Z</time>
      </trkpt>
      <trkpt lat="42.89191" lon="0.07856">
        <ele>1608.9</ele>
        <time>2018-04-03T12:12:05Z</time>
      </trkpt>
      <trkpt lat="42.89192" lon="0.07853">
        <ele>1608.9</ele>
        <time>2018-04-03T12:12:07Z</time>
      </trkpt>
      <trkpt lat="42.89194" lon="0.07835">
        <ele>1606.98</ele>
        <time>2018-04-03T12:12:22Z</time>
      </trkpt>
      <trkpt lat="42.89195" lon="0.07831">
        <ele>1606.5</ele>
        <time>2018-04-03T12:12:35Z</time>
      </trkpt>
      <trkpt lat="42.89193" lon="0.0783">
        <ele>1606.5</ele>
        <time>2018-04-03T12:12:51Z</time>
      </trkpt>
      <trkpt lat="42.89194" lon="0.07825">
        <ele>1606.02</ele>
        <time>2018-04-03T12:13:07Z</time>
      </trkpt>
      <trkpt lat="42.89197" lon="0.07822">
        <ele>1606.5</ele>
        <time>2018-04-03T12:13:30Z</time>
      </trkpt>
      <trkpt lat="42.89198" lon="0.07815">
        <ele>1605.06</ele>
        <time>2018-04-03T12:13:41Z</time>
      </trkpt>
      <trkpt lat="42.89205" lon="0.07815">
        <ele>1602.17</ele>
        <time>2018-04-03T12:13:53Z</time>
      </trkpt>
      <trkpt lat="42.89213" lon="0.07816">
        <ele>1598.81</ele>
        <time>2018-04-03T12:14:03Z</time>
      </trkpt>
      <trkpt lat="42.89213" lon="0.07804">
        <ele>1596.89</ele>
        <time>2018-04-03T12:14:16Z</time>
      </trkpt>
      <trkpt lat="42.89215" lon="0.07791">
        <ele>1595.93</ele>
        <time>2018-04-03T12:14:30Z</time>
      </trkpt>
      <trkpt lat="42.89219" lon="0.07776">
        <ele>1593.52</ele>
        <time>2018-04-03T12:14:44Z</time>
      </trkpt>
      <trkpt lat="42.89222" lon="0.07771">
        <ele>1593.04</ele>
        <time>2018-04-03T12:14:49Z</time>
      </trkpt>
      <trkpt lat="42.89225" lon="0.07759">
        <ele>1591.6</ele>
        <time>2018-04-03T12:14:58Z</time>
      </trkpt>
      <trkpt lat="42.89235" lon="0.07762">
        <ele>1588.24</ele>
        <time>2018-04-03T12:15:11Z</time>
      </trkpt>
      <trkpt lat="42.89239" lon="0.07767">
        <ele>1587.75</ele>
        <time>2018-04-03T12:15:21Z</time>
      </trkpt>
      <trkpt lat="42.89246" lon="0.07784">
        <ele>1585.83</ele>
        <time>2018-04-03T12:15:34Z</time>
      </trkpt>
      <trkpt lat="42.89257" lon="0.07773">
        <ele>1581.99</ele>
        <time>2018-04-03T12:15:46Z</time>
      </trkpt>
      <trkpt lat="42.89263" lon="0.07759">
        <ele>1578.62</ele>
        <time>2018-04-03T12:15:58Z</time>
      </trkpt>
      <trkpt lat="42.89265" lon="0.07753">
        <ele>1577.66</ele>
        <time>2018-04-03T12:16:10Z</time>
      </trkpt>
      <trkpt lat="42.89268" lon="0.07745">
        <ele>1577.18</ele>
        <time>2018-04-03T12:16:23Z</time>
      </trkpt>
      <trkpt lat="42.89268" lon="0.07745">
        <ele>1576.7</ele>
        <time>2018-04-03T12:16:24Z</time>
      </trkpt>
      <trkpt lat="42.89269" lon="0.07739">
        <ele>1576.7</ele>
        <time>2018-04-03T12:16:39Z</time>
      </trkpt>
      <trkpt lat="42.89271" lon="0.07742">
        <ele>1576.22</ele>
        <time>2018-04-03T12:16:56Z</time>
      </trkpt>
      <trkpt lat="42.89272" lon="0.07741">
        <ele>1576.22</ele>
        <time>2018-04-03T12:17:10Z</time>
      </trkpt>
      <trkpt lat="42.89275" lon="0.07747">
        <ele>1576.22</ele>
        <time>2018-04-03T12:19:27Z</time>
      </trkpt>
      <trkpt lat="42.89277" lon="0.07747">
        <ele>1576.22</ele>
        <time>2018-04-03T12:20:19Z</time>
      </trkpt>
      <trkpt lat="42.89277" lon="0.07759">
        <ele>1576.22</ele>
        <time>2018-04-03T12:20:33Z</time>
      </trkpt>
      <trkpt lat="42.89277" lon="0.07774">
        <ele>1575.74</ele>
        <time>2018-04-03T12:20:47Z</time>
      </trkpt>
      <trkpt lat="42.89277" lon="0.07779">
        <ele>1575.26</ele>
        <time>2018-04-03T12:20:51Z</time>
      </trkpt>
      <trkpt lat="42.89271" lon="0.07787">
        <ele>1574.78</ele>
        <time>2018-04-03T12:21:04Z</time>
      </trkpt>
      <trkpt lat="42.8927" lon="0.07784">
        <ele>1574.78</ele>
        <time>2018-04-03T12:21:25Z</time>
      </trkpt>
      <trkpt lat="42.89269" lon="0.07781">
        <ele>1574.78</ele>
        <time>2018-04-03T12:21:49Z</time>
      </trkpt>
      <trkpt lat="42.89272" lon="0.0779">
        <ele>1574.78</ele>
        <time>2018-04-03T12:22:12Z</time>
      </trkpt>
      <trkpt lat="42.89277" lon="0.07801">
        <ele>1574.3</ele>
        <time>2018-04-03T12:22:31Z</time>
      </trkpt>
      <trkpt lat="42.89277" lon="0.07806">
        <ele>1574.3</ele>
        <time>2018-04-03T12:22:35Z</time>
      </trkpt>
      <trkpt lat="42.89278" lon="0.0781">
        <ele>1573.82</ele>
        <time>2018-04-03T12:22:38Z</time>
      </trkpt>
      <trkpt lat="42.89278" lon="0.07831">
        <ele>1572.85</ele>
        <time>2018-04-03T12:22:52Z</time>
      </trkpt>
      <trkpt lat="42.89277" lon="0.07834">
        <ele>1572.85</ele>
        <time>2018-04-03T12:22:55Z</time>
      </trkpt>
      <trkpt lat="42.89278" lon="0.07846">
        <ele>1571.89</ele>
        <time>2018-04-03T12:23:04Z</time>
      </trkpt>
      <trkpt lat="42.89277" lon="0.0785">
        <ele>1571.89</ele>
        <time>2018-04-03T12:23:07Z</time>
      </trkpt>
      <trkpt lat="42.89279" lon="0.0786">
        <ele>1571.41</ele>
        <time>2018-04-03T12:23:14Z</time>
      </trkpt>
      <trkpt lat="42.8928" lon="0.0787">
        <ele>1570.45</ele>
        <time>2018-04-03T12:23:22Z</time>
      </trkpt>
      <trkpt lat="42.89284" lon="0.07888">
        <ele>1569.49</ele>
        <time>2018-04-03T12:23:36Z</time>
      </trkpt>
      <trkpt lat="42.89284" lon="0.07897">
        <ele>1569.49</ele>
        <time>2018-04-03T12:23:42Z</time>
      </trkpt>
      <trkpt lat="42.89282" lon="0.07921">
        <ele>1569.49</ele>
        <time>2018-04-03T12:23:57Z</time>
      </trkpt>
      <trkpt lat="42.89273" lon="0.07937">
        <ele>1568.05</ele>
        <time>2018-04-03T12:24:11Z</time>
      </trkpt>
      <trkpt lat="42.8927" lon="0.07961">
        <ele>1567.09</ele>
        <time>2018-04-03T12:24:27Z</time>
      </trkpt>
      <trkpt lat="42.89266" lon="0.07974">
        <ele>1566.61</ele>
        <time>2018-04-03T12:24:41Z</time>
      </trkpt>
      <trkpt lat="42.89266" lon="0.07992">
        <ele>1566.12</ele>
        <time>2018-04-03T12:24:55Z</time>
      </trkpt>
      <trkpt lat="42.89267" lon="0.07998">
        <ele>1565.64</ele>
        <time>2018-04-03T12:25:06Z</time>
      </trkpt>
      <trkpt lat="42.8927" lon="0.08008">
        <ele>1562.28</ele>
        <time>2018-04-03T12:25:18Z</time>
      </trkpt>
      <trkpt lat="42.89274" lon="0.08012">
        <ele>1559.4</ele>
        <time>2018-04-03T12:25:32Z</time>
      </trkpt>
      <trkpt lat="42.89281" lon="0.08013">
        <ele>1556.51</ele>
        <time>2018-04-03T12:25:43Z</time>
      </trkpt>
      <trkpt lat="42.89286" lon="0.08016">
        <ele>1553.15</ele>
        <time>2018-04-03T12:25:56Z</time>
      </trkpt>
      <trkpt lat="42.89284" lon="0.08017">
        <ele>1553.15</ele>
        <time>2018-04-03T12:26:06Z</time>
      </trkpt>
      <trkpt lat="42.89291" lon="0.08021">
        <ele>1550.74</ele>
        <time>2018-04-03T12:26:12Z</time>
      </trkpt>
      <trkpt lat="42.89303" lon="0.08024">
        <ele>1547.38</ele>
        <time>2018-04-03T12:26:22Z</time>
      </trkpt>
      <trkpt lat="42.89305" lon="0.08025">
        <ele>1547.38</ele>
        <time>2018-04-03T12:26:23Z</time>
      </trkpt>
      <trkpt lat="42.8931" lon="0.08026">
        <ele>1545.94</ele>
        <time>2018-04-03T12:26:27Z</time>
      </trkpt>
      <trkpt lat="42.89318" lon="0.0803">
        <ele>1543.53</ele>
        <time>2018-04-03T12:26:33Z</time>
      </trkpt>
      <trkpt lat="42.89318" lon="0.08031">
        <ele>1542.09</ele>
        <time>2018-04-03T12:26:44Z</time>
      </trkpt>
      <trkpt lat="42.89322" lon="0.08034">
        <ele>1541.61</ele>
        <time>2018-04-03T12:26:51Z</time>
      </trkpt>
      <trkpt lat="42.89334" lon="0.08044">
        <ele>1538.73</ele>
        <time>2018-04-03T12:27:05Z</time>
      </trkpt>
      <trkpt lat="42.89337" lon="0.08047">
        <ele>1538.25</ele>
        <time>2018-04-03T12:27:08Z</time>
      </trkpt>
      <trkpt lat="42.89349" lon="0.08059">
        <ele>1536.32</ele>
        <time>2018-04-03T12:27:21Z</time>
      </trkpt>
      <trkpt lat="42.89359" lon="0.0807">
        <ele>1532.96</ele>
        <time>2018-04-03T12:27:33Z</time>
      </trkpt>
      <trkpt lat="42.89366" lon="0.08078">
        <ele>1530.08</ele>
        <time>2018-04-03T12:27:45Z</time>
      </trkpt>
      <trkpt lat="42.89375" lon="0.08088">
        <ele>1527.67</ele>
        <time>2018-04-03T12:27:58Z</time>
      </trkpt>
      <trkpt lat="42.89377" lon="0.08095">
        <ele>1527.19</ele>
        <time>2018-04-03T12:28:04Z</time>
      </trkpt>
      <trkpt lat="42.89379" lon="0.08097">
        <ele>1527.67</ele>
        <time>2018-04-03T12:28:07Z</time>
      </trkpt>
      <trkpt lat="42.89381" lon="0.081">
        <ele>1526.23</ele>
        <time>2018-04-03T12:28:10Z</time>
      </trkpt>
      <trkpt lat="42.89384" lon="0.08101">
        <ele>1525.27</ele>
        <time>2018-04-03T12:28:12Z</time>
      </trkpt>
      <trkpt lat="42.89394" lon="0.08114">
        <ele>1523.35</ele>
        <time>2018-04-03T12:28:25Z</time>
      </trkpt>
      <trkpt lat="42.89403" lon="0.08125">
        <ele>1521.42</ele>
        <time>2018-04-03T12:28:38Z</time>
      </trkpt>
      <trkpt lat="42.89406" lon="0.08129">
        <ele>1519.98</ele>
        <time>2018-04-03T12:28:49Z</time>
      </trkpt>
      <trkpt lat="42.89407" lon="0.0813">
        <ele>1519.98</ele>
        <time>2018-04-03T12:28:50Z</time>
      </trkpt>
      <trkpt lat="42.89412" lon="0.0814">
        <ele>1518.54</ele>
        <time>2018-04-03T12:29:01Z</time>
      </trkpt>
      <trkpt lat="42.89419" lon="0.08146">
        <ele>1518.06</ele>
        <time>2018-04-03T12:29:12Z</time>
      </trkpt>
      <trkpt lat="42.89423" lon="0.08151">
        <ele>1519.02</ele>
        <time>2018-04-03T12:29:18Z</time>
      </trkpt>
      <trkpt lat="42.89421" lon="0.08165">
        <ele>1519.02</ele>
        <time>2018-04-03T12:29:31Z</time>
      </trkpt>
      <trkpt lat="42.89422" lon="0.08178">
        <ele>1518.54</ele>
        <time>2018-04-03T12:29:42Z</time>
      </trkpt>
      <trkpt lat="42.89422" lon="0.08179">
        <ele>1518.54</ele>
        <time>2018-04-03T12:29:43Z</time>
      </trkpt>
      <trkpt lat="42.89421" lon="0.08191">
        <ele>1519.98</ele>
        <time>2018-04-03T12:29:54Z</time>
      </trkpt>
      <trkpt lat="42.89414" lon="0.08205">
        <ele>1519.02</ele>
        <time>2018-04-03T12:30:06Z</time>
      </trkpt>
      <trkpt lat="42.89413" lon="0.08208">
        <ele>1519.5</ele>
        <time>2018-04-03T12:30:09Z</time>
      </trkpt>
      <trkpt lat="42.89409" lon="0.08214">
        <ele>1519.5</ele>
        <time>2018-04-03T12:30:14Z</time>
      </trkpt>
      <trkpt lat="42.89406" lon="0.0822">
        <ele>1519.5</ele>
        <time>2018-04-03T12:30:29Z</time>
      </trkpt>
      <trkpt lat="42.89404" lon="0.08216">
        <ele>1518.54</ele>
        <time>2018-04-03T12:30:48Z</time>
      </trkpt>
      <trkpt lat="42.89403" lon="0.08219">
        <ele>1518.54</ele>
        <time>2018-04-03T12:31:07Z</time>
      </trkpt>
      <trkpt lat="42.89403" lon="0.08218">
        <ele>1518.54</ele>
        <time>2018-04-03T12:31:40Z</time>
      </trkpt>
      <trkpt lat="42.89401" lon="0.08221">
        <ele>1518.54</ele>
        <time>2018-04-03T12:32:17Z</time>
      </trkpt>
      <trkpt lat="42.89402" lon="0.08224">
        <ele>1518.54</ele>
        <time>2018-04-03T12:32:43Z</time>
      </trkpt>
      <trkpt lat="42.89402" lon="0.08229">
        <ele>1517.58</ele>
        <time>2018-04-03T12:32:58Z</time>
      </trkpt>
      <trkpt lat="42.89399" lon="0.08238">
        <ele>1518.06</ele>
        <time>2018-04-03T12:33:09Z</time>
      </trkpt>
      <trkpt lat="42.89397" lon="0.08258">
        <ele>1517.1</ele>
        <time>2018-04-03T12:33:22Z</time>
      </trkpt>
      <trkpt lat="42.89398" lon="0.08259">
        <ele>1517.1</ele>
        <time>2018-04-03T12:33:24Z</time>
      </trkpt>
      <trkpt lat="42.894" lon="0.08262">
        <ele>1517.1</ele>
        <time>2018-04-03T12:33:27Z</time>
      </trkpt>
      <trkpt lat="42.89415" lon="0.08268">
        <ele>1519.02</ele>
        <time>2018-04-03T12:33:41Z</time>
      </trkpt>
      <trkpt lat="42.89418" lon="0.08268">
        <ele>1519.5</ele>
        <time>2018-04-03T12:33:45Z</time>
      </trkpt>
      <trkpt lat="42.8942" lon="0.08268">
        <ele>1519.98</ele>
        <time>2018-04-03T12:33:47Z</time>
      </trkpt>
      <trkpt lat="42.89425" lon="0.08269">
        <ele>1520.46</ele>
        <time>2018-04-03T12:33:51Z</time>
      </trkpt>
      <trkpt lat="42.89432" lon="0.08271">
        <ele>1520.94</ele>
        <time>2018-04-03T12:33:59Z</time>
      </trkpt>
      <trkpt lat="42.89443" lon="0.08277">
        <ele>1521.9</ele>
        <time>2018-04-03T12:34:12Z</time>
      </trkpt>
      <trkpt lat="42.89452" lon="0.08278">
        <ele>1522.87</ele>
        <time>2018-04-03T12:34:23Z</time>
      </trkpt>
      <trkpt lat="42.8946" lon="0.08284">
        <ele>1524.31</ele>
        <time>2018-04-03T12:34:33Z</time>
      </trkpt>
      <trkpt lat="42.89467" lon="0.08299">
        <ele>1524.79</ele>
        <time>2018-04-03T12:34:45Z</time>
      </trkpt>
      <trkpt lat="42.89473" lon="0.08316">
        <ele>1525.75</ele>
        <time>2018-04-03T12:34:57Z</time>
      </trkpt>
      <trkpt lat="42.8948" lon="0.0833">
        <ele>1525.75</ele>
        <time>2018-04-03T12:35:08Z</time>
      </trkpt>
      <trkpt lat="42.89481" lon="0.08331">
        <ele>1525.75</ele>
        <time>2018-04-03T12:35:09Z</time>
      </trkpt>
      <trkpt lat="42.89489" lon="0.08329">
        <ele>1526.23</ele>
        <time>2018-04-03T12:35:19Z</time>
      </trkpt>
      <trkpt lat="42.89491" lon="0.08328">
        <ele>1526.23</ele>
        <time>2018-04-03T12:35:21Z</time>
      </trkpt>
      <trkpt lat="42.89493" lon="0.08327">
        <ele>1526.23</ele>
        <time>2018-04-03T12:35:23Z</time>
      </trkpt>
      <trkpt lat="42.89496" lon="0.08326">
        <ele>1526.71</ele>
        <time>2018-04-03T12:35:25Z</time>
      </trkpt>
      <trkpt lat="42.89504" lon="0.0832">
        <ele>1526.71</ele>
        <time>2018-04-03T12:35:34Z</time>
      </trkpt>
      <trkpt lat="42.89506" lon="0.08319">
        <ele>1526.71</ele>
        <time>2018-04-03T12:35:36Z</time>
      </trkpt>
      <trkpt lat="42.8951" lon="0.08316">
        <ele>1527.19</ele>
        <time>2018-04-03T12:35:41Z</time>
      </trkpt>
      <trkpt lat="42.89524" lon="0.08309">
        <ele>1527.19</ele>
        <time>2018-04-03T12:35:55Z</time>
      </trkpt>
      <trkpt lat="42.89538" lon="0.08297">
        <ele>1527.67</ele>
        <time>2018-04-03T12:36:10Z</time>
      </trkpt>
      <trkpt lat="42.89546" lon="0.0829">
        <ele>1529.11</ele>
        <time>2018-04-03T12:36:21Z</time>
      </trkpt>
      <trkpt lat="42.8956" lon="0.08281">
        <ele>1529.59</ele>
        <time>2018-04-03T12:36:33Z</time>
      </trkpt>
      <trkpt lat="42.89572" lon="0.08271">
        <ele>1530.56</ele>
        <time>2018-04-03T12:36:47Z</time>
      </trkpt>
      <trkpt lat="42.89583" lon="0.0826">
        <ele>1530.08</ele>
        <time>2018-04-03T12:36:59Z</time>
      </trkpt>
      <trkpt lat="42.8959" lon="0.08251">
        <ele>1529.11</ele>
        <time>2018-04-03T12:37:11Z</time>
      </trkpt>
      <trkpt lat="42.89588" lon="0.08251">
        <ele>1529.11</ele>
        <time>2018-04-03T12:37:22Z</time>
      </trkpt>
      <trkpt lat="42.89587" lon="0.08248">
        <ele>1529.59</ele>
        <time>2018-04-03T12:37:42Z</time>
      </trkpt>
      <trkpt lat="42.89586" lon="0.08249">
        <ele>1529.11</ele>
        <time>2018-04-03T12:37:56Z</time>
      </trkpt>
      <trkpt lat="42.89592" lon="0.0825">
        <ele>1530.08</ele>
        <time>2018-04-03T12:38:10Z</time>
      </trkpt>
      <trkpt lat="42.89594" lon="0.08247">
        <ele>1529.59</ele>
        <time>2018-04-03T12:38:32Z</time>
      </trkpt>
      <trkpt lat="42.89595" lon="0.0825">
        <ele>1529.59</ele>
        <time>2018-04-03T12:38:48Z</time>
      </trkpt>
      <trkpt lat="42.89589" lon="0.0825">
        <ele>1529.59</ele>
        <time>2018-04-03T12:39:00Z</time>
      </trkpt>
      <trkpt lat="42.89589" lon="0.08251">
        <ele>1530.08</ele>
        <time>2018-04-03T12:39:05Z</time>
      </trkpt>
      <trkpt lat="42.89583" lon="0.08253">
        <ele>1528.15</ele>
        <time>2018-04-03T12:39:37Z</time>
      </trkpt>
      <trkpt lat="42.89588" lon="0.08251">
        <ele>1528.15</ele>
        <time>2018-04-03T12:40:01Z</time>
      </trkpt>
      <trkpt lat="42.89586" lon="0.08247">
        <ele>1528.63</ele>
        <time>2018-04-03T12:40:29Z</time>
      </trkpt>
      <trkpt lat="42.8959" lon="0.08248">
        <ele>1528.63</ele>
        <time>2018-04-03T12:40:41Z</time>
      </trkpt>
      <trkpt lat="42.89595" lon="0.08248">
        <ele>1529.11</ele>
        <time>2018-04-03T12:41:06Z</time>
      </trkpt>
      <trkpt lat="42.89596" lon="0.08254">
        <ele>1529.59</ele>
        <time>2018-04-03T12:41:25Z</time>
      </trkpt>
      <trkpt lat="42.89597" lon="0.08246">
        <ele>1529.59</ele>
        <time>2018-04-03T12:41:39Z</time>
      </trkpt>
      <trkpt lat="42.89599" lon="0.08249">
        <ele>1529.11</ele>
        <time>2018-04-03T12:41:54Z</time>
      </trkpt>
      <trkpt lat="42.896" lon="0.0825">
        <ele>1529.11</ele>
        <time>2018-04-03T12:42:15Z</time>
      </trkpt>
      <trkpt lat="42.89608" lon="0.08244">
        <ele>1529.59</ele>
        <time>2018-04-03T12:42:23Z</time>
      </trkpt>
      <trkpt lat="42.8962" lon="0.08238">
        <ele>1530.08</ele>
        <time>2018-04-03T12:42:39Z</time>
      </trkpt>
      <trkpt lat="42.89635" lon="0.08231">
        <ele>1530.08</ele>
        <time>2018-04-03T12:42:54Z</time>
      </trkpt>
      <trkpt lat="42.89647" lon="0.08222">
        <ele>1529.59</ele>
        <time>2018-04-03T12:43:08Z</time>
      </trkpt>
      <trkpt lat="42.89652" lon="0.08217">
        <ele>1529.11</ele>
        <time>2018-04-03T12:43:13Z</time>
      </trkpt>
      <trkpt lat="42.89665" lon="0.08206">
        <ele>1528.15</ele>
        <time>2018-04-03T12:43:28Z</time>
      </trkpt>
      <trkpt lat="42.89682" lon="0.08198">
        <ele>1525.27</ele>
        <time>2018-04-03T12:43:44Z</time>
      </trkpt>
      <trkpt lat="42.89692" lon="0.08203">
        <ele>1524.31</ele>
        <time>2018-04-03T12:43:56Z</time>
      </trkpt>
      <trkpt lat="42.89704" lon="0.08211">
        <ele>1522.39</ele>
        <time>2018-04-03T12:44:09Z</time>
      </trkpt>
      <trkpt lat="42.8972" lon="0.0822">
        <ele>1519.98</ele>
        <time>2018-04-03T12:44:25Z</time>
      </trkpt>
      <trkpt lat="42.89724" lon="0.08222">
        <ele>1519.02</ele>
        <time>2018-04-03T12:44:29Z</time>
      </trkpt>
      <trkpt lat="42.89736" lon="0.08226">
        <ele>1518.06</ele>
        <time>2018-04-03T12:44:39Z</time>
      </trkpt>
      <trkpt lat="42.8976" lon="0.08234">
        <ele>1515.66</ele>
        <time>2018-04-03T12:44:58Z</time>
      </trkpt>
      <trkpt lat="42.89781" lon="0.08241">
        <ele>1513.73</ele>
        <time>2018-04-03T12:45:15Z</time>
      </trkpt>
      <trkpt lat="42.89801" lon="0.08249">
        <ele>1511.33</ele>
        <time>2018-04-03T12:45:32Z</time>
      </trkpt>
      <trkpt lat="42.89817" lon="0.08252">
        <ele>1509.89</ele>
        <time>2018-04-03T12:45:46Z</time>
      </trkpt>
      <trkpt lat="42.89835" lon="0.08256">
        <ele>1507.97</ele>
        <time>2018-04-03T12:46:03Z</time>
      </trkpt>
      <trkpt lat="42.89849" lon="0.08261">
        <ele>1506.04</ele>
        <time>2018-04-03T12:46:17Z</time>
      </trkpt>
      <trkpt lat="42.89864" lon="0.08266">
        <ele>1503.16</ele>
        <time>2018-04-03T12:46:32Z</time>
      </trkpt>
      <trkpt lat="42.8989" lon="0.08278">
        <ele>1501.24</ele>
        <time>2018-04-03T12:46:49Z</time>
      </trkpt>
      <trkpt lat="42.899" lon="0.08287">
        <ele>1499.79</ele>
        <time>2018-04-03T12:46:59Z</time>
      </trkpt>
      <trkpt lat="42.89905" lon="0.08292">
        <ele>1499.31</ele>
        <time>2018-04-03T12:47:04Z</time>
      </trkpt>
      <trkpt lat="42.89919" lon="0.08306">
        <ele>1498.35</ele>
        <time>2018-04-03T12:47:18Z</time>
      </trkpt>
      <trkpt lat="42.89931" lon="0.08327">
        <ele>1496.43</ele>
        <time>2018-04-03T12:47:35Z</time>
      </trkpt>
      <trkpt lat="42.8994" lon="0.08345">
        <ele>1494.51</ele>
        <time>2018-04-03T12:47:52Z</time>
      </trkpt>
      <trkpt lat="42.8994" lon="0.08348">
        <ele>1493.55</ele>
        <time>2018-04-03T12:48:04Z</time>
      </trkpt>
      <trkpt lat="42.89941" lon="0.08349">
        <ele>1493.55</ele>
        <time>2018-04-03T12:48:08Z</time>
      </trkpt>
      <trkpt lat="42.89944" lon="0.0835">
        <ele>1494.51</ele>
        <time>2018-04-03T12:48:15Z</time>
      </trkpt>
      <trkpt lat="42.89946" lon="0.08353">
        <ele>1494.03</ele>
        <time>2018-04-03T12:48:17Z</time>
      </trkpt>
      <trkpt lat="42.8995" lon="0.08363">
        <ele>1493.55</ele>
        <time>2018-04-03T12:48:22Z</time>
      </trkpt>
      <trkpt lat="42.89953" lon="0.0837">
        <ele>1493.55</ele>
        <time>2018-04-03T12:48:27Z</time>
      </trkpt>
      <trkpt lat="42.89954" lon="0.08372">
        <ele>1493.55</ele>
        <time>2018-04-03T12:48:28Z</time>
      </trkpt>
      <trkpt lat="42.89966" lon="0.08395">
        <ele>1491.14</ele>
        <time>2018-04-03T12:48:43Z</time>
      </trkpt>
      <trkpt lat="42.89969" lon="0.08401">
        <ele>1491.14</ele>
        <time>2018-04-03T12:48:47Z</time>
      </trkpt>
      <trkpt lat="42.89973" lon="0.08417">
        <ele>1489.7</ele>
        <time>2018-04-03T12:49:03Z</time>
      </trkpt>
      <trkpt lat="42.89977" lon="0.08428">
        <ele>1488.74</ele>
        <time>2018-04-03T12:49:12Z</time>
      </trkpt>
      <trkpt lat="42.89979" lon="0.08437">
        <ele>1488.26</ele>
        <time>2018-04-03T12:49:19Z</time>
      </trkpt>
      <trkpt lat="42.89981" lon="0.08444">
        <ele>1487.78</ele>
        <time>2018-04-03T12:49:24Z</time>
      </trkpt>
      <trkpt lat="42.89983" lon="0.0845">
        <ele>1486.82</ele>
        <time>2018-04-03T12:49:28Z</time>
      </trkpt>
      <trkpt lat="42.89987" lon="0.08462">
        <ele>1486.34</ele>
        <time>2018-04-03T12:49:37Z</time>
      </trkpt>
      <trkpt lat="42.89995" lon="0.08489">
        <ele>1483.93</ele>
        <time>2018-04-03T12:49:54Z</time>
      </trkpt>
      <trkpt lat="42.89996" lon="0.08491">
        <ele>1483.93</ele>
        <time>2018-04-03T12:49:55Z</time>
      </trkpt>
      <trkpt lat="42.90001" lon="0.08498">
        <ele>1482.97</ele>
        <time>2018-04-03T12:50:01Z</time>
      </trkpt>
      <trkpt lat="42.90006" lon="0.08504">
        <ele>1482.01</ele>
        <time>2018-04-03T12:50:06Z</time>
      </trkpt>
      <trkpt lat="42.90011" lon="0.08525">
        <ele>1481.05</ele>
        <time>2018-04-03T12:50:20Z</time>
      </trkpt>
      <trkpt lat="42.90015" lon="0.08546">
        <ele>1479.13</ele>
        <time>2018-04-03T12:50:35Z</time>
      </trkpt>
      <trkpt lat="42.90017" lon="0.08555">
        <ele>1478.65</ele>
        <time>2018-04-03T12:50:42Z</time>
      </trkpt>
      <trkpt lat="42.90023" lon="0.08569">
        <ele>1477.2</ele>
        <time>2018-04-03T12:50:54Z</time>
      </trkpt>
      <trkpt lat="42.90027" lon="0.08576">
        <ele>1476.72</ele>
        <time>2018-04-03T12:50:59Z</time>
      </trkpt>
      <trkpt lat="42.90037" lon="0.08592">
        <ele>1474.8</ele>
        <time>2018-04-03T12:51:15Z</time>
      </trkpt>
      <trkpt lat="42.90038" lon="0.08593">
        <ele>1474.8</ele>
        <time>2018-04-03T12:51:16Z</time>
      </trkpt>
      <trkpt lat="42.90048" lon="0.08611">
        <ele>1472.88</ele>
        <time>2018-04-03T12:51:31Z</time>
      </trkpt>
      <trkpt lat="42.90055" lon="0.08631">
        <ele>1470.95</ele>
        <time>2018-04-03T12:51:47Z</time>
      </trkpt>
      <trkpt lat="42.90063" lon="0.08648">
        <ele>1469.99</ele>
        <time>2018-04-03T12:52:01Z</time>
      </trkpt>
      <trkpt lat="42.90068" lon="0.08662">
        <ele>1468.55</ele>
        <time>2018-04-03T12:52:12Z</time>
      </trkpt>
      <trkpt lat="42.90077" lon="0.08685">
        <ele>1466.15</ele>
        <time>2018-04-03T12:52:30Z</time>
      </trkpt>
      <trkpt lat="42.90079" lon="0.08692">
        <ele>1466.15</ele>
        <time>2018-04-03T12:52:35Z</time>
      </trkpt>
      <trkpt lat="42.90084" lon="0.08703">
        <ele>1465.19</ele>
        <time>2018-04-03T12:52:44Z</time>
      </trkpt>
      <trkpt lat="42.90091" lon="0.08718">
        <ele>1463.74</ele>
        <time>2018-04-03T12:52:56Z</time>
      </trkpt>
      <trkpt lat="42.90101" lon="0.08734">
        <ele>1461.82</ele>
        <time>2018-04-03T12:53:09Z</time>
      </trkpt>
      <trkpt lat="42.90112" lon="0.08751">
        <ele>1460.86</ele>
        <time>2018-04-03T12:53:24Z</time>
      </trkpt>
      <trkpt lat="42.90117" lon="0.08761">
        <ele>1459.9</ele>
        <time>2018-04-03T12:53:31Z</time>
      </trkpt>
      <trkpt lat="42.90126" lon="0.08781">
        <ele>1458.94</ele>
        <time>2018-04-03T12:53:46Z</time>
      </trkpt>
      <trkpt lat="42.9013" lon="0.08791">
        <ele>1458.46</ele>
        <time>2018-04-03T12:53:53Z</time>
      </trkpt>
      <trkpt lat="42.90144" lon="0.08815">
        <ele>1456.53</ele>
        <time>2018-04-03T12:54:11Z</time>
      </trkpt>
      <trkpt lat="42.90151" lon="0.08832">
        <ele>1455.09</ele>
        <time>2018-04-03T12:54:23Z</time>
      </trkpt>
      <trkpt lat="42.90152" lon="0.08837">
        <ele>1454.61</ele>
        <time>2018-04-03T12:54:27Z</time>
      </trkpt>
      <trkpt lat="42.90158" lon="0.08864">
        <ele>1453.17</ele>
        <time>2018-04-03T12:54:43Z</time>
      </trkpt>
      <trkpt lat="42.90159" lon="0.08873">
        <ele>1453.17</ele>
        <time>2018-04-03T12:54:49Z</time>
      </trkpt>
      <trkpt lat="42.90162" lon="0.08892">
        <ele>1452.69</ele>
        <time>2018-04-03T12:55:02Z</time>
      </trkpt>
      <trkpt lat="42.90167" lon="0.08912">
        <ele>1451.73</ele>
        <time>2018-04-03T12:55:14Z</time>
      </trkpt>
      <trkpt lat="42.90174" lon="0.08942">
        <ele>1451.25</ele>
        <time>2018-04-03T12:55:32Z</time>
      </trkpt>
      <trkpt lat="42.90181" lon="0.08968">
        <ele>1450.29</ele>
        <time>2018-04-03T12:55:48Z</time>
      </trkpt>
      <trkpt lat="42.90182" lon="0.08987">
        <ele>1450.29</ele>
        <time>2018-04-03T12:56:01Z</time>
      </trkpt>
      <trkpt lat="42.90184" lon="0.08992">
        <ele>1450.29</ele>
        <time>2018-04-03T12:56:05Z</time>
      </trkpt>
      <trkpt lat="42.90192" lon="0.09022">
        <ele>1449.32</ele>
        <time>2018-04-03T12:56:24Z</time>
      </trkpt>
      <trkpt lat="42.90192" lon="0.09027">
        <ele>1448.84</ele>
        <time>2018-04-03T12:56:27Z</time>
      </trkpt>
      <trkpt lat="42.90193" lon="0.0904">
        <ele>1448.36</ele>
        <time>2018-04-03T12:56:34Z</time>
      </trkpt>
      <trkpt lat="42.90199" lon="0.09074">
        <ele>1447.4</ele>
        <time>2018-04-03T12:56:56Z</time>
      </trkpt>
      <trkpt lat="42.902" lon="0.09076">
        <ele>1447.4</ele>
        <time>2018-04-03T12:56:57Z</time>
      </trkpt>
      <trkpt lat="42.90201" lon="0.09087">
        <ele>1445.96</ele>
        <time>2018-04-03T12:57:04Z</time>
      </trkpt>
      <trkpt lat="42.90204" lon="0.09116">
        <ele>1444.04</ele>
        <time>2018-04-03T12:57:21Z</time>
      </trkpt>
      <trkpt lat="42.90208" lon="0.09144">
        <ele>1441.15</ele>
        <time>2018-04-03T12:57:38Z</time>
      </trkpt>
      <trkpt lat="42.90217" lon="0.09168">
        <ele>1438.75</ele>
        <time>2018-04-03T12:57:54Z</time>
      </trkpt>
      <trkpt lat="42.90223" lon="0.09189">
        <ele>1437.31</ele>
        <time>2018-04-03T12:58:08Z</time>
      </trkpt>
      <trkpt lat="42.90225" lon="0.09194">
        <ele>1436.83</ele>
        <time>2018-04-03T12:58:11Z</time>
      </trkpt>
      <trkpt lat="42.90238" lon="0.09218">
        <ele>1434.42</ele>
        <time>2018-04-03T12:58:29Z</time>
      </trkpt>
      <trkpt lat="42.90243" lon="0.09236">
        <ele>1432.02</ele>
        <time>2018-04-03T12:58:42Z</time>
      </trkpt>
      <trkpt lat="42.90254" lon="0.09263">
        <ele>1429.14</ele>
        <time>2018-04-03T12:59:00Z</time>
      </trkpt>
      <trkpt lat="42.90271" lon="0.09294">
        <ele>1426.73</ele>
        <time>2018-04-03T12:59:19Z</time>
      </trkpt>
      <trkpt lat="42.90283" lon="0.09319">
        <ele>1424.33</ele>
        <time>2018-04-03T12:59:36Z</time>
      </trkpt>
      <trkpt lat="42.90286" lon="0.09325">
        <ele>1423.85</ele>
        <time>2018-04-03T12:59:40Z</time>
      </trkpt>
      <trkpt lat="42.90291" lon="0.09338">
        <ele>1422.89</ele>
        <time>2018-04-03T12:59:49Z</time>
      </trkpt>
      <trkpt lat="42.90301" lon="0.09366">
        <ele>1421.45</ele>
        <time>2018-04-03T13:00:06Z</time>
      </trkpt>
      <trkpt lat="42.90309" lon="0.09394">
        <ele>1420.49</ele>
        <time>2018-04-03T13:00:24Z</time>
      </trkpt>
      <trkpt lat="42.90322" lon="0.09424">
        <ele>1419.52</ele>
        <time>2018-04-03T13:00:45Z</time>
      </trkpt>
      <trkpt lat="42.90326" lon="0.09432">
        <ele>1419.52</ele>
        <time>2018-04-03T13:00:51Z</time>
      </trkpt>
      <trkpt lat="42.90329" lon="0.09444">
        <ele>1420</ele>
        <time>2018-04-03T13:00:59Z</time>
      </trkpt>
      <trkpt lat="42.9033" lon="0.09464">
        <ele>1420.97</ele>
        <time>2018-04-03T13:01:13Z</time>
      </trkpt>
      <trkpt lat="42.90332" lon="0.09482">
        <ele>1421.45</ele>
        <time>2018-04-03T13:01:24Z</time>
      </trkpt>
      <trkpt lat="42.90331" lon="0.09504">
        <ele>1422.41</ele>
        <time>2018-04-03T13:01:39Z</time>
      </trkpt>
      <trkpt lat="42.90332" lon="0.0953">
        <ele>1423.37</ele>
        <time>2018-04-03T13:01:55Z</time>
      </trkpt>
      <trkpt lat="42.90332" lon="0.09538">
        <ele>1423.85</ele>
        <time>2018-04-03T13:02:00Z</time>
      </trkpt>
      <trkpt lat="42.90333" lon="0.09551">
        <ele>1424.33</ele>
        <time>2018-04-03T13:02:09Z</time>
      </trkpt>
      <trkpt lat="42.90334" lon="0.09559">
        <ele>1424.33</ele>
        <time>2018-04-03T13:02:14Z</time>
      </trkpt>
      <trkpt lat="42.90335" lon="0.09582">
        <ele>1425.29</ele>
        <time>2018-04-03T13:02:29Z</time>
      </trkpt>
      <trkpt lat="42.90336" lon="0.09598">
        <ele>1425.77</ele>
        <time>2018-04-03T13:02:39Z</time>
      </trkpt>
      <trkpt lat="42.90337" lon="0.09611">
        <ele>1426.25</ele>
        <time>2018-04-03T13:02:48Z</time>
      </trkpt>
      <trkpt lat="42.90337" lon="0.09619">
        <ele>1426.73</ele>
        <time>2018-04-03T13:03:00Z</time>
      </trkpt>
      <trkpt lat="42.90337" lon="0.09641">
        <ele>1427.7</ele>
        <time>2018-04-03T13:03:14Z</time>
      </trkpt>
      <trkpt lat="42.90338" lon="0.09665">
        <ele>1428.66</ele>
        <time>2018-04-03T13:03:29Z</time>
      </trkpt>
      <trkpt lat="42.90338" lon="0.09668">
        <ele>1428.66</ele>
        <time>2018-04-03T13:03:31Z</time>
      </trkpt>
      <trkpt lat="42.90337" lon="0.09679">
        <ele>1429.14</ele>
        <time>2018-04-03T13:03:39Z</time>
      </trkpt>
      <trkpt lat="42.90336" lon="0.09686">
        <ele>1429.62</ele>
        <time>2018-04-03T13:03:43Z</time>
      </trkpt>
      <trkpt lat="42.90337" lon="0.09701">
        <ele>1430.1</ele>
        <time>2018-04-03T13:03:53Z</time>
      </trkpt>
      <trkpt lat="42.90336" lon="0.09707">
        <ele>1430.58</ele>
        <time>2018-04-03T13:03:57Z</time>
      </trkpt>
      <trkpt lat="42.90336" lon="0.09717">
        <ele>1431.06</ele>
        <time>2018-04-03T13:04:04Z</time>
      </trkpt>
      <trkpt lat="42.90339" lon="0.09731">
        <ele>1431.54</ele>
        <time>2018-04-03T13:04:16Z</time>
      </trkpt>
      <trkpt lat="42.90342" lon="0.09757">
        <ele>1432.98</ele>
        <time>2018-04-03T13:04:32Z</time>
      </trkpt>
      <trkpt lat="42.90344" lon="0.09761">
        <ele>1432.98</ele>
        <time>2018-04-03T13:04:35Z</time>
      </trkpt>
      <trkpt lat="42.90345" lon="0.09774">
        <ele>1433.46</ele>
        <time>2018-04-03T13:04:43Z</time>
      </trkpt>
      <trkpt lat="42.90347" lon="0.09798">
        <ele>1434.42</ele>
        <time>2018-04-03T13:04:58Z</time>
      </trkpt>
      <trkpt lat="42.90349" lon="0.09809">
        <ele>1434.91</ele>
        <time>2018-04-03T13:05:05Z</time>
      </trkpt>
      <trkpt lat="42.90348" lon="0.09833">
        <ele>1436.35</ele>
        <time>2018-04-03T13:05:20Z</time>
      </trkpt>
      <trkpt lat="42.90348" lon="0.09838">
        <ele>1436.35</ele>
        <time>2018-04-03T13:05:23Z</time>
      </trkpt>
      <trkpt lat="42.90352" lon="0.09862">
        <ele>1437.79</ele>
        <time>2018-04-03T13:05:39Z</time>
      </trkpt>
      <trkpt lat="42.90354" lon="0.09887">
        <ele>1439.71</ele>
        <time>2018-04-03T13:05:56Z</time>
      </trkpt>
      <trkpt lat="42.90356" lon="0.09907">
        <ele>1441.15</ele>
        <time>2018-04-03T13:06:11Z</time>
      </trkpt>
      <trkpt lat="42.90357" lon="0.09928">
        <ele>1442.6</ele>
        <time>2018-04-03T13:06:24Z</time>
      </trkpt>
      <trkpt lat="42.90358" lon="0.09935">
        <ele>1443.08</ele>
        <time>2018-04-03T13:06:29Z</time>
      </trkpt>
      <trkpt lat="42.90359" lon="0.09956">
        <ele>1444.04</ele>
        <time>2018-04-03T13:06:44Z</time>
      </trkpt>
      <trkpt lat="42.90359" lon="0.09957">
        <ele>1444.52</ele>
        <time>2018-04-03T13:06:45Z</time>
      </trkpt>
      <trkpt lat="42.9036" lon="0.09972">
        <ele>1445</ele>
        <time>2018-04-03T13:06:55Z</time>
      </trkpt>
      <trkpt lat="42.9036" lon="0.09995">
        <ele>1445.96</ele>
        <time>2018-04-03T13:07:13Z</time>
      </trkpt>
      <trkpt lat="42.90357" lon="0.1001">
        <ele>1447.88</ele>
        <time>2018-04-03T13:07:24Z</time>
      </trkpt>
      <trkpt lat="42.90361" lon="0.10033">
        <ele>1448.84</ele>
        <time>2018-04-03T13:07:38Z</time>
      </trkpt>
      <trkpt lat="42.9036" lon="0.10045">
        <ele>1449.81</ele>
        <time>2018-04-03T13:07:46Z</time>
      </trkpt>
      <trkpt lat="42.90361" lon="0.10062">
        <ele>1450.29</ele>
        <time>2018-04-03T13:07:59Z</time>
      </trkpt>
      <trkpt lat="42.90358" lon="0.10076">
        <ele>1451.73</ele>
        <time>2018-04-03T13:08:09Z</time>
      </trkpt>
      <trkpt lat="42.90359" lon="0.10094">
        <ele>1452.21</ele>
        <time>2018-04-03T13:08:21Z</time>
      </trkpt>
      <trkpt lat="42.90364" lon="0.10103">
        <ele>1452.21</ele>
        <time>2018-04-03T13:08:29Z</time>
      </trkpt>
      <trkpt lat="42.90365" lon="0.10111">
        <ele>1452.21</ele>
        <time>2018-04-03T13:08:33Z</time>
      </trkpt>
      <trkpt lat="42.90369" lon="0.10119">
        <ele>1452.21</ele>
        <time>2018-04-03T13:08:41Z</time>
      </trkpt>
      <trkpt lat="42.90374" lon="0.10143">
        <ele>1453.17</ele>
        <time>2018-04-03T13:08:56Z</time>
      </trkpt>
      <trkpt lat="42.9037" lon="0.10142">
        <ele>1453.17</ele>
        <time>2018-04-03T13:09:33Z</time>
      </trkpt>
      <trkpt lat="42.90369" lon="0.10145">
        <ele>1453.17</ele>
        <time>2018-04-03T13:09:37Z</time>
      </trkpt>
      <trkpt lat="42.90367" lon="0.10145">
        <ele>1452.69</ele>
        <time>2018-04-03T13:09:52Z</time>
      </trkpt>
    </trkseg>
  </trk>
</gpx>